LuftSinnSensorLog

ID Sensor Name Date and Time Latitude Longitude CO2 Temperature Humidity Pressure Marker Color
30 Zinc 2019-06-05 15:51:39 38.9002 -77.0515 435.3 24.6 44.6 1007.7 #ffc200
30 Zinc 2019-06-05 16:47:39 38.9002 -77.0515 431 25 43.4 1007.8 #ffd300
30 Zinc 2019-06-05 17:02:10 38.9002 -77.0515 428.5 25.5 42.3 1007.6 #ffdd00
30 Zinc 2019-06-05 16:32:18 38.9002 -77.0515 459.5 23.5 50.2 1011.4 #ff6400
30 Zinc 2019-06-10 15:17:20 38.9002 -77.0515 481 24.1 48.5 1011.4 #ff0f00
30 Zinc 2019-06-10 15:31:52 38.9002 -77.0515 466.8 24.7 46.8 1011.1 #ff4700
30 Zinc 2019-06-10 15:39:58 38.9002 -77.0515 446.3 22.8 50.6 1006.9 #ff9700
30 Zinc 2019-06-13 12:23:05 38.9002 -77.0515 440 23.3 49.1 1006.7 #ffb000
30 Zinc 2019-06-13 12:37:36 38.9002 -77.0515 440 23.4 48.8 1006.4 #ffb000
30 Zinc 2019-06-13 12:52:07 38.9002 -77.0515 437 23.6 48.5 1006.4 #ffbc00
30 Zinc 2019-06-13 13:06:38 38.9002 -77.0515 436.5 23.4 48.9 1006.3 #ffbe00
30 Zinc 2019-06-13 13:21:10 38.9002 -77.0515 434 23.4 49.4 1006.3 #ffc800
30 Zinc 2019-06-13 13:35:41 38.9002 -77.0515 437 23.5 49 1005.8 #ffbc00
30 Zinc 2019-06-13 13:50:12 38.9002 -77.0515 437 23.4 49.3 1005.9 #ffbc00
30 Zinc 2019-06-13 14:04:43 38.9002 -77.0515 440.8 23.5 49 1005.8 #ffad00
30 Zinc 2019-06-13 14:19:15 38.9002 -77.0515 435.3 23.7 48.5 1005.7 #ffc200
30 Zinc 2019-06-13 14:33:46 38.9002 -77.0515 438.5 23.2 49.8 1005.6 #ffb600
30 Zinc 2019-06-13 14:48:17 38.9002 -77.0515 438.5 23.2 49.9 1005.5 #ffb600
30 Zinc 2019-06-13 15:02:48 38.9002 -77.0515 438.2 23.5 48.8 1005.2 #ffb700
30 Zinc 2019-06-13 15:17:19 38.9002 -77.0515 441 22.8 49.2 1005.2 #ffac00
30 Zinc 2019-06-13 15:31:50 38.9002 -77.0515 437 22.5 50.4 1005.1 #ffbc00
30 Zinc 2019-06-13 15:46:21 38.9002 -77.0515 435.5 22.4 50.6 1004.8 #ffc200
30 Zinc 2019-06-13 16:00:52 38.9002 -77.0515 430.8 22.4 50.8 1004.4 #ffd400
30 Zinc 2019-06-13 16:15:24 38.9002 -77.0515 445.8 22.5 50.7 1004.3 #ff9900
30 Zinc 2019-06-13 16:24:06 38.9002 -77.0515 437.3 22.7 50.2 1003.8 #ffbb00
30 Zinc 2019-06-13 16:38:37 38.9002 -77.0515 433 22.8 49.9 1003.9 #ffcc00
30 Zinc 2019-06-13 16:53:09 38.9002 -77.0515 427 23.2 48.6 1004.1 #ffe300
30 Zinc 2019-06-13 17:07:40 38.9002 -77.0515 426.7 23.3 48.3 1004.4 #ffe400
30 Zinc 2019-06-13 17:22:11 38.9002 -77.0515 425.7 23.3 48.3 1004.3 #ffe800
30 Zinc 2019-06-13 17:36:42 38.9002 -77.0515 426.2 23.5 48.1 1005.1 #ffe600
30 Zinc 2019-06-13 17:51:13 38.9002 -77.0515 424.3 23.7 47 1004.6 #ffee00
30 Zinc 2019-06-13 18:05:45 38.9002 -77.0515 429.3 23.6 47.4 1005 #ffda00
30 Zinc 2019-06-13 18:20:16 38.9002 -77.0515 431 23.5 48.2 1005.3 #ffd300
30 Zinc 2019-06-13 18:34:47 38.9002 -77.0515 431.7 23.4 47.9 1005.8 #ffd100
30 Zinc 2019-06-13 18:49:18 38.9002 -77.0515 430.3 23.6 47.4 1005.8 #ffd600
30 Zinc 2019-06-13 19:03:49 38.9002 -77.0515 429.3 23.6 47 1005.7 #ffda00
30 Zinc 2019-06-13 19:18:20 38.9002 -77.0515 425.5 23.5 48.2 1006 #ffe900
30 Zinc 2019-06-13 19:32:52 38.9002 -77.0515 426.3 23.4 48.3 1006.1 #ffe600
30 Zinc 2019-06-13 19:47:23 38.9002 -77.0515 430 23.4 48.4 1006.2 #ffd700
30 Zinc 2019-06-13 20:01:54 38.9002 -77.0515 428.8 23.4 48.4 1006.4 #ffdc00
30 Zinc 2019-06-13 20:16:25 38.9002 -77.0515 429 23.3 48.9 1006.7 #ffdb00
30 Zinc 2019-06-13 20:30:56 38.9002 -77.0515 429 23.3 48.7 1007.2 #ffdb00
30 Zinc 2019-06-13 20:45:27 38.9002 -77.0515 431.5 23.2 49.2 1007.6 #ffd100
30 Zinc 2019-06-13 20:59:58 38.9002 -77.0515 433.2 23.3 48.3 1008 #ffcb00
30 Zinc 2019-06-13 21:14:29 38.9002 -77.0515 427.7 23.1 48.4 1008.1 #ffe000
30 Zinc 2019-06-13 21:29:00 38.9002 -77.0515 429.8 23.1 47.9 1008.4 #ffd800
30 Zinc 2019-06-13 21:43:32 38.9002 -77.0515 434 23 48.5 1008.7 #ffc800
30 Zinc 2019-06-13 21:58:03 38.9002 -77.0515 432.2 23 47.9 1008.7 #ffcf00
30 Zinc 2019-06-13 22:12:34 38.9002 -77.0515 432 22.8 47.8 1008.9 #ffcf00
30 Zinc 2019-06-13 22:27:05 38.9002 -77.0515 437 22.3 49.1 1009.1 #ffbc00
30 Zinc 2019-06-13 22:41:36 38.9002 -77.0515 436.7 22 50.2 1009.2 #ffbd00
30 Zinc 2019-06-13 22:56:07 38.9002 -77.0515 443.8 21.7 51.4 1009.4 #ffa100
30 Zinc 2019-06-13 23:10:38 38.9002 -77.0515 440.7 21.5 51.4 1009.5 #ffad00
30 Zinc 2019-06-13 23:25:09 38.9002 -77.0515 437 21.2 51.5 1009.4 #ffbc00
30 Zinc 2019-06-13 23:39:41 38.9002 -77.0515 438.5 20.4 52.9 1009.5 #ffb600
30 Zinc 2019-06-13 23:54:12 38.9002 -77.0515 440 20.5 53 1009.7 #ffb000
30 Zinc 2019-06-14 00:08:43 38.9002 -77.0515 442.8 20.6 52.3 1009.7 #ffa500
30 Zinc 2019-06-14 00:23:14 38.9002 -77.0515 438.2 20.8 50 1009.5 #ffb700
30 Zinc 2019-06-14 00:37:45 38.9002 -77.0515 437 21.4 47.3 1009.5 #ffbc00
30 Zinc 2019-06-14 00:52:16 38.9002 -77.0515 441 21.7 46.4 1009.7 #ffac00
30 Zinc 2019-06-14 01:06:48 38.9002 -77.0515 436 21.2 46.5 1009.6 #ffc000
30 Zinc 2019-06-14 01:21:19 38.9002 -77.0515 437 20.9 46.2 1009.7 #ffbc00
30 Zinc 2019-06-14 01:35:50 38.9002 -77.0515 436 21 45.5 1009.8 #ffc000
30 Zinc 2019-06-14 01:50:21 38.9002 -77.0515 434 21.3 44.6 1009.8 #ffc800
30 Zinc 2019-06-14 02:04:52 38.9002 -77.0515 432.5 21.4 44.1 1009.8 #ffcd00
30 Zinc 2019-06-14 02:19:23 38.9002 -77.0515 435 20.8 45.4 1009.9 #ffc400
30 Zinc 2019-06-14 02:33:54 38.9002 -77.0515 433.8 20.9 44.6 1010 #ffc800
30 Zinc 2019-06-14 02:48:25 38.9002 -77.0515 445.7 21.3 42.8 1009.8 #ff9a00
30 Zinc 2019-06-14 03:02:57 38.9002 -77.0515 436 21.4 41.8 1010 #ffc000
30 Zinc 2019-06-14 03:17:28 38.9002 -77.0515 432 20.9 42.4 1010 #ffcf00
30 Zinc 2019-06-14 03:31:59 38.9002 -77.0515 430 20.8 42.2 1010.1 #ffd700
30 Zinc 2019-06-14 03:46:30 38.9002 -77.0515 430 21.1 41.3 1010.2 #ffd700
30 Zinc 2019-06-14 04:01:01 38.9002 -77.0515 430 21.4 40.6 1010.4 #ffd700
30 Zinc 2019-06-14 04:15:32 38.9002 -77.0515 430.5 21.1 41.7 1010.6 #ffd500
30 Zinc 2019-06-14 04:30:03 38.9002 -77.0515 433.5 20.7 42.7 1010.7 #ffca00
30 Zinc 2019-06-14 04:44:34 38.9002 -77.0515 433 20.9 42.6 1011 #ffcc00
30 Zinc 2019-06-14 04:59:05 38.9002 -77.0515 434.3 21.3 42.3 1011.2 #ffc600
30 Zinc 2019-06-14 05:13:37 38.9002 -77.0515 435.8 21.2 42.8 1011.4 #ffc000
30 Zinc 2019-06-14 05:28:08 38.9002 -77.0515 442.7 20.8 44.1 1011.6 #ffa600
30 Zinc 2019-06-14 05:42:39 38.9002 -77.0515 440 20.8 44.2 1011.9 #ffb000
30 Zinc 2019-06-14 05:57:10 38.9002 -77.0515 438.5 21.3 43.1 1011.9 #ffb600
30 Zinc 2019-06-14 06:11:41 38.9002 -77.0515 441 21.9 41.8 1012.2 #ffac00
30 Zinc 2019-06-14 06:26:13 38.9002 -77.0515 439.2 22 41.3 1012.5 #ffb300
30 Zinc 2019-06-14 06:40:44 38.9002 -77.0515 441.3 22.1 41.2 1012.7 #ffab00
30 Zinc 2019-06-14 06:55:15 38.9002 -77.0515 441.7 22.2 41.3 1012.9 #ffa900
30 Zinc 2019-06-14 07:09:46 38.9002 -77.0515 445.5 22.2 41.5 1013 #ff9a00
30 Zinc 2019-06-14 07:24:18 38.9002 -77.0515 446.8 22.3 41.6 1013.2 #ff9500
30 Zinc 2019-06-14 07:38:49 38.9002 -77.0515 446.2 22.3 42.2 1013.5 #ff9800
30 Zinc 2019-06-14 07:53:20 38.9002 -77.0515 448.3 22.2 42.4 1013.6 #ff8f00
30 Zinc 2019-06-14 08:07:51 38.9002 -77.0515 446.2 22.3 42.3 1013.9 #ff9800
30 Zinc 2019-06-14 08:22:22 38.9002 -77.0515 440.5 22.3 42.1 1014 #ffae00
30 Zinc 2019-06-14 08:36:53 38.9002 -77.0515 441.7 22.4 42.1 1014.1 #ffa900
30 Zinc 2019-06-14 08:51:25 38.9002 -77.0515 439.5 22.6 41.9 1014.4 #ffb200
30 Zinc 2019-06-14 09:05:56 38.9002 -77.0515 434.5 22.6 41.8 1014.7 #ffc600
30 Zinc 2019-06-14 09:20:27 38.9002 -77.0515 434.3 22.7 41.7 1015.1 #ffc600
30 Zinc 2019-06-14 09:34:59 38.9002 -77.0515 433.7 22.8 41.4 1015.1 #ffc900
30 Zinc 2019-06-14 09:49:30 38.9002 -77.0515 436.3 22.9 41.1 1015.3 #ffbe00
30 Zinc 2019-06-14 10:04:01 38.9002 -77.0515 434.2 23.1 40.6 1015.4 #ffc700
30 Zinc 2019-06-14 10:18:32 38.9002 -77.0515 433.7 23.3 39.8 1015.6 #ffc900
30 Zinc 2019-06-14 10:33:03 38.9002 -77.0515 436 23.3 40.3 1016 #ffc000
30 Zinc 2019-06-14 10:47:34 38.9002 -77.0515 434.2 23.2 39.7 1016.1 #ffc700
30 Zinc 2019-06-14 11:02:06 38.9002 -77.0515 438.7 23 39.8 1016.1 #ffb500
30 Zinc 2019-06-14 11:16:37 38.9002 -77.0515 434.3 22.8 40 1016.3 #ffc600
30 Zinc 2019-06-14 11:31:08 38.9002 -77.0515 436 22.3 41 1016.6 #ffc000
30 Zinc 2019-06-14 11:45:40 38.9002 -77.0515 433 22.2 40.9 1016.7 #ffcc00
30 Zinc 2019-06-14 12:00:11 38.9002 -77.0515 431.8 22.2 40.7 1016.6 #ffd000
30 Zinc 2019-06-14 12:14:42 38.9002 -77.0515 432 22 40.9 1016.6 #ffcf00
30 Zinc 2019-06-14 12:29:13 38.9002 -77.0515 445 22 40.8 1016.8 #ff9c00
30 Zinc 2019-06-14 12:43:44 38.9002 -77.0515 435.2 21.5 41.3 1016.8 #ffc300
30 Zinc 2019-06-14 12:58:16 38.9002 -77.0515 429.5 21 42.3 1016.8 #ffd900
30 Zinc 2019-06-14 13:12:47 38.9002 -77.0515 433 21 42.1 1016.4 #ffcc00
30 Zinc 2019-06-14 13:27:18 38.9002 -77.0515 430 21 40.8 1016.4 #ffd700
30 Zinc 2019-06-14 13:41:49 38.9002 -77.0515 431.7 21 40.5 1016.3 #ffd100
30 Zinc 2019-06-14 13:56:20 38.9002 -77.0515 436.5 21.1 40.1 1016.3 #ffbe00
30 Zinc 2019-06-14 14:10:51 38.9002 -77.0515 434.2 21 40.8 1016.1 #ffc700
30 Zinc 2019-06-14 14:25:23 38.9002 -77.0515 433.5 21.1 40 1016 #ffca00
30 Zinc 2019-06-14 14:39:54 38.9002 -77.0515 432.7 21.4 39.2 1016.1 #ffcd00
30 Zinc 2019-06-14 14:54:25 38.9002 -77.0515 433.3 22 37.3 1016.1 #ffca00
30 Zinc 2019-06-14 15:08:56 38.9002 -77.0515 435 23 35.6 1016.1 #ffc400
30 Zinc 2019-06-14 15:23:27 38.9002 -77.0515 440 23 35.6 1016.1 #ffb000
30 Zinc 2019-06-14 15:37:58 38.9002 -77.0515 431.2 21.6 38.4 1015.9 #ffd300
30 Zinc 2019-06-14 15:52:29 38.9002 -77.0515 442.8 22.1 37.9 1016 #ffa500
30 Zinc 2019-06-14 16:07:02 38.9002 -77.0515 429.7 22.6 36.7 1016 #ffd900
30 Zinc 2019-06-14 16:21:33 38.9002 -77.0515 434.3 22.8 36.8 1015.9 #ffc600
30 Zinc 2019-06-14 16:36:04 38.9002 -77.0515 428.3 22.9 36.7 1016 #ffde00
30 Zinc 2019-06-14 16:50:35 38.9002 -77.0515 430 23.1 36.7 1016 #ffd700
30 Zinc 2019-06-14 17:05:06 38.9002 -77.0515 433 23.4 36.6 1015.9 #ffcc00
30 Zinc 2019-06-14 17:19:37 38.9002 -77.0515 429.3 23.7 35.5 1016 #ffda00
30 Zinc 2019-06-14 17:34:08 38.9002 -77.0515 430.3 23.9 34.8 1015.9 #ffd600
30 Zinc 2019-06-14 17:48:39 38.9002 -77.0515 428.8 24.1 34.4 1015.9 #ffdc00
30 Zinc 2019-06-14 18:03:11 38.9002 -77.0515 432 24.4 34.2 1016 #ffcf00
30 Zinc 2019-06-14 18:17:42 38.9002 -77.0515 434.5 24.9 33.2 1016 #ffc600
30 Zinc 2019-06-14 18:32:13 38.9002 -77.0515 433.5 25.5 32.4 1015.9 #ffca00
30 Zinc 2019-06-14 18:46:44 38.9002 -77.0515 431.8 26.5 30.3 1016.2 #ffd000
30 Zinc 2019-06-14 19:01:15 38.9002 -77.0515 430.7 25.3 32.5 1015.9 #ffd500
30 Zinc 2019-06-14 19:15:47 38.9002 -77.0515 435 25 33.2 1015.9 #ffc400
30 Zinc 2019-06-14 19:30:18 38.9002 -77.0515 433 24.8 33.6 1016.4 #ffcc00
30 Zinc 2019-06-14 19:44:49 38.9002 -77.0515 440 24.5 34.8 1016.1 #ffb000
30 Zinc 2019-06-14 19:59:20 38.9002 -77.0515 435.7 24 35.9 1016.4 #ffc100
30 Zinc 2019-06-14 20:13:51 38.9002 -77.0515 433.5 23.8 36 1016.5 #ffca00
30 Zinc 2019-06-14 20:28:22 38.9002 -77.0515 440 23.7 36.7 1016.5 #ffb000
30 Zinc 2019-06-14 20:42:53 38.9002 -77.0515 441.2 23.5 37.3 1016.5 #ffab00
30 Zinc 2019-06-14 20:57:25 38.9002 -77.0515 438.2 23.5 37.6 1016.7 #ffb700
30 Zinc 2019-06-14 21:11:56 38.9002 -77.0515 440.5 23.3 38 1016.9 #ffae00
30 Zinc 2019-06-14 21:26:27 38.9002 -77.0515 449.2 23.4 38.5 1017.2 #ff8c00
30 Zinc 2019-06-14 21:40:58 38.9002 -77.0515 450.7 23.3 39.6 1017.4 #ff8600
30 Zinc 2019-06-14 21:55:29 38.9002 -77.0515 461 23.3 40.8 1017.6 #ff5e00
30 Zinc 2019-06-14 22:10:00 38.9002 -77.0515 454.5 22.5 42.1 1017.7 #ff7700
30 Zinc 2019-06-14 22:24:32 38.9002 -77.0515 466.2 22 43.4 1018 #ff4900
30 Zinc 2019-06-14 22:39:04 38.9002 -77.0515 489.3 21.7 46.6 1018.3 #ff0000
30 Zinc 2019-06-14 22:53:35 38.9002 -77.0515 486.5 21.5 47.9 1018.5 #ff0000
30 Zinc 2019-06-14 23:08:07 38.9002 -77.0515 472.8 21.3 48 1018.6 #ff2f00
30 Zinc 2019-06-14 23:22:38 38.9002 -77.0515 473 21.2 47.8 1018.6 #ff2f00
30 Zinc 2019-06-14 23:37:09 38.9002 -77.0515 477 21 48.6 1018.8 #ff1f00
30 Zinc 2019-06-14 23:51:40 38.9002 -77.0515 484.8 20.9 48.4 1018.7 #ff0000
30 Zinc 2019-06-15 00:06:11 38.9002 -77.0515 476.8 20.9 48.2 1018.5 #ff2000
30 Zinc 2019-06-15 00:20:42 38.9002 -77.0515 471.8 21 48.6 1018.5 #ff3300
30 Zinc 2019-06-15 00:35:13 38.9002 -77.0515 482.3 21.5 49.3 1018.4 #ff0a00
30 Zinc 2019-06-15 00:49:45 38.9002 -77.0515 483.3 21.9 49.2 1018.6 #ff0600
30 Zinc 2019-06-15 01:04:16 38.9002 -77.0515 490 21.7 50.2 1018.5 #ff0000
30 Zinc 2019-06-15 01:18:47 38.9002 -77.0515 488.7 21.5 50.8 1018.4 #ff0000
30 Zinc 2019-06-15 01:33:18 38.9002 -77.0515 488 21.6 50.5 1018.6 #ff0000
30 Zinc 2019-06-15 01:47:49 38.9002 -77.0515 481 21.8 50.3 1018.5 #ff0f00
30 Zinc 2019-06-15 02:02:21 38.9002 -77.0515 481.7 21.7 50.7 1018.5 #ff0d00
30 Zinc 2019-06-15 02:16:52 38.9002 -77.0515 475.3 21.5 51 1018.5 #ff2500
30 Zinc 2019-06-15 02:31:23 38.9002 -77.0515 471.8 21.7 50.6 1018.5 #ff3300
30 Zinc 2019-06-15 02:45:54 38.9002 -77.0515 469.7 21.8 50.3 1018.1 #ff3c00
30 Zinc 2019-06-15 03:00:25 38.9002 -77.0515 461.2 21.8 50.3 1018.3 #ff5d00
30 Zinc 2019-06-15 03:14:58 38.9002 -77.0515 462 21.6 50.8 1018.2 #ff5a00
30 Zinc 2019-06-15 03:29:29 38.9002 -77.0515 462 21.6 50.5 1018.1 #ff5a00
30 Zinc 2019-06-15 03:44:00 38.9002 -77.0515 464.8 21.7 50.1 1018.1 #ff4f00
30 Zinc 2019-06-15 03:58:31 38.9002 -77.0515 461 21.6 50.3 1018 #ff5e00
30 Zinc 2019-06-15 04:13:02 38.9002 -77.0515 460.3 21.5 50.6 1018 #ff6000
30 Zinc 2019-06-15 04:27:33 38.9002 -77.0515 459.5 21.6 50.3 1018 #ff6400
30 Zinc 2019-06-15 04:42:04 38.9002 -77.0515 461.2 21.2 51.2 1017.8 #ff5d00
30 Zinc 2019-06-15 04:56:35 38.9002 -77.0515 464.8 20.8 52.4 1017.9 #ff4f00
30 Zinc 2019-06-15 05:11:07 38.9002 -77.0515 461 20.9 51.9 1018 #ff5e00
30 Zinc 2019-06-15 05:25:38 38.9002 -77.0515 461.7 21.2 50.9 1018.1 #ff5b00
30 Zinc 2019-06-15 05:40:09 38.9002 -77.0515 462.2 21.2 50.9 1018.2 #ff5900
30 Zinc 2019-06-15 05:54:40 38.9002 -77.0515 464.2 20.9 51.9 1018.2 #ff5100
30 Zinc 2019-06-15 06:09:11 38.9002 -77.0515 462 21.7 49.9 1018.3 #ff5a00
30 Zinc 2019-06-15 06:23:43 38.9002 -77.0515 458.2 21.9 49.8 1018.5 #ff6900
30 Zinc 2019-06-15 06:38:14 38.9002 -77.0515 466 22.1 49.4 1018.8 #ff4a00
30 Zinc 2019-06-15 06:52:45 38.9002 -77.0515 461 22.2 49.4 1018.8 #ff5e00
30 Zinc 2019-06-15 07:07:16 38.9002 -77.0515 460.2 22.2 49.2 1018.9 #ff6100
30 Zinc 2019-06-15 07:21:48 38.9002 -77.0515 458.8 22.3 48.9 1019.1 #ff6600
30 Zinc 2019-06-15 07:36:19 38.9002 -77.0515 459 22.3 49 1019.2 #ff6600
30 Zinc 2019-06-15 07:50:51 38.9002 -77.0515 457.5 22.3 49 1019.2 #ff6b00
30 Zinc 2019-06-15 08:05:22 38.9002 -77.0515 458.7 22.4 48.7 1019.2 #ff6700
30 Zinc 2019-06-15 08:19:53 38.9002 -77.0515 454.5 22.4 48.5 1019.3 #ff7700
30 Zinc 2019-06-15 08:34:25 38.9002 -77.0515 455 22.4 48.5 1019.4 #ff7500
30 Zinc 2019-06-15 08:48:56 38.9002 -77.0515 454.8 22.5 48.5 1019.5 #ff7600
30 Zinc 2019-06-15 09:03:27 38.9002 -77.0515 456 22.6 48.8 1019.4 #ff7100
30 Zinc 2019-06-15 09:17:58 38.9002 -77.0515 456 22.7 48.5 1019.5 #ff7100
30 Zinc 2019-06-15 09:32:29 38.9002 -77.0515 454.8 22.7 48.2 1019.4 #ff7600
30 Zinc 2019-06-15 09:47:00 38.9002 -77.0515 453 22.7 48.2 1019.3 #ff7d00
30 Zinc 2019-06-15 10:01:32 38.9002 -77.0515 449 22.7 48.1 1019.1 #ff8d00
30 Zinc 2019-06-15 10:16:03 38.9002 -77.0515 445.7 22.8 47.3 1019 #ff9a00
30 Zinc 2019-06-15 10:30:34 38.9002 -77.0515 444 23 47 1019 #ffa000
30 Zinc 2019-06-15 10:45:05 38.9002 -77.0515 439 23.2 46.3 1018.8 #ffb400
30 Zinc 2019-06-15 10:59:36 38.9002 -77.0515 438 23.2 46.1 1018.7 #ffb800
30 Zinc 2019-06-15 11:14:07 38.9002 -77.0515 436.8 23.3 46 1018.5 #ffbc00
30 Zinc 2019-06-15 11:28:39 38.9002 -77.0515 432.2 23.4 45.9 1018.3 #ffcf00
30 Zinc 2019-06-15 11:43:10 38.9002 -77.0515 432.3 23.4 45.5 1018.2 #ffce00
30 Zinc 2019-06-15 11:57:41 38.9002 -77.0515 431.2 23.6 44.7 1018.1 #ffd300
30 Zinc 2019-06-15 12:12:12 38.9002 -77.0515 430 23.6 44.7 1017.8 #ffd700
30 Zinc 2019-06-15 12:26:43 38.9002 -77.0515 431.3 23.5 44.3 1017.8 #ffd200
30 Zinc 2019-06-15 12:41:15 38.9002 -77.0515 427.7 23.5 44.7 1017.5 #ffe000
30 Zinc 2019-06-15 12:55:47 38.9002 -77.0515 430.7 23.6 44.5 1017.2 #ffd500
30 Zinc 2019-06-15 13:10:18 38.9002 -77.0515 430.3 24 43.6 1016.9 #ffd600
30 Zinc 2019-06-15 13:24:50 38.9002 -77.0515 430.3 24.1 43.6 1016.8 #ffd600
30 Zinc 2019-06-15 13:39:21 38.9002 -77.0515 428 23.9 44 1016.4 #ffdf00
30 Zinc 2019-06-15 13:53:52 38.9002 -77.0515 425.7 24.2 43.1 1016.1 #ffe800
30 Zinc 2019-06-15 14:08:23 38.9002 -77.0515 427 24.5 42.3 1015.9 #ffe300
30 Zinc 2019-06-15 14:22:54 38.9002 -77.0515 427.2 24.7 41.7 1015.5 #ffe200
30 Zinc 2019-06-15 14:37:25 38.9002 -77.0515 429.2 25.1 40.6 1015.4 #ffdb00
30 Zinc 2019-06-15 14:51:56 38.9002 -77.0515 432.7 25.8 38.9 1015.4 #ffcd00
30 Zinc 2019-06-15 15:06:27 38.9002 -77.0515 434.7 27.3 35.8 1015.3 #ffc500
30 Zinc 2019-06-15 15:20:59 38.9002 -77.0515 432.3 28.3 33.9 1015.2 #ffce00
30 Zinc 2019-06-15 15:35:30 38.9002 -77.0515 430.8 26.4 36.9 1015.2 #ffd400
30 Zinc 2019-06-15 15:50:01 38.9002 -77.0515 429.8 26 37.9 1015 #ffd800
30 Zinc 2019-06-15 16:04:32 38.9002 -77.0515 430.3 25.6 38.6 1014.9 #ffd600
30 Zinc 2019-06-15 16:19:03 38.9002 -77.0515 428 25.1 39 1014.8 #ffdf00
30 Zinc 2019-06-15 16:33:34 38.9002 -77.0515 428.7 25.2 38.9 1014.7 #ffdc00
30 Zinc 2019-06-15 16:48:06 38.9002 -77.0515 428.7 24.9 39.3 1014.7 #ffdc00
30 Zinc 2019-06-15 17:02:37 38.9002 -77.0515 427.3 24.9 39.2 1014.6 #ffe200
30 Zinc 2019-06-15 17:17:08 38.9002 -77.0515 427.2 25.1 39.1 1014.5 #ffe200
30 Zinc 2019-06-15 17:31:39 38.9002 -77.0515 427 24.8 39.7 1014.6 #ffe300
30 Zinc 2019-06-15 17:46:10 38.9002 -77.0515 426.8 24.8 39.9 1014.5 #ffe400
30 Zinc 2019-06-15 18:00:41 38.9002 -77.0515 424 24.7 40.3 1014.4 #ffef00
30 Zinc 2019-06-15 18:15:13 38.9002 -77.0515 425 24.6 41.1 1014.2 #ffeb00
30 Zinc 2019-06-15 18:29:44 38.9002 -77.0515 425.8 24.4 41.3 1014.3 #ffe800
30 Zinc 2019-06-15 18:44:15 38.9002 -77.0515 425 24.5 41.5 1014.4 #ffeb00
30 Zinc 2019-06-15 18:58:46 38.9002 -77.0515 426.5 24.4 42.2 1014.4 #ffe500
30 Zinc 2019-06-15 19:13:17 38.9002 -77.0515 424.8 24.1 43.1 1014.5 #ffec00
30 Zinc 2019-06-15 19:27:48 38.9002 -77.0515 424.3 24.1 43.3 1014.5 #ffee00
30 Zinc 2019-06-15 19:42:19 38.9002 -77.0515 425 24 43.6 1014.5 #ffeb00
30 Zinc 2019-06-15 19:56:50 38.9002 -77.0515 424.8 23.9 44.2 1014.3 #ffec00
30 Zinc 2019-06-15 20:11:22 38.9002 -77.0515 425 23.8 44.6 1014.3 #ffeb00
30 Zinc 2019-06-15 20:25:53 38.9002 -77.0515 424.7 23.7 44.8 1014.3 #ffec00
30 Zinc 2019-06-15 20:40:24 38.9002 -77.0515 424.8 23.7 44.9 1014.2 #ffec00
30 Zinc 2019-06-15 20:54:56 38.9002 -77.0515 426.7 23.7 45.1 1014 #ffe400
30 Zinc 2019-06-15 21:09:27 38.9002 -77.0515 427 23.6 45.5 1014 #ffe300
30 Zinc 2019-06-15 21:23:58 38.9002 -77.0515 427 23.5 45.4 1013.8 #ffe300
30 Zinc 2019-06-15 21:38:29 38.9002 -77.0515 427.5 23.5 45.5 1014.1 #ffe100
30 Zinc 2019-06-15 21:53:00 38.9002 -77.0515 426.7 23.5 45.9 1014 #ffe400
30 Zinc 2019-06-15 22:07:31 38.9002 -77.0515 427 23.5 46.2 1014 #ffe300
30 Zinc 2019-06-15 22:22:02 38.9002 -77.0515 433.3 22.8 47.8 1014 #ffca00
30 Zinc 2019-06-15 22:36:33 38.9002 -77.0515 431.5 22 50.1 1013.8 #ffd100
30 Zinc 2019-06-15 22:51:04 38.9002 -77.0515 435 21.4 51.5 1013.8 #ffc400
30 Zinc 2019-06-15 23:05:35 38.9002 -77.0515 433 21.3 51.5 1013.7 #ffcc00
30 Zinc 2019-06-15 23:20:07 38.9002 -77.0515 434.7 21.1 52.1 1013.5 #ffc500
30 Zinc 2019-06-15 23:34:38 38.9002 -77.0515 433 21.1 52.2 1013.4 #ffcc00
30 Zinc 2019-06-15 23:49:09 38.9002 -77.0515 432.5 21 52.6 1013.2 #ffcd00
30 Zinc 2019-06-16 00:03:40 38.9002 -77.0515 432.5 21.2 51.9 1013.1 #ffcd00
30 Zinc 2019-06-16 00:18:11 38.9002 -77.0515 431.8 21.5 51.3 1013.3 #ffd000
30 Zinc 2019-06-16 00:32:42 38.9002 -77.0515 433.8 21.4 51.7 1013.1 #ffc800
30 Zinc 2019-06-16 00:47:13 38.9002 -77.0515 436 21 52.9 1013.2 #ffc000
30 Zinc 2019-06-16 01:01:44 38.9002 -77.0515 436 21.2 52.6 1013 #ffc000
30 Zinc 2019-06-16 01:16:16 38.9002 -77.0515 434 21.3 52.3 1012.9 #ffc800
30 Zinc 2019-06-16 01:30:47 38.9002 -77.0515 436.5 21.3 52.2 1012.8 #ffbe00
30 Zinc 2019-06-16 01:45:18 38.9002 -77.0515 437 21 53.1 1012.8 #ffbc00
30 Zinc 2019-06-16 01:59:49 38.9002 -77.0515 439 21 53.3 1012.7 #ffb400
30 Zinc 2019-06-16 02:14:20 38.9002 -77.0515 437.5 21.2 52.9 1012.6 #ffba00
30 Zinc 2019-06-16 02:28:52 38.9002 -77.0515 437.8 21.3 52.8 1012.6 #ffb900
30 Zinc 2019-06-16 02:43:23 38.9002 -77.0515 438 21.1 53.2 1012.4 #ffb800
30 Zinc 2019-06-16 02:57:54 38.9002 -77.0515 440.2 20.8 54.1 1012.2 #ffaf00
30 Zinc 2019-06-16 03:12:25 38.9002 -77.0515 442.2 20.7 54.3 1012.1 #ffa800
30 Zinc 2019-06-16 03:26:56 38.9002 -77.0515 446.8 21 53.9 1011.9 #ff9500
30 Zinc 2019-06-16 03:41:28 38.9002 -77.0515 441 21 53.7 1011.8 #ffac00
30 Zinc 2019-06-16 03:55:59 38.9002 -77.0515 441.7 20.8 54.2 1011.7 #ffa900
30 Zinc 2019-06-16 04:10:30 38.9002 -77.0515 443.5 20.6 55 1011.5 #ffa200
30 Zinc 2019-06-16 04:25:02 38.9002 -77.0515 442.3 20.4 55.5 1011.5 #ffa700
30 Zinc 2019-06-16 04:39:33 38.9002 -77.0515 442 20.4 55.3 1011.5 #ffa800
30 Zinc 2019-06-16 04:54:05 38.9002 -77.0515 443 21.1 53.7 1011.5 #ffa400
30 Zinc 2019-06-16 05:08:36 38.9002 -77.0515 441.3 21.8 51.6 1011.4 #ffab00
30 Zinc 2019-06-16 05:23:07 38.9002 -77.0515 440.7 22.1 50.6 1011.3 #ffad00
30 Zinc 2019-06-16 05:37:38 38.9002 -77.0515 437.2 22.2 50 1011.3 #ffbb00
30 Zinc 2019-06-16 05:52:10 38.9002 -77.0515 445 22.1 50.5 1011.3 #ff9c00
30 Zinc 2019-06-16 06:06:41 38.9002 -77.0515 443 22.4 49.3 1011.2 #ffa400
30 Zinc 2019-06-16 06:21:12 38.9002 -77.0515 443.8 22.5 49 1011.2 #ffa100
30 Zinc 2019-06-16 06:35:43 38.9002 -77.0515 444 22.5 49.1 1011.2 #ffa000
30 Zinc 2019-06-16 06:50:15 38.9002 -77.0515 443.3 22.6 49 1011.2 #ffa300
30 Zinc 2019-06-16 07:04:46 38.9002 -77.0515 445.7 22.6 48.8 1011.4 #ff9a00
30 Zinc 2019-06-16 07:19:17 38.9002 -77.0515 446.7 22.6 49.1 1011.3 #ff9600
30 Zinc 2019-06-16 07:33:49 38.9002 -77.0515 446 22.6 49.1 1011.2 #ff9900
30 Zinc 2019-06-16 07:48:20 38.9002 -77.0515 444 22.6 48.9 1011.1 #ffa000
30 Zinc 2019-06-16 08:02:52 38.9002 -77.0515 444.3 22.6 48.9 1011.1 #ff9f00
30 Zinc 2019-06-16 08:17:23 38.9002 -77.0515 444.2 22.7 49.1 1011.1 #ffa000
30 Zinc 2019-06-16 08:31:55 38.9002 -77.0515 446.5 22.8 49 1011 #ff9700
30 Zinc 2019-06-16 08:46:27 38.9002 -77.0515 444 23 48.4 1010.9 #ffa000
30 Zinc 2019-06-16 09:00:59 38.9002 -77.0515 442.5 23.1 48.2 1010.9 #ffa600
30 Zinc 2019-06-16 09:15:31 38.9002 -77.0515 441.3 23.1 48.4 1010.9 #ffab00
30 Zinc 2019-06-16 09:30:02 38.9002 -77.0515 437 23.1 48.4 1011 #ffbc00
30 Zinc 2019-06-16 09:44:33 38.9002 -77.0515 440 23.2 48.3 1010.9 #ffb000
30 Zinc 2019-06-16 09:59:05 38.9002 -77.0515 438 23.2 48.5 1010.8 #ffb800
30 Zinc 2019-06-16 10:13:36 38.9002 -77.0515 439 23.3 48 1010.6 #ffb400
30 Zinc 2019-06-16 10:28:07 38.9002 -77.0515 439.8 23.4 48 1010.7 #ffb100
30 Zinc 2019-06-16 10:42:38 38.9002 -77.0515 436 23.5 47.9 1010.6 #ffc000
30 Zinc 2019-06-16 10:57:10 38.9002 -77.0515 434.7 23.5 47.8 1010.8 #ffc500
30 Zinc 2019-06-16 11:11:41 38.9002 -77.0515 436.5 23.5 47.8 1010.7 #ffbe00
30 Zinc 2019-06-16 11:26:12 38.9002 -77.0515 435 23.8 46.7 1010.9 #ffc400
30 Zinc 2019-06-16 11:40:43 38.9002 -77.0515 432 23.6 46 1010.8 #ffcf00
30 Zinc 2019-06-16 11:55:15 38.9002 -77.0515 433.8 23.6 46.6 1010.8 #ffc800
30 Zinc 2019-06-16 12:09:46 38.9002 -77.0515 430.5 23.7 47.1 1010.6 #ffd500
30 Zinc 2019-06-16 12:24:18 38.9002 -77.0515 433 23.8 46.7 1010.9 #ffcc00
30 Zinc 2019-06-16 12:38:49 38.9002 -77.0515 425.7 23.8 47.1 1010.4 #ffe800
30 Zinc 2019-06-16 12:53:20 38.9002 -77.0515 428 23.9 46.8 1010.3 #ffdf00
30 Zinc 2019-06-16 13:07:51 38.9002 -77.0515 426 24.1 46.1 1010.2 #ffe700
30 Zinc 2019-06-16 13:22:22 38.9002 -77.0515 426 24.2 45.9 1010.1 #ffe700
30 Zinc 2019-06-16 13:36:53 38.9002 -77.0515 424 24.2 46 1009.7 #ffef00
30 Zinc 2019-06-16 13:51:25 38.9002 -77.0515 422.2 24.4 45.4 1009.4 #fff600
30 Zinc 2019-06-16 14:05:56 38.9002 -77.0515 423 24.4 45.5 1009.5 #fff300
30 Zinc 2019-06-16 14:20:27 38.9002 -77.0515 421.2 24.5 45.2 1009.7 #fffa00
30 Zinc 2019-06-16 14:34:58 38.9002 -77.0515 422.3 24.9 44.4 1009.3 #fff500
30 Zinc 2019-06-16 14:49:30 38.9002 -77.0515 423 25.5 42.9 1009.4 #fff300
30 Zinc 2019-06-16 15:04:01 38.9002 -77.0515 426.3 26.8 41.8 1008.8 #ffe600
30 Zinc 2019-06-16 15:18:32 38.9002 -77.0515 428 27.3 39.5 1008.8 #ffdf00
30 Zinc 2019-06-16 15:33:03 38.9002 -77.0515 424 26.3 40.5 1008.7 #ffef00
30 Zinc 2019-06-16 15:47:34 38.9002 -77.0515 426.5 25.6 42.4 1008.9 #ffe500
30 Zinc 2019-06-16 16:02:05 38.9002 -77.0515 421.7 25.5 42.8 1008.9 #fff800
30 Zinc 2019-06-16 16:16:36 38.9002 -77.0515 422.7 25.3 43.4 1009 #fff400
30 Zinc 2019-06-16 16:31:08 38.9002 -77.0515 422 25.1 44.2 1008.9 #fff700
30 Zinc 2019-06-16 16:45:39 38.9002 -77.0515 421.2 25.2 43.9 1008.7 #fffa00
30 Zinc 2019-06-16 17:00:10 38.9002 -77.0515 418.3 25.1 44.1 1008.6 #f8ff00
30 Zinc 2019-06-16 17:14:41 38.9002 -77.0515 419 25.3 43.7 1008.6 #fbff00
30 Zinc 2019-06-16 17:29:12 38.9002 -77.0515 417.7 25.4 43.5 1008.5 #f6ff00
30 Zinc 2019-06-16 17:43:43 38.9002 -77.0515 417.5 25.2 43.9 1008.5 #f5ff00
30 Zinc 2019-06-16 17:58:14 38.9002 -77.0515 416.2 25.1 44.2 1008.3 #f1ff00
30 Zinc 2019-06-16 18:12:45 38.9002 -77.0515 415.2 25.2 43.9 1008.1 #edff00
30 Zinc 2019-06-16 18:27:17 38.9002 -77.0515 415 25.7 42.8 1008.1 #ecff00
30 Zinc 2019-06-16 18:41:48 38.9002 -77.0515 416.8 27.3 39.5 1008.3 #f3ff00
30 Zinc 2019-06-16 18:56:19 38.9002 -77.0515 419 26 42 1008.2 #fbff00
30 Zinc 2019-06-16 19:10:50 38.9002 -77.0515 411.2 25.6 43.1 1008.6 #deff00
30 Zinc 2019-06-16 19:25:21 38.9002 -77.0515 415.2 25.2 43.8 1008.6 #edff00
30 Zinc 2019-06-16 19:39:53 38.9002 -77.0515 413 24.9 44.7 1008.6 #e5ff00
30 Zinc 2019-06-16 19:54:24 38.9002 -77.0515 414.2 24.6 45.6 1008.7 #e9ff00
30 Zinc 2019-06-16 20:08:55 38.9002 -77.0515 416.2 24.4 46.1 1008.8 #f1ff00
30 Zinc 2019-06-16 20:23:26 38.9002 -77.0515 415.2 24.4 46 1008.8 #edff00
30 Zinc 2019-06-16 20:37:57 38.9002 -77.0515 416 24.3 46.1 1008.7 #f0ff00
30 Zinc 2019-06-16 20:52:28 38.9002 -77.0515 417 24.2 46.6 1008.7 #f4ff00
30 Zinc 2019-06-16 21:06:59 38.9002 -77.0515 417 24.2 46.6 1008.7 #f4ff00
30 Zinc 2019-06-16 21:21:30 38.9002 -77.0515 418 23.9 47.1 1008.8 #f7ff00
30 Zinc 2019-06-16 21:36:01 38.9002 -77.0515 421 24 47.1 1008.9 #fffb00
30 Zinc 2019-06-16 21:50:33 38.9002 -77.0515 420 23.9 47.3 1009.1 #ffff00
30 Zinc 2019-06-16 22:05:04 38.9002 -77.0515 424 23.9 47 1009.3 #ffef00
30 Zinc 2019-06-16 22:19:35 38.9002 -77.0515 422.5 23 49 1009.6 #fff500
30 Zinc 2019-06-16 22:34:06 38.9002 -77.0515 416.7 22.4 50.6 1009.6 #f2ff00
30 Zinc 2019-06-16 22:48:37 38.9002 -77.0515 423 22 51.8 1009.7 #fff300
30 Zinc 2019-06-16 23:03:08 38.9002 -77.0515 422.3 21.8 52.3 1009.7 #fff500
30 Zinc 2019-06-16 23:17:39 38.9002 -77.0515 422.2 21.6 53 1009.7 #fff600
30 Zinc 2019-06-16 23:32:11 38.9002 -77.0515 424 21.4 53.5 1009.9 #ffef00
30 Zinc 2019-06-16 23:46:42 38.9002 -77.0515 423.2 21.2 54.1 1010.1 #fff200
30 Zinc 2019-06-17 00:01:13 38.9002 -77.0515 423.8 21.2 54.2 1010.1 #ffef00
30 Zinc 2019-06-17 00:15:44 38.9002 -77.0515 426.3 21.2 54.3 1010 #ffe600
30 Zinc 2019-06-17 00:30:16 38.9002 -77.0515 426.3 21.5 53.6 1010 #ffe600
30 Zinc 2019-06-17 00:44:47 38.9002 -77.0515 427 21.7 53.3 1010 #ffe300
30 Zinc 2019-06-17 00:59:18 38.9002 -77.0515 426.8 21.4 54.1 1010.1 #ffe400
30 Zinc 2019-06-17 01:13:49 38.9002 -77.0515 424.5 21.3 54.3 1010.2 #ffed00
30 Zinc 2019-06-17 01:28:20 38.9002 -77.0515 427 21.5 53.6 1010.3 #ffe300
30 Zinc 2019-06-17 01:42:52 38.9002 -77.0515 417.8 21.6 53.4 1010.3 #f7ff00
30 Zinc 2019-06-17 01:57:23 38.9002 -77.0515 430.5 21.4 54 1010.2 #ffd500
30 Zinc 2019-06-17 02:11:54 38.9002 -77.0515 426.5 21.2 54.6 1010.1 #ffe500
30 Zinc 2019-06-17 02:26:25 38.9002 -77.0515 431 21.3 54.2 1010 #ffd300
30 Zinc 2019-06-17 02:40:56 38.9002 -77.0515 432.5 21.5 53.7 1010 #ffcd00
30 Zinc 2019-06-17 02:55:29 38.9002 -77.0515 428.2 21.4 54.3 1010 #ffde00
30 Zinc 2019-06-17 03:10:00 38.9002 -77.0515 434.3 21 55.8 1010.1 #ffc600
30 Zinc 2019-06-17 03:24:31 38.9002 -77.0515 441.3 21.2 55 1010.2 #ffab00
30 Zinc 2019-06-17 03:39:02 38.9002 -77.0515 440 21.4 54.4 1011 #ffb000
30 Zinc 2019-06-17 03:53:33 38.9002 -77.0515 435 21.5 54.2 1010.8 #ffc400
30 Zinc 2019-06-17 04:08:04 38.9002 -77.0515 435.2 21.3 54.8 1010.7 #ffc300
30 Zinc 2019-06-17 04:22:36 38.9002 -77.0515 438.7 21.1 55.2 1010.9 #ffb500
30 Zinc 2019-06-17 04:37:07 38.9002 -77.0515 440.8 21.3 54.3 1010.9 #ffad00
30 Zinc 2019-06-17 04:51:38 38.9002 -77.0515 439.7 21.6 53.3 1010.8 #ffb100
30 Zinc 2019-06-17 05:06:10 38.9002 -77.0515 439.7 21.6 53.2 1011.3 #ffb100
30 Zinc 2019-06-17 05:20:41 38.9002 -77.0515 440 21.4 54.1 1011.5 #ffb000
30 Zinc 2019-06-17 05:35:12 38.9002 -77.0515 436 21.1 54.7 1011.9 #ffc000
30 Zinc 2019-06-17 05:49:44 38.9002 -77.0515 445 21.1 54.9 1012.1 #ff9c00
30 Zinc 2019-06-17 06:04:15 38.9002 -77.0515 463.7 21.8 53.6 1012 #ff5300
30 Zinc 2019-06-17 06:18:46 38.9002 -77.0515 473.7 22.2 52.3 1012.3 #ff2c00
30 Zinc 2019-06-17 06:33:18 38.9002 -77.0515 468 22.5 51.4 1012.5 #ff4200
30 Zinc 2019-06-17 06:47:49 38.9002 -77.0515 461.2 22.7 51.1 1013 #ff5d00
30 Zinc 2019-06-17 07:02:20 38.9002 -77.0515 468.2 22.8 50.2 1013 #ff4200
30 Zinc 2019-06-17 07:16:51 38.9002 -77.0515 465.7 22.7 50.5 1013.1 #ff4b00
30 Zinc 2019-06-17 07:31:22 38.9002 -77.0515 463.7 22.8 50.3 1013.3 #ff5300
30 Zinc 2019-06-17 07:45:53 38.9002 -77.0515 461.7 23 50.2 1013.2 #ff5b00
30 Zinc 2019-06-17 08:00:25 38.9002 -77.0515 451.8 23.1 49.4 1013.3 #ff8200
30 Zinc 2019-06-17 08:14:57 38.9002 -77.0515 446.8 23.1 49.3 1013.3 #ff9500
30 Zinc 2019-06-17 08:29:28 38.9002 -77.0515 442 23.2 49.4 1013.1 #ffa800
30 Zinc 2019-06-17 08:44:00 38.9002 -77.0515 444.5 23.1 49.3 1012.7 #ff9e00
30 Zinc 2019-06-17 08:58:31 38.9002 -77.0515 447.3 23.3 49 1012.8 #ff9300
30 Zinc 2019-06-17 09:13:02 38.9002 -77.0515 453.8 23.3 49 1012.9 #ff7a00
30 Zinc 2019-06-17 09:27:33 38.9002 -77.0515 455.5 23.4 48.2 1012.9 #ff7300
30 Zinc 2019-06-17 09:42:05 38.9002 -77.0515 454.8 23.5 48.4 1013.2 #ff7600
30 Zinc 2019-06-17 09:56:36 38.9002 -77.0515 448.3 23.4 48.3 1013.1 #ff8f00
30 Zinc 2019-06-17 10:11:08 38.9002 -77.0515 449.2 23.5 48.2 1013 #ff8c00
30 Zinc 2019-06-17 10:25:39 38.9002 -77.0515 450 23.5 48.1 1013 #ff8900
30 Zinc 2019-06-17 10:40:10 38.9002 -77.0515 447 23.5 47.7 1013 #ff9500
30 Zinc 2019-06-17 10:54:42 38.9002 -77.0515 440.2 23.6 47.5 1013 #ffaf00
30 Zinc 2019-06-17 11:09:13 38.9002 -77.0515 442.5 23.7 47.5 1013 #ffa600
30 Zinc 2019-06-17 11:23:44 38.9002 -77.0515 441.7 23.7 47.3 1013 #ffa900
30 Zinc 2019-06-17 11:38:15 38.9002 -77.0515 442.8 23.9 46.9 1013.2 #ffa500
30 Zinc 2019-06-17 11:52:46 38.9002 -77.0515 446.3 23.9 48.3 1013.5 #ff9700
30 Zinc 2019-06-17 12:07:18 38.9002 -77.0515 442 23.9 48 1013.4 #ffa800
30 Zinc 2019-06-17 12:21:49 38.9002 -77.0515 442.2 24.1 48 1013.5 #ffa800
30 Zinc 2019-06-17 12:36:20 38.9002 -77.0515 439.5 24.3 48.4 1013.4 #ffb200
30 Zinc 2019-06-17 12:50:51 38.9002 -77.0515 441.7 24.4 48.4 1013.4 #ffa900
30 Zinc 2019-06-17 13:05:23 38.9002 -77.0515 437.8 24.6 47.8 1013.3 #ffb900
30 Zinc 2019-06-17 13:19:54 38.9002 -77.0515 439.2 24.9 47 1013.2 #ffb300
30 Zinc 2019-06-17 13:34:25 38.9002 -77.0515 437.7 24.7 47.6 1013.1 #ffb900
30 Zinc 2019-06-17 13:48:57 38.9002 -77.0515 442.7 25 46.7 1013 #ffa600
30 Zinc 2019-06-17 14:03:28 38.9002 -77.0515 436.3 25 47.5 1012.9 #ffbe00
30 Zinc 2019-06-17 14:17:59 38.9002 -77.0515 443.3 25 47.9 1012.8 #ffa300
30 Zinc 2019-06-17 14:32:30 38.9002 -77.0515 436 25 47.8 1012.8 #ffc000
30 Zinc 2019-06-17 14:47:01 38.9002 -77.0515 438 25.2 47.4 1012.6 #ffb800
30 Zinc 2019-06-17 15:01:32 38.9002 -77.0515 441 26.2 45.2 1012.6 #ffac00
30 Zinc 2019-06-17 15:16:03 38.9002 -77.0515 430.2 26.4 46 1012.5 #ffd700
30 Zinc 2019-06-17 15:30:35 38.9002 -77.0515 437.2 25.9 47.7 1012.5 #ffbb00
30 Zinc 2019-06-17 15:45:06 38.9002 -77.0515 436 25.7 45.9 1012.2 #ffc000
30 Zinc 2019-06-17 15:59:37 38.9002 -77.0515 435 25.3 46.1 1011.9 #ffc400
30 Zinc 2019-06-17 16:14:08 38.9002 -77.0515 434 25.2 46.1 1011.7 #ffc800
30 Zinc 2019-06-17 16:28:39 38.9002 -77.0515 434.5 25 45 1011.9 #ffc600
30 Zinc 2019-06-17 16:43:11 38.9002 -77.0515 435 24.8 44.4 1011.8 #ffc400
30 Zinc 2019-06-17 16:57:42 38.9002 -77.0515 440.2 24.7 44.4 1011.8 #ffaf00
30 Zinc 2019-06-17 17:12:13 38.9002 -77.0515 440.8 24.5 45 1011.7 #ffad00
30 Zinc 2019-06-17 17:26:44 38.9002 -77.0515 441 24.3 45.6 1011.3 #ffac00
30 Zinc 2019-06-17 17:41:15 38.9002 -77.0515 440.3 24.3 45.7 1011.5 #ffaf00
30 Zinc 2019-06-17 17:55:47 38.9002 -77.0515 442.5 24.3 46.4 1011.7 #ffa600
30 Zinc 2019-06-17 18:10:18 38.9002 -77.0515 444 24.2 46.8 1011.8 #ffa000
30 Zinc 2019-06-17 18:24:49 38.9002 -77.0515 443 24.1 46.9 1012.6 #ffa400
30 Zinc 2019-06-17 18:39:20 38.9002 -77.0515 446.2 24.1 47.2 1013.4 #ff9800
30 Zinc 2019-06-17 18:53:51 38.9002 -77.0515 438.5 24 46.8 1013 #ffb600
30 Zinc 2019-06-17 19:08:23 38.9002 -77.0515 438.3 23.9 47.3 1012.5 #ffb700
30 Zinc 2019-06-17 19:22:54 38.9002 -77.0515 439 23.8 47.9 1012.4 #ffb400
30 Zinc 2019-06-17 19:37:25 38.9002 -77.0515 438.2 23.9 47.5 1012.2 #ffb700
30 Zinc 2019-06-17 19:51:57 38.9002 -77.0515 441 23.9 47.4 1012.1 #ffac00
30 Zinc 2019-06-17 20:06:28 38.9002 -77.0515 444 23.8 48 1012.4 #ffa000
30 Zinc 2019-06-17 20:21:00 38.9002 -77.0515 446 23.7 48.1 1013.1 #ff9900
30 Zinc 2019-06-17 20:35:31 38.9002 -77.0515 446.3 23.7 47.7 1012.9 #ff9700
30 Zinc 2019-06-17 20:50:02 38.9002 -77.0515 447.7 23.7 47.8 1013.1 #ff9200
30 Zinc 2019-06-17 21:04:34 38.9002 -77.0515 445.8 23.6 48.1 1012.9 #ff9900
30 Zinc 2019-06-17 21:19:05 38.9002 -77.0515 461.5 23.5 48.5 1013.1 #ff5c00
30 Zinc 2019-06-17 21:33:36 38.9002 -77.0515 448.5 23.6 48.3 1013.4 #ff8f00
30 Zinc 2019-06-17 21:48:07 38.9002 -77.0515 448.5 23.5 48.5 1013.4 #ff8f00
30 Zinc 2019-06-17 22:02:38 38.9002 -77.0515 450 23.5 48.3 1013.7 #ff8900
30 Zinc 2019-06-17 22:17:09 38.9002 -77.0515 439.5 23.5 48.6 1013.7 #ffb200
30 Zinc 2019-06-17 22:31:41 38.9002 -77.0515 450.8 22.8 50.5 1013.5 #ff8600
30 Zinc 2019-06-17 22:46:12 38.9002 -77.0515 447.2 22.2 51.9 1013.3 #ff9400
30 Zinc 2019-06-17 23:00:43 38.9002 -77.0515 451.5 21.7 53.5 1013.5 #ff8300
30 Zinc 2019-06-17 23:15:15 38.9002 -77.0515 449.3 21.5 53.8 1013.4 #ff8b00
30 Zinc 2019-06-17 23:29:46 38.9002 -77.0515 442 21.4 54.3 1013.3 #ffa800
30 Zinc 2019-06-17 23:44:17 38.9002 -77.0515 450.3 21.3 54.9 1013.3 #ff8800
30 Zinc 2019-06-17 23:58:48 38.9002 -77.0515 457.8 21.1 55.2 1013.4 #ff6a00
30 Zinc 2019-06-18 00:13:20 38.9002 -77.0515 456 21.1 55.3 1013.4 #ff7100
30 Zinc 2019-06-18 00:27:51 38.9002 -77.0515 451.8 21.4 54.4 1013.4 #ff8200
30 Zinc 2019-06-18 00:42:22 38.9002 -77.0515 454 21.4 54.5 1013.3 #ff7900
30 Zinc 2019-06-18 00:56:53 38.9002 -77.0515 462.3 20.9 56 1013.2 #ff5800
30 Zinc 2019-06-18 01:11:24 38.9002 -77.0515 474.7 20.9 56 1013.1 #ff2800
30 Zinc 2019-06-18 01:25:56 38.9002 -77.0515 459.2 21.3 54.8 1012.9 #ff6500
30 Zinc 2019-06-18 01:40:27 38.9002 -77.0515 455.5 21.6 54 1012.7 #ff7300
30 Zinc 2019-06-18 01:54:58 38.9002 -77.0515 457 21.3 54.6 1012.7 #ff6d00
30 Zinc 2019-06-18 02:09:29 38.9002 -77.0515 453 20.9 56.1 1012.5 #ff7d00
30 Zinc 2019-06-18 02:24:00 38.9002 -77.0515 460.3 21 55.9 1012.3 #ff6000
30 Zinc 2019-06-18 02:38:31 38.9002 -77.0515 448.3 21.3 55.2 1012.3 #ff8f00
30 Zinc 2019-06-18 02:53:03 38.9002 -77.0515 452 21.5 54.3 1012.2 #ff8100
30 Zinc 2019-06-18 03:07:34 38.9002 -77.0515 452 21.4 54.6 1011.9 #ff8100
30 Zinc 2019-06-18 03:22:05 38.9002 -77.0515 461.2 21 55.7 1011.7 #ff5d00
30 Zinc 2019-06-18 03:36:36 38.9002 -77.0515 455.2 20.9 56 1011.5 #ff7500
30 Zinc 2019-06-18 03:51:08 38.9002 -77.0515 457.3 21.2 55.3 1011.5 #ff6c00
30 Zinc 2019-06-18 04:05:39 38.9002 -77.0515 455 21.5 54.3 1011.3 #ff7500
30 Zinc 2019-06-18 04:20:10 38.9002 -77.0515 454.5 21.6 53.9 1011.3 #ff7700
30 Zinc 2019-06-18 04:34:42 38.9002 -77.0515 471.2 21.3 54.6 1011.3 #ff3600
30 Zinc 2019-06-18 04:49:13 38.9002 -77.0515 467.8 21 55.6 1011.6 #ff4300
30 Zinc 2019-06-18 05:03:44 38.9002 -77.0515 472.5 21 55.6 1011.5 #ff3100
30 Zinc 2019-06-18 05:18:15 38.9002 -77.0515 468.3 21.3 54.7 1011.5 #ff4100
30 Zinc 2019-06-18 05:32:47 38.9002 -77.0515 473 21.6 54.1 1011.5 #ff2f00
30 Zinc 2019-06-18 05:47:18 38.9002 -77.0515 479 21.6 54.1 1011.6 #ff1700
30 Zinc 2019-06-18 06:01:49 38.9002 -77.0515 477.7 21.8 53.8 1011.5 #ff1c00
30 Zinc 2019-06-18 06:16:21 38.9002 -77.0515 482.8 22.2 52.7 1011.7 #ff0800
30 Zinc 2019-06-18 06:30:52 38.9002 -77.0515 485.5 22.5 51.7 1011.6 #ff0000
30 Zinc 2019-06-18 06:45:24 38.9002 -77.0515 482.7 22.5 51.8 1011.6 #ff0900
30 Zinc 2019-06-18 06:59:55 38.9002 -77.0515 486.7 22.8 50.9 1011.6 #ff0000
30 Zinc 2019-06-18 07:14:26 38.9002 -77.0515 479.5 22.8 51 1011.6 #ff1500
30 Zinc 2019-06-18 07:28:58 38.9002 -77.0515 489.8 22.8 50.6 1011.7 #ff0000
30 Zinc 2019-06-18 07:43:29 38.9002 -77.0515 489.5 22.9 50.5 1011.7 #ff0000
30 Zinc 2019-06-18 07:58:01 38.9002 -77.0515 492.3 22.9 50.6 1011.6 #ff0000
30 Zinc 2019-06-18 08:12:32 38.9002 -77.0515 490 23 50.4 1011.6 #ff0000
30 Zinc 2019-06-18 08:27:03 38.9002 -77.0515 497 23.1 50 1011.6 #ff0000
30 Zinc 2019-06-18 08:41:34 38.9002 -77.0515 493.3 23.1 49.9 1011.5 #ff0000
30 Zinc 2019-06-18 08:56:06 38.9002 -77.0515 496.8 23.4 49.4 1011.7 #ff0000
30 Zinc 2019-06-18 09:10:37 38.9002 -77.0515 493.7 23.2 49.7 1011.7 #ff0000
30 Zinc 2019-06-18 09:25:08 38.9002 -77.0515 497.7 23.3 49.5 1011.6 #ff0000
30 Zinc 2019-06-18 09:39:40 38.9002 -77.0515 493.3 23.3 49.4 1011.9 #ff0000
30 Zinc 2019-06-18 09:54:11 38.9002 -77.0515 487.8 23.3 49.6 1011.6 #ff0000
30 Zinc 2019-06-18 10:08:42 38.9002 -77.0515 479.7 23.4 49.2 1011.6 #ff1400
30 Zinc 2019-06-18 10:23:13 38.9002 -77.0515 482.2 23.5 48.9 1011.6 #ff0b00
30 Zinc 2019-06-18 10:37:45 38.9002 -77.0515 459 23.7 48.3 1011.5 #ff6600
30 Zinc 2019-06-18 10:52:16 38.9002 -77.0515 472.2 23.8 48.3 1011.6 #ff3200
30 Zinc 2019-06-18 11:06:47 38.9002 -77.0515 484.3 24 47.7 1011.7 #ff0200
30 Zinc 2019-06-18 11:21:18 38.9002 -77.0515 475.2 24.2 47.4 1011.8 #ff2600
30 Zinc 2019-06-18 11:35:51 38.9002 -77.0515 481 24.4 46.7 1011.8 #ff0f00
30 Zinc 2019-06-18 11:50:23 38.9002 -77.0515 479.8 24.5 46.6 1011.7 #ff1400
30 Zinc 2019-06-18 12:04:54 38.9002 -77.0515 477.5 24.2 47.2 1011.7 #ff1d00
30 Zinc 2019-06-18 12:19:26 38.9002 -77.0515 480 24.8 45.8 1011.7 #ff1300
30 Zinc 2019-06-18 12:33:57 38.9002 -77.0515 478.3 24.9 45.4 1011.5 #ff1a00
30 Zinc 2019-06-18 12:48:28 38.9002 -77.0515 471.7 24.8 45.7 1011.4 #ff3400
30 Zinc 2019-06-18 13:03:00 38.9002 -77.0515 474 25 45.3 1011.5 #ff2b00
30 Zinc 2019-06-18 13:17:31 38.9002 -77.0515 475.3 24.7 45.7 1011.4 #ff2500
30 Zinc 2019-06-18 13:32:02 38.9002 -77.0515 481.3 24.8 45.2 1011.3 #ff0e00
30 Zinc 2019-06-18 13:46:33 38.9002 -77.0515 460 24.7 45.2 1011.1 #ff6200
30 Zinc 2019-06-18 14:01:04 38.9002 -77.0515 454.3 24.9 44.7 1011 #ff7800
30 Zinc 2019-06-18 14:16:40 38.9002 -77.0515 439.2 25.1 44.1 1010.7 #ffb300
30 Zinc 2019-06-18 14:31:12 38.9002 -77.0515 437.8 25 44.1 1010.5 #ffb900
30 Zinc 2019-06-18 14:45:43 38.9002 -77.0515 448.2 24.9 44.7 1010.4 #ff9000
30 Zinc 2019-06-18 15:00:14 38.9002 -77.0515 446.3 24.5 46 1010.2 #ff9700
30 Zinc 2019-06-18 15:14:46 38.9002 -77.0515 446.7 24.8 45.4 1010.2 #ff9600
30 Zinc 2019-06-18 15:29:17 38.9002 -77.0515 447.7 25 44.7 1010 #ff9200
30 Zinc 2019-06-18 15:43:48 38.9002 -77.0515 449.8 23.5 48 1009.9 #ff8900
30 Zinc 2019-06-18 15:58:19 38.9002 -77.0515 446.3 22.8 49.9 1009.8 #ff9700
30 Zinc 2019-06-18 16:12:51 38.9002 -77.0515 440.2 22.6 50.6 1009.7 #ffaf00
30 Zinc 2019-06-18 16:27:22 38.9002 -77.0515 437 22.3 51.5 1009.7 #ffbc00
30 Zinc 2019-06-18 16:41:53 38.9002 -77.0515 449.5 22.4 51 1009.5 #ff8b00
30 Zinc 2019-06-18 16:56:25 38.9002 -77.0515 447 22.8 49.8 1009.5 #ff9500
30 Zinc 2019-06-18 17:10:56 38.9002 -77.0515 447.8 23.5 47.9 1009.4 #ff9100
30 Zinc 2019-06-18 17:25:27 38.9002 -77.0515 445.7 24 46.8 1009.3 #ff9a00
30 Zinc 2019-06-18 17:39:58 38.9002 -77.0515 433 24.1 46.3 1009.4 #ffcc00
30 Zinc 2019-06-18 17:54:29 38.9002 -77.0515 428.3 24.2 46.2 1009.2 #ffde00
30 Zinc 2019-06-18 18:09:01 38.9002 -77.0515 433.2 24.2 46.5 1009.5 #ffcb00
30 Zinc 2019-06-18 18:23:32 38.9002 -77.0515 438.2 24.2 46.7 1010.3 #ffb700
30 Zinc 2019-06-18 18:38:03 38.9002 -77.0515 437 23.9 47.3 1010.8 #ffbc00
30 Zinc 2019-06-18 18:52:34 38.9002 -77.0515 434.7 23.9 47.2 1010.9 #ffc500
30 Zinc 2019-06-18 19:07:06 38.9002 -77.0515 441.8 23.8 47.7 1010.7 #ffa900
30 Zinc 2019-06-18 19:21:37 38.9002 -77.0515 447 23.8 47.8 1010.9 #ff9500
30 Zinc 2019-06-18 19:36:08 38.9002 -77.0515 449.5 23.8 47.9 1010.8 #ff8b00
30 Zinc 2019-06-18 19:50:39 38.9002 -77.0515 444.8 23.7 48 1010.9 #ff9d00
30 Zinc 2019-06-18 20:05:10 38.9002 -77.0515 438.5 23.6 48.1 1010.7 #ffb600
30 Zinc 2019-06-18 20:19:41 38.9002 -77.0515 445 23.6 48.5 1010.6 #ff9c00
30 Zinc 2019-06-18 20:34:13 38.9002 -77.0515 445.2 23.7 48.4 1010.7 #ff9c00
30 Zinc 2019-06-18 20:48:44 38.9002 -77.0515 454.3 23.6 48.3 1010.7 #ff7800
30 Zinc 2019-06-18 21:03:15 38.9002 -77.0515 453.8 23.4 48.7 1010.7 #ff7a00
30 Zinc 2019-06-18 21:17:46 38.9002 -77.0515 448.5 23.3 49 1010.7 #ff8f00
30 Zinc 2019-06-18 21:32:18 38.9002 -77.0515 451.7 23.4 49.1 1010.9 #ff8200
30 Zinc 2019-06-18 21:46:49 38.9002 -77.0515 443.5 23.4 49.1 1010.8 #ffa200
30 Zinc 2019-06-18 22:01:20 38.9002 -77.0515 437 23.3 49 1010.8 #ffbc00
30 Zinc 2019-06-18 22:15:51 38.9002 -77.0515 440.3 22.7 50.4 1010.8 #ffaf00
30 Zinc 2019-06-18 22:30:23 38.9002 -77.0515 441.5 21.9 52.5 1010.7 #ffaa00
30 Zinc 2019-06-18 22:44:54 38.9002 -77.0515 443.3 21.6 53.5 1010.8 #ffa300
30 Zinc 2019-06-18 22:59:26 38.9002 -77.0515 447.7 21.3 54.4 1010.7 #ff9200
30 Zinc 2019-06-18 23:13:57 38.9002 -77.0515 442.2 21.1 55 1010.8 #ffa800
30 Zinc 2019-06-18 23:28:28 38.9002 -77.0515 446.3 20.8 55.9 1010.7 #ff9700
30 Zinc 2019-06-18 23:42:59 38.9002 -77.0515 448 20.7 56.3 1010.6 #ff9100
30 Zinc 2019-06-18 23:57:30 38.9002 -77.0515 448.2 20.8 56.5 1010.7 #ff9000
30 Zinc 2019-06-19 00:12:01 38.9002 -77.0515 447.2 21.2 55.3 1010.6 #ff9400
30 Zinc 2019-06-19 00:26:33 38.9002 -77.0515 444.3 21.4 54.5 1010.4 #ff9f00
30 Zinc 2019-06-19 00:41:04 38.9002 -77.0515 444.2 20.9 55.8 1010.4 #ffa000
30 Zinc 2019-06-19 00:55:35 38.9002 -77.0515 447.3 20.8 56.4 1010.5 #ff9300
30 Zinc 2019-06-19 01:10:06 38.9002 -77.0515 445 21.2 55.3 1010.5 #ff9c00
30 Zinc 2019-06-19 01:24:37 38.9002 -77.0515 445 21.2 55.1 1010.3 #ff9c00
30 Zinc 2019-06-19 01:39:08 38.9002 -77.0515 447.7 20.8 56.3 1010.2 #ff9200
30 Zinc 2019-06-19 01:53:40 38.9002 -77.0515 449 20.9 56 1010.1 #ff8d00
30 Zinc 2019-06-19 02:08:11 38.9002 -77.0515 450 21.2 55.1 1010 #ff8900
30 Zinc 2019-06-19 02:22:42 38.9002 -77.0515 448.3 21.3 54.9 1009.8 #ff8f00
30 Zinc 2019-06-19 02:37:13 38.9002 -77.0515 446.3 20.9 56.1 1009.7 #ff9700
30 Zinc 2019-06-19 02:51:44 38.9002 -77.0515 450.5 20.8 56.2 1009.5 #ff8700
30 Zinc 2019-06-19 03:06:16 38.9002 -77.0515 443.7 21.1 55.5 1009.3 #ffa200
30 Zinc 2019-06-19 03:20:47 38.9002 -77.0515 454.2 21.5 54.4 1009 #ff7800
30 Zinc 2019-06-19 03:35:19 38.9002 -77.0515 448.3 21.2 55 1008.8 #ff8f00
30 Zinc 2019-06-19 03:49:50 38.9002 -77.0515 451 20.8 56.4 1008.7 #ff8500
30 Zinc 2019-06-19 04:04:21 38.9002 -77.0515 452.7 20.9 56.3 1008.6 #ff7e00
30 Zinc 2019-06-19 04:18:52 38.9002 -77.0515 452 21.2 55.1 1008.7 #ff8100
30 Zinc 2019-06-19 04:33:25 38.9002 -77.0515 453 21.6 54 1008.7 #ff7d00
30 Zinc 2019-06-19 04:47:56 38.9002 -77.0515 458.7 21.4 54.4 1008.5 #ff6700
30 Zinc 2019-06-19 05:02:28 38.9002 -77.0515 452.5 21 55.9 1008.4 #ff7f00
30 Zinc 2019-06-19 05:16:59 38.9002 -77.0515 454 20.9 56.1 1008.3 #ff7900
30 Zinc 2019-06-19 05:31:30 38.9002 -77.0515 453 21.1 55.5 1008.2 #ff7d00
30 Zinc 2019-06-19 05:46:01 38.9002 -77.0515 456.5 21.6 54.1 1008.3 #ff6f00
30 Zinc 2019-06-19 06:00:33 38.9002 -77.0515 443 21.7 54 1008.3 #ffa400
30 Zinc 2019-06-19 06:15:05 38.9002 -77.0515 455.2 21.9 53.5 1008.2 #ff7500
30 Zinc 2019-06-19 06:29:37 38.9002 -77.0515 462.5 21.9 53.5 1008.3 #ff5800
30 Zinc 2019-06-19 06:44:08 38.9002 -77.0515 465 22.4 52 1008.2 #ff4e00
30 Zinc 2019-06-19 06:58:39 38.9002 -77.0515 460.7 22.3 52.2 1008.3 #ff5f00
30 Zinc 2019-06-19 07:13:11 38.9002 -77.0515 466 22.5 51.5 1008.3 #ff4a00
30 Zinc 2019-06-19 07:27:42 38.9002 -77.0515 469.2 22.8 50.7 1008.4 #ff3e00
30 Zinc 2019-06-19 07:42:13 38.9002 -77.0515 466 23 50.1 1008.4 #ff4a00
30 Zinc 2019-06-19 07:56:45 38.9002 -77.0515 462.5 23.1 50.2 1008.5 #ff5800
30 Zinc 2019-06-19 08:11:16 38.9002 -77.0515 462 23.1 50.1 1008.7 #ff5a00
30 Zinc 2019-06-19 08:25:47 38.9002 -77.0515 460.2 23 50.3 1008.7 #ff6100
30 Zinc 2019-06-19 08:40:19 38.9002 -77.0515 463.2 23 50.2 1008.7 #ff5500
30 Zinc 2019-06-19 08:54:50 38.9002 -77.0515 459 23 50 1008.7 #ff6600
30 Zinc 2019-06-19 09:09:21 38.9002 -77.0515 461.5 23.1 50.1 1008.6 #ff5c00
30 Zinc 2019-06-19 09:23:52 38.9002 -77.0515 463.5 23.1 49.9 1008.8 #ff5400
30 Zinc 2019-06-19 09:38:24 38.9002 -77.0515 455.5 23.3 49.4 1008.8 #ff7300
30 Zinc 2019-06-19 09:52:55 38.9002 -77.0515 459 23.3 49.3 1008.7 #ff6600
30 Zinc 2019-06-19 10:07:27 38.9002 -77.0515 464.5 23.3 49.5 1008.6 #ff5000
30 Zinc 2019-06-19 10:21:58 38.9002 -77.0515 462.2 23.7 48.3 1008.4 #ff5900
30 Zinc 2019-06-19 10:36:29 38.9002 -77.0515 455 23.8 48.1 1008.3 #ff7500
30 Zinc 2019-06-19 10:51:00 38.9002 -77.0515 457.2 23.9 47.5 1008.3 #ff6d00
30 Zinc 2019-06-19 11:05:32 38.9002 -77.0515 459.8 24 47.3 1008.1 #ff6200
30 Zinc 2019-06-19 11:20:03 38.9002 -77.0515 453 24 47.6 1008 #ff7d00
30 Zinc 2019-06-19 11:34:35 38.9002 -77.0515 456 24 47.3 1007.9 #ff7100
30 Zinc 2019-06-19 11:49:06 38.9002 -77.0515 471.5 24.2 47.2 1007.8 #ff3400
30 Zinc 2019-06-19 12:03:37 38.9002 -77.0515 447.7 24.4 46.5 1007.7 #ff9200
30 Zinc 2019-06-19 12:18:08 38.9002 -77.0515 446.5 24.7 45.7 1007.6 #ff9700
30 Zinc 2019-06-19 12:32:40 38.9002 -77.0515 443 25 45 1007.5 #ffa400
30 Zinc 2019-06-19 12:47:11 38.9002 -77.0515 450.2 25.1 44.7 1007.5 #ff8800
30 Zinc 2019-06-19 13:01:42 38.9002 -77.0515 445 25.1 44.6 1007.3 #ff9c00
30 Zinc 2019-06-19 13:16:13 38.9002 -77.0515 443.5 25.2 44.3 1007 #ffa200
30 Zinc 2019-06-19 13:30:45 38.9002 -77.0515 442.2 24.9 45 1006.7 #ffa800
30 Zinc 2019-06-19 13:45:16 38.9002 -77.0515 444.5 24.6 45.8 1006.6 #ff9e00
30 Zinc 2019-06-19 13:59:48 38.9002 -77.0515 440 23.7 48.2 1006.3 #ffb000
30 Zinc 2019-06-19 14:14:19 38.9002 -77.0515 440.2 23.2 49.4 1006.2 #ffaf00
30 Zinc 2019-06-19 14:28:50 38.9002 -77.0515 444 22.7 50.7 1006.1 #ffa000
30 Zinc 2019-06-19 14:43:21 38.9002 -77.0515 460.8 23 50.1 1005.8 #ff5e00
30 Zinc 2019-06-19 14:57:52 38.9002 -77.0515 441.2 23.1 49.7 1005.5 #ffab00
30 Zinc 2019-06-19 15:12:23 38.9002 -77.0515 453.3 24.1 47.4 1005.3 #ff7c00
30 Zinc 2019-06-19 15:26:55 38.9002 -77.0515 450 24.8 45.4 1005.2 #ff8900
30 Zinc 2019-06-19 15:41:26 38.9002 -77.0515 446.7 23.4 49 1004.9 #ff9600
30 Zinc 2019-06-19 15:55:58 38.9002 -77.0515 444.8 22.9 50.5 1004.7 #ff9d00
30 Zinc 2019-06-19 16:10:30 38.9002 -77.0515 438 23.1 50.1 1004.5 #ffb800
30 Zinc 2019-06-19 16:25:01 38.9002 -77.0515 441.5 22.9 50.4 1004.4 #ffaa00
30 Zinc 2019-06-19 16:39:32 38.9002 -77.0515 440 23 50.1 1004.1 #ffb000
30 Zinc 2019-06-19 16:54:04 38.9002 -77.0515 442 23 50 1004.1 #ffa800
30 Zinc 2019-06-19 17:08:35 38.9002 -77.0515 437.3 22.7 50.7 1004.1 #ffbb00
30 Zinc 2019-06-19 17:23:06 38.9002 -77.0515 436 22.7 51 1004 #ffc000
30 Zinc 2019-06-19 17:37:37 38.9002 -77.0515 432 22.4 51.5 1003.9 #ffcf00
30 Zinc 2019-06-19 17:52:09 38.9002 -77.0515 430.2 22.3 51.5 1003.5 #ffd700
30 Zinc 2019-06-19 18:06:40 38.9002 -77.0515 427.8 22.3 51.8 1003.6 #ffe000
30 Zinc 2019-06-19 18:21:11 38.9002 -77.0515 432.8 22.2 52.3 1003.7 #ffcc00
30 Zinc 2019-06-19 18:35:42 38.9002 -77.0515 428 22 53.2 1003.5 #ffdf00
30 Zinc 2019-06-19 18:50:14 38.9002 -77.0515 426.2 22 52.8 1003.6 #ffe600
30 Zinc 2019-06-19 19:04:45 38.9002 -77.0515 423.5 21.9 53.1 1003.5 #fff100
30 Zinc 2019-06-19 19:19:17 38.9002 -77.0515 433.2 22 53.2 1003.4 #ffcb00
30 Zinc 2019-06-19 19:33:48 38.9002 -77.0515 434.3 21.9 53 1003.6 #ffc600
30 Zinc 2019-06-19 19:48:19 38.9002 -77.0515 431.8 21.8 53 1003.5 #ffd000
30 Zinc 2019-06-19 20:02:50 38.9002 -77.0515 435.7 21.7 53.9 1003.6 #ffc100
30 Zinc 2019-06-19 20:17:21 38.9002 -77.0515 431.8 21.6 54 1003.8 #ffd000
30 Zinc 2019-06-19 20:31:52 38.9002 -77.0515 433.8 21.5 54.6 1003.7 #ffc800
30 Zinc 2019-06-19 20:46:24 38.9002 -77.0515 429.8 21.4 54.9 1003.7 #ffd800
30 Zinc 2019-06-19 21:00:55 38.9002 -77.0515 429.2 21.4 54.8 1003.6 #ffdb00
30 Zinc 2019-06-19 21:15:26 38.9002 -77.0515 431.7 21.5 54.7 1003.4 #ffd100
30 Zinc 2019-06-19 21:29:58 38.9002 -77.0515 430.3 21.7 54.1 1003.5 #ffd600
30 Zinc 2019-06-19 21:44:29 38.9002 -77.0515 431 21.6 53.9 1003.7 #ffd300
30 Zinc 2019-06-19 21:59:01 38.9002 -77.0515 429.5 21.3 54.1 1003.6 #ffd900
30 Zinc 2019-06-19 22:13:32 38.9002 -77.0515 435.2 21 55.1 1003.7 #ffc300
30 Zinc 2019-06-19 22:28:03 38.9002 -77.0515 435 20.7 56 1004 #ffc400
30 Zinc 2019-06-19 22:42:35 38.9002 -77.0515 434.7 20.5 56.4 1003.9 #ffc500
30 Zinc 2019-06-19 22:57:06 38.9002 -77.0515 438 21 55 1003.7 #ffb800
30 Zinc 2019-06-19 23:11:37 38.9002 -77.0515 441.8 21.9 52.8 1003.5 #ffa900
30 Zinc 2019-06-19 23:26:08 38.9002 -77.0515 438.5 22.1 52.4 1003.5 #ffb600
30 Zinc 2019-06-19 23:40:39 38.9002 -77.0515 439.8 21.5 53.8 1003.6 #ffb100
30 Zinc 2019-06-19 23:55:11 38.9002 -77.0515 439 20.9 55.8 1003.5 #ffb400
30 Zinc 2019-06-20 00:09:42 38.9002 -77.0515 439.8 21.2 55 1003.5 #ffb100
30 Zinc 2019-06-20 00:24:14 38.9002 -77.0515 443.8 21.6 53.7 1003.4 #ffa100
30 Zinc 2019-06-20 00:38:45 38.9002 -77.0515 442.8 21.6 53.8 1003.2 #ffa500
30 Zinc 2019-06-20 00:53:17 38.9002 -77.0515 445.7 21.4 54.6 1003.1 #ff9a00
30 Zinc 2019-06-20 01:07:48 38.9002 -77.0515 444.8 21 55.6 1002.9 #ff9d00
30 Zinc 2019-06-20 01:22:19 38.9002 -77.0515 440.2 21.1 55.3 1002.7 #ffaf00
30 Zinc 2019-06-20 01:36:50 38.9002 -77.0515 446 21.5 54.3 1002.6 #ff9900
30 Zinc 2019-06-20 01:51:21 38.9002 -77.0515 451 21.8 53.4 1002.4 #ff8500
30 Zinc 2019-06-20 02:05:53 38.9002 -77.0515 446 21.7 53.8 1002.1 #ff9900
30 Zinc 2019-06-20 02:20:24 38.9002 -77.0515 444 21.4 54.5 1002.1 #ffa000
30 Zinc 2019-06-20 02:34:55 38.9002 -77.0515 450 21.1 55.2 1001.9 #ff8900
30 Zinc 2019-06-20 02:49:26 38.9002 -77.0515 448.7 21.2 55 1001.7 #ff8e00
30 Zinc 2019-06-20 03:03:57 38.9002 -77.0515 452 21.6 54.1 1001.4 #ff8100
30 Zinc 2019-06-20 03:18:28 38.9002 -77.0515 450 21.7 53.9 1001.4 #ff8900
30 Zinc 2019-06-20 03:33:00 38.9002 -77.0515 451.3 21.7 53.9 1001.3 #ff8400
30 Zinc 2019-06-20 03:47:31 38.9002 -77.0515 452 21.4 54.4 1001.3 #ff8100
30 Zinc 2019-06-20 04:02:02 38.9002 -77.0515 451.7 21.3 54.6 1001.1 #ff8200
30 Zinc 2019-06-20 04:16:34 38.9002 -77.0515 453.2 21.3 55 1001 #ff7c00
30 Zinc 2019-06-20 04:31:05 38.9002 -77.0515 452.2 21.7 53.9 1001.2 #ff8000
30 Zinc 2019-06-20 04:45:37 38.9002 -77.0515 451.2 21.7 53.8 1001.1 #ff8400
30 Zinc 2019-06-20 05:00:08 38.9002 -77.0515 452.5 21.6 54.1 1001.4 #ff7f00
30 Zinc 2019-06-20 05:14:39 38.9002 -77.0515 454.2 21.3 55.1 1001.3 #ff7800
30 Zinc 2019-06-20 05:29:11 38.9002 -77.0515 454.2 21.2 55.3 1001.2 #ff7800
30 Zinc 2019-06-20 05:43:42 38.9002 -77.0515 455.5 21.3 54.9 1001.3 #ff7300
30 Zinc 2019-06-20 05:58:13 38.9002 -77.0515 460 21.7 54 1001.3 #ff6200
30 Zinc 2019-06-20 06:12:44 38.9002 -77.0515 460.5 22.3 52.9 1001.1 #ff6000
30 Zinc 2019-06-20 06:27:16 38.9002 -77.0515 463.2 22.7 51.6 1001.1 #ff5500
30 Zinc 2019-06-20 06:41:47 38.9002 -77.0515 463 22.9 50.8 1001 #ff5600
30 Zinc 2019-06-20 06:56:18 38.9002 -77.0515 469.7 23 50.6 1001.1 #ff3c00
30 Zinc 2019-06-20 07:10:50 38.9002 -77.0515 469 23 50.3 1000.9 #ff3e00
30 Zinc 2019-06-20 07:25:21 38.9002 -77.0515 466.2 23.1 50 1001.3 #ff4900
30 Zinc 2019-06-20 07:39:52 38.9002 -77.0515 462.3 23.2 49.7 1001.3 #ff5800
30 Zinc 2019-06-20 07:54:24 38.9002 -77.0515 453.3 23.2 49.8 1001.5 #ff7c00
30 Zinc 2019-06-20 08:08:55 38.9002 -77.0515 466.7 23.3 49.5 1001.4 #ff4700
30 Zinc 2019-06-20 08:23:27 38.9002 -77.0515 462.5 23.3 49.8 1001.4 #ff5800
30 Zinc 2019-06-20 08:37:58 38.9002 -77.0515 458.3 23.3 49.7 1001.3 #ff6800
30 Zinc 2019-06-20 08:52:29 38.9002 -77.0515 455.2 23.3 49.6 1001.2 #ff7500
30 Zinc 2019-06-20 09:07:01 38.9002 -77.0515 455.5 23.5 49 1001.1 #ff7300
30 Zinc 2019-06-20 09:21:32 38.9002 -77.0515 452.5 23.5 49 1001.1 #ff7f00
30 Zinc 2019-06-20 09:36:03 38.9002 -77.0515 457.2 23.7 48.2 1000.9 #ff6d00
30 Zinc 2019-06-20 09:50:35 38.9002 -77.0515 451 23.7 48.3 1001 #ff8500
30 Zinc 2019-06-20 10:05:06 38.9002 -77.0515 448 23.9 47.9 1000.8 #ff9100
30 Zinc 2019-06-20 10:19:38 38.9002 -77.0515 445 23.9 47.9 1000.6 #ff9c00
30 Zinc 2019-06-20 10:34:09 38.9002 -77.0515 443.8 24 47.7 1000.7 #ffa100
30 Zinc 2019-06-20 10:48:40 38.9002 -77.0515 442.8 24.4 46.7 1000.6 #ffa500
30 Zinc 2019-06-20 11:03:12 38.9002 -77.0515 447 24.3 46.8 1000.2 #ff9500
30 Zinc 2019-06-20 11:17:43 38.9002 -77.0515 453 23.6 48.9 1000.2 #ff7d00
30 Zinc 2019-06-20 11:32:15 38.9002 -77.0515 452 23.4 49.3 1000.1 #ff8100
30 Zinc 2019-06-20 11:46:46 38.9002 -77.0515 443 22.8 50.3 1000.1 #ffa400
30 Zinc 2019-06-20 12:01:17 38.9002 -77.0515 444 22.5 51.6 1000 #ffa000
30 Zinc 2019-06-20 12:15:49 38.9002 -77.0515 437.5 22.5 51.4 999.9 #ffba00
30 Zinc 2019-06-20 12:30:20 38.9002 -77.0515 435.3 22.6 51 999.8 #ffc200
30 Zinc 2019-06-20 12:44:51 38.9002 -77.0515 434 22.5 51.6 999.6 #ffc800
30 Zinc 2019-06-20 12:59:23 38.9002 -77.0515 434 22.5 51.2 999.4 #ffc800
30 Zinc 2019-06-20 13:13:54 38.9002 -77.0515 432.2 22.2 51.9 999 #ffcf00
30 Zinc 2019-06-20 13:28:25 38.9002 -77.0515 434.5 22.1 51.8 999 #ffc600
30 Zinc 2019-06-20 13:42:57 38.9002 -77.0515 434.3 21.9 53.1 998.9 #ffc600
30 Zinc 2019-06-20 13:57:28 38.9002 -77.0515 436 21.7 53.3 998.9 #ffc000
30 Zinc 2019-06-20 14:11:59 38.9002 -77.0515 436 21.7 53.9 998.5 #ffc000
30 Zinc 2019-06-20 14:26:31 38.9002 -77.0515 431.2 21.7 53.5 998.4 #ffd300
30 Zinc 2019-06-20 14:41:02 38.9002 -77.0515 430.2 22 52.9 998.4 #ffd700
30 Zinc 2019-06-20 14:55:33 38.9002 -77.0515 433.5 21.8 53 998.1 #ffca00
30 Zinc 2019-06-20 15:10:04 38.9002 -77.0515 438 23 49.6 997.9 #ffb800
30 Zinc 2019-06-20 15:24:36 38.9002 -77.0515 435 22.4 51.1 997.8 #ffc400
30 Zinc 2019-06-20 15:39:07 38.9002 -77.0515 442 22 52.5 997.9 #ffa800
30 Zinc 2019-06-20 15:53:38 38.9002 -77.0515 431 22 52.1 997.8 #ffd300
30 Zinc 2019-06-20 16:08:09 38.9002 -77.0515 438.3 22.1 52.1 997.6 #ffb700
30 Zinc 2019-06-20 16:22:41 38.9002 -77.0515 430.2 22.8 50.1 997.6 #ffd700
30 Zinc 2019-06-20 16:37:12 38.9002 -77.0515 434.3 22.6 50.6 997.5 #ffc600
30 Zinc 2019-06-20 16:51:44 38.9002 -77.0515 429 22.2 51.6 997.6 #ffdb00
30 Zinc 2019-06-20 17:06:15 38.9002 -77.0515 424.8 22.3 51.6 997.6 #ffec00
30 Zinc 2019-06-20 17:20:46 38.9002 -77.0515 426.7 22 53 997.4 #ffe400
30 Zinc 2019-06-20 17:35:17 38.9002 -77.0515 432.5 22.3 52 997.2 #ffcd00
30 Zinc 2019-06-20 17:49:49 38.9002 -77.0515 429.7 21.8 53 997.1 #ffd900
30 Zinc 2019-06-20 18:04:20 38.9002 -77.0515 422.2 21.6 53.5 997 #fff600
30 Zinc 2019-06-20 18:18:51 38.9002 -77.0515 422.8 21.6 53.1 997.4 #fff300
30 Zinc 2019-06-20 18:33:22 38.9002 -77.0515 424.8 21.6 53.4 997.4 #ffec00
30 Zinc 2019-06-20 18:47:53 38.9002 -77.0515 425.7 21.7 53.5 997.7 #ffe800
30 Zinc 2019-06-20 19:02:25 38.9002 -77.0515 423.5 21.8 53.4 997.7 #fff100
30 Zinc 2019-06-20 19:16:56 38.9002 -77.0515 427 21.6 53.4 997.8 #ffe300
30 Zinc 2019-06-20 19:31:27 38.9002 -77.0515 434 21.5 54.3 998.2 #ffc800
30 Zinc 2019-06-20 19:45:58 38.9002 -77.0515 434.7 21.4 54.7 998.2 #ffc500
30 Zinc 2019-06-20 20:00:30 38.9002 -77.0515 431.7 21.2 55.1 998.5 #ffd100
30 Zinc 2019-06-20 20:15:01 38.9002 -77.0515 432.7 21.1 55.5 998.6 #ffcd00
30 Zinc 2019-06-20 20:29:33 38.9002 -77.0515 437.5 21 55.5 998.5 #ffba00
30 Zinc 2019-06-20 20:44:04 38.9002 -77.0515 438 20.8 56.4 998.8 #ffb800
30 Zinc 2019-06-20 20:58:35 38.9002 -77.0515 441.7 20.8 56.3 998.8 #ffa900
30 Zinc 2019-06-20 21:13:06 38.9002 -77.0515 435.2 20.7 56.3 998.8 #ffc300
30 Zinc 2019-06-20 21:27:38 38.9002 -77.0515 427.5 20.6 56.9 999.3 #ffe100
30 Zinc 2019-06-20 21:42:09 38.9002 -77.0515 433 20.6 57.7 999.7 #ffcc00
30 Zinc 2019-06-20 21:56:40 38.9002 -77.0515 430 20.5 57.8 999.5 #ffd700
30 Zinc 2019-06-20 22:11:12 38.9002 -77.0515 430.8 20.4 57.5 999.5 #ffd400
30 Zinc 2019-06-20 22:25:43 38.9002 -77.0515 431.3 20.4 57.4 999.5 #ffd200
30 Zinc 2019-06-20 22:40:14 38.9002 -77.0515 436 20.3 57.8 999.6 #ffc000
30 Zinc 2019-06-20 22:54:46 38.9002 -77.0515 436.5 20.3 57.7 999.5 #ffbe00
30 Zinc 2019-06-20 23:09:17 38.9002 -77.0515 440.5 20.3 57.7 999.6 #ffae00
30 Zinc 2019-06-20 23:23:48 38.9002 -77.0515 441.2 20.2 58.1 999.6 #ffab00
30 Zinc 2019-06-20 23:38:19 38.9002 -77.0515 438.3 20.2 58.3 999.3 #ffb700
30 Zinc 2019-06-20 23:52:51 38.9002 -77.0515 441.5 20.2 58.4 999.3 #ffaa00
30 Zinc 2019-06-21 00:07:22 38.9002 -77.0515 438.7 20.1 58.6 999.2 #ffb500
30 Zinc 2019-06-21 00:21:53 38.9002 -77.0515 443.3 20.1 58.3 999.2 #ffa300
30 Zinc 2019-06-21 00:36:24 38.9002 -77.0515 447 20 58.8 999.2 #ff9500
30 Zinc 2019-06-21 00:50:55 38.9002 -77.0515 447.3 20 59.1 999.3 #ff9300
30 Zinc 2019-06-21 01:05:27 38.9002 -77.0515 449 20 59.2 999.2 #ff8d00
30 Zinc 2019-06-21 01:19:58 38.9002 -77.0515 447.5 19.9 59.5 999.1 #ff9300
30 Zinc 2019-06-21 01:34:31 38.9002 -77.0515 446 19.9 58.8 999 #ff9900
30 Zinc 2019-06-21 01:49:02 38.9002 -77.0515 450.5 19.8 59.8 999.1 #ff8700
30 Zinc 2019-06-21 02:03:33 38.9002 -77.0515 447.2 19.6 60.1 999.1 #ff9400
30 Zinc 2019-06-21 02:18:04 38.9002 -77.0515 445.3 19.6 59.6 998.9 #ff9b00
30 Zinc 2019-06-21 02:32:36 38.9002 -77.0515 443.8 19.7 59.8 998.9 #ffa100
30 Zinc 2019-06-21 02:47:07 38.9002 -77.0515 439.8 19.7 59.5 998.8 #ffb100
30 Zinc 2019-06-21 03:01:38 38.9002 -77.0515 445 19.7 59.4 998.7 #ff9c00
30 Zinc 2019-06-21 03:16:09 38.9002 -77.0515 443.5 19.6 59.7 998.8 #ffa200
30 Zinc 2019-06-21 03:30:41 38.9002 -77.0515 442 19.6 59.5 998.8 #ffa800
30 Zinc 2019-06-21 03:45:13 38.9002 -77.0515 439.3 19.6 59.2 998.7 #ffb300
30 Zinc 2019-06-21 03:59:44 38.9002 -77.0515 435 19.5 59.7 998.9 #ffc400
30 Zinc 2019-06-21 04:14:16 38.9002 -77.0515 437.8 19.5 59.9 998.9 #ffb900
30 Zinc 2019-06-21 04:28:47 38.9002 -77.0515 446.2 19.5 60.7 998.9 #ff9800
30 Zinc 2019-06-21 04:43:18 38.9002 -77.0515 451.7 19.4 60.7 998.9 #ff8200
30 Zinc 2019-06-21 04:57:49 38.9002 -77.0515 450.2 19.4 60.6 999.1 #ff8800
30 Zinc 2019-06-21 05:12:20 38.9002 -77.0515 444 19.4 60.3 999.1 #ffa000
30 Zinc 2019-06-21 05:26:51 38.9002 -77.0515 448.8 19.5 60.7 999.3 #ff8d00
30 Zinc 2019-06-21 05:41:23 38.9002 -77.0515 449.3 19.4 60.6 999.5 #ff8b00
30 Zinc 2019-06-21 05:55:54 38.9002 -77.0515 447.2 19.3 60.7 999.4 #ff9400
30 Zinc 2019-06-21 06:10:25 38.9002 -77.0515 445.3 19.6 60 999.8 #ff9b00
30 Zinc 2019-06-21 06:24:56 38.9002 -77.0515 440.7 19.5 60 1000 #ffad00
30 Zinc 2019-06-21 06:39:27 38.9002 -77.0515 433 19.3 60.6 1000.1 #ffcc00
30 Zinc 2019-06-21 06:53:58 38.9002 -77.0515 436.5 19.3 61.2 1000.5 #ffbe00
30 Zinc 2019-06-21 07:08:29 38.9002 -77.0515 434 19.2 61.1 1000.7 #ffc800
30 Zinc 2019-06-21 07:23:00 38.9002 -77.0515 434 19.2 61 1001.1 #ffc800
30 Zinc 2019-06-21 07:37:32 38.9002 -77.0515 430.2 19.1 61.2 1001.3 #ffd700
30 Zinc 2019-06-21 07:52:03 38.9002 -77.0515 428.8 19.1 61.1 1001.7 #ffdc00
30 Zinc 2019-06-21 08:06:34 38.9002 -77.0515 429 19.1 61.3 1001.9 #ffdb00
30 Zinc 2019-06-21 08:21:05 38.9002 -77.0515 433.5 19 61.4 1002 #ffca00
30 Zinc 2019-06-21 08:35:36 38.9002 -77.0515 429 18.9 61.6 1002.3 #ffdb00
30 Zinc 2019-06-21 08:50:08 38.9002 -77.0515 428.5 19 61.6 1002.9 #ffdd00
30 Zinc 2019-06-21 09:04:39 38.9002 -77.0515 429.2 18.9 61.9 1003.1 #ffdb00
30 Zinc 2019-06-21 09:19:10 38.9002 -77.0515 427.5 19 61.5 1003.4 #ffe100
30 Zinc 2019-06-21 09:33:41 38.9002 -77.0515 429.2 18.9 61.7 1003.9 #ffdb00
30 Zinc 2019-06-21 09:48:12 38.9002 -77.0515 423.2 19 65 1004 #fff200
30 Zinc 2019-06-21 10:02:43 38.9002 -77.0515 438.2 19.8 71.7 1004.3 #ffb700
30 Zinc 2019-06-21 10:17:14 38.9002 -77.0515 432.7 20.5 69.3 1004.5 #ffcd00
30 Zinc 2019-06-21 10:31:46 38.9002 -77.0515 429.5 21.4 66 1004.7 #ffd900
30 Zinc 2019-06-21 10:46:17 38.9002 -77.0515 433.3 21.9 64.6 1005.1 #ffca00
30 Zinc 2019-06-21 11:00:48 38.9002 -77.0515 433.3 22.2 62.6 1005.4 #ffca00
30 Zinc 2019-06-21 11:15:20 38.9002 -77.0515 430 21.4 61.3 1005.8 #ffd700
30 Zinc 2019-06-21 11:29:51 38.9002 -77.0515 429.5 20.9 59.3 1005.9 #ffd900
30 Zinc 2019-06-21 11:44:22 38.9002 -77.0515 428 20.5 55.8 1005.9 #ffdf00
30 Zinc 2019-06-21 11:58:53 38.9002 -77.0515 426 20.3 55.2 1006.3 #ffe700
30 Zinc 2019-06-21 12:13:25 38.9002 -77.0515 427 20.4 55 1006.3 #ffe300
30 Zinc 2019-06-21 12:27:56 38.9002 -77.0515 431 20.4 54.8 1006.4 #ffd300
30 Zinc 2019-06-21 12:42:27 38.9002 -77.0515 443.2 20.2 56.5 1006.6 #ffa400
30 Zinc 2019-06-21 12:56:58 38.9002 -77.0515 442 20.2 56.5 1006.5 #ffa800
30 Zinc 2019-06-21 13:11:29 38.9002 -77.0515 433.8 20.2 56.2 1006.4 #ffc800
30 Zinc 2019-06-21 13:26:00 38.9002 -77.0515 427 20.1 56.1 1006.6 #ffe300
30 Zinc 2019-06-21 13:40:31 38.9002 -77.0515 423.8 20.1 55.9 1007 #ffef00
30 Zinc 2019-06-21 13:55:03 38.9002 -77.0515 431 20.2 55.9 1007.2 #ffd300
30 Zinc 2019-06-21 14:09:34 38.9002 -77.0515 427.8 20.2 56.1 1007.3 #ffe000
30 Zinc 2019-06-21 14:24:05 38.9002 -77.0515 435.2 20 56.2 1006.9 #ffc300
30 Zinc 2019-06-21 14:38:36 38.9002 -77.0515 433 20.4 55.4 1007 #ffcc00
30 Zinc 2019-06-21 14:53:07 38.9002 -77.0515 431 20.8 54 1007 #ffd300
30 Zinc 2019-06-21 15:07:38 38.9002 -77.0515 427 21.9 50.6 1007.3 #ffe300
30 Zinc 2019-06-21 15:22:09 38.9002 -77.0515 431.7 23.2 46.8 1007.5 #ffd100
30 Zinc 2019-06-21 15:36:40 38.9002 -77.0515 425 21.2 52.2 1007.8 #ffeb00
30 Zinc 2019-06-21 15:51:12 38.9002 -77.0515 423.3 20.7 53.9 1007.7 #fff100
30 Zinc 2019-06-21 16:05:43 38.9002 -77.0515 422.3 20.7 54 1007.7 #fff500
30 Zinc 2019-06-21 16:20:14 38.9002 -77.0515 425.7 20.2 55.4 1007.9 #ffe800
30 Zinc 2019-06-21 16:34:45 38.9002 -77.0515 423 20.1 55.4 1008.3 #fff300
30 Zinc 2019-06-21 16:49:16 38.9002 -77.0515 422.5 20.1 55.9 1008.5 #fff500
30 Zinc 2019-06-21 17:03:47 38.9002 -77.0515 422 20 56.4 1008.6 #fff700
30 Zinc 2019-06-21 17:18:18 38.9002 -77.0515 421 20 56.6 1008.4 #fffb00
30 Zinc 2019-06-21 17:32:49 38.9002 -77.0515 421.7 20 56.3 1008.3 #fff800
30 Zinc 2019-06-21 17:47:20 38.9002 -77.0515 421 20.1 55.6 1008.3 #fffb00
30 Zinc 2019-06-21 18:01:51 38.9002 -77.0515 420.2 20.1 55.5 1008.5 #fffe00
30 Zinc 2019-06-21 18:16:22 38.9002 -77.0515 420 20.2 55.3 1008.6 #ffff00
30 Zinc 2019-06-21 18:30:53 38.9002 -77.0515 419.7 20.4 54.7 1008.6 #fdff00
30 Zinc 2019-06-21 18:45:25 38.9002 -77.0515 417.5 21.7 51 1008.6 #f5ff00
30 Zinc 2019-06-21 18:59:56 38.9002 -77.0515 419 20.2 55.3 1008.9 #fbff00
30 Zinc 2019-06-21 19:14:27 38.9002 -77.0515 420 19.9 56 1008.9 #ffff00
30 Zinc 2019-06-21 19:28:58 38.9002 -77.0515 420 19.6 56.8 1009.2 #ffff00
30 Zinc 2019-06-21 19:43:29 38.9002 -77.0515 420.8 19.5 57.2 1009.2 #fffb00
30 Zinc 2019-06-21 19:58:00 38.9002 -77.0515 422 19.4 57.6 1009.3 #fff700
30 Zinc 2019-06-21 20:12:31 38.9002 -77.0515 421.2 19.3 57.4 1009.5 #fffa00
30 Zinc 2019-06-21 20:27:02 38.9002 -77.0515 422 19.3 57.5 1009.7 #fff700
30 Zinc 2019-06-21 20:41:33 38.9002 -77.0515 424 19.1 57.6 1009.7 #ffef00
30 Zinc 2019-06-21 20:56:04 38.9002 -77.0515 423.2 19.1 57.3 1009.9 #fff200
30 Zinc 2019-06-21 21:10:35 38.9002 -77.0515 422.5 19 57.2 1010 #fff500
30 Zinc 2019-06-21 21:25:06 38.9002 -77.0515 426 19 57.3 1010.3 #ffe700
30 Zinc 2019-06-21 21:39:38 38.9002 -77.0515 425.8 18.7 58.2 1010.5 #ffe800
30 Zinc 2019-06-21 21:54:09 38.9002 -77.0515 426 18.7 58.7 1010.7 #ffe700
30 Zinc 2019-06-21 22:08:40 38.9002 -77.0515 428 18.6 59.1 1010.9 #ffdf00
30 Zinc 2019-06-21 22:23:11 38.9002 -77.0515 426 18.6 59.2 1011.4 #ffe700
30 Zinc 2019-06-21 22:37:42 38.9002 -77.0515 429.8 18.7 59.1 1011.6 #ffd800
30 Zinc 2019-06-21 22:52:13 38.9002 -77.0515 425.5 18.8 58.9 1011.7 #ffe900
30 Zinc 2019-06-21 23:06:45 38.9002 -77.0515 428 18.8 58.9 1011.9 #ffdf00
30 Zinc 2019-06-21 23:21:16 38.9002 -77.0515 431.7 18.9 58.5 1012 #ffd100
30 Zinc 2019-06-21 23:35:46 38.9002 -77.0515 434.2 19.1 58 1012.2 #ffc700
30 Zinc 2019-06-21 23:50:18 38.9002 -77.0515 431.5 19.1 57.8 1012.4 #ffd100
30 Zinc 2019-06-22 00:04:49 38.9002 -77.0515 431 19.2 57.3 1012.6 #ffd300
30 Zinc 2019-06-22 00:19:20 38.9002 -77.0515 428 19 57.7 1012.5 #ffdf00
30 Zinc 2019-06-22 00:33:51 38.9002 -77.0515 430.2 19 57.9 1012.4 #ffd700
30 Zinc 2019-06-22 00:48:22 38.9002 -77.0515 433.2 18.9 58 1012.4 #ffcb00
30 Zinc 2019-06-22 01:02:54 38.9002 -77.0515 433.3 18.8 58.2 1012.5 #ffca00
30 Zinc 2019-06-22 01:17:25 38.9002 -77.0515 434 18.8 57.9 1012.5 #ffc800
30 Zinc 2019-06-22 01:31:56 38.9002 -77.0515 433.7 18.7 57.6 1012.4 #ffc900
30 Zinc 2019-06-22 01:46:27 38.9002 -77.0515 434 18.7 58.3 1012.6 #ffc800
30 Zinc 2019-06-22 02:00:58 38.9002 -77.0515 435 18.7 58.7 1012.6 #ffc400
30 Zinc 2019-06-22 02:15:29 38.9002 -77.0515 432 18.7 59.3 1012.5 #ffcf00
30 Zinc 2019-06-22 02:30:01 38.9002 -77.0515 439 18.7 59.7 1012.6 #ffb400
30 Zinc 2019-06-22 02:44:33 38.9002 -77.0515 438 18.6 58.8 1012.8 #ffb800
30 Zinc 2019-06-22 02:59:04 38.9002 -77.0515 437 18.6 58 1012.8 #ffbc00
30 Zinc 2019-06-22 03:13:35 38.9002 -77.0515 438 18.6 57.2 1012.7 #ffb800
30 Zinc 2019-06-22 03:28:06 38.9002 -77.0515 439 18.5 56.9 1012.6 #ffb400
30 Zinc 2019-06-22 03:42:37 38.9002 -77.0515 436.7 18.5 55 1012.8 #ffbd00
30 Zinc 2019-06-22 03:57:08 38.9002 -77.0515 436.8 18.5 53.7 1012.9 #ffbc00
30 Zinc 2019-06-22 04:11:39 38.9002 -77.0515 433 18.5 53.1 1013.1 #ffcc00
30 Zinc 2019-06-22 04:26:10 38.9002 -77.0515 433.5 18.4 52.6 1012.9 #ffca00
30 Zinc 2019-06-22 04:40:41 38.9002 -77.0515 433.5 18.4 52.4 1012.8 #ffca00
30 Zinc 2019-06-22 04:55:13 38.9002 -77.0515 431.3 18.4 52 1013.1 #ffd200
30 Zinc 2019-06-22 05:09:44 38.9002 -77.0515 432 18.4 51.9 1013.1 #ffcf00
30 Zinc 2019-06-22 05:24:15 38.9002 -77.0515 435.7 18.4 52.6 1013.3 #ffc100
30 Zinc 2019-06-22 05:38:46 38.9002 -77.0515 435 18.4 52.8 1013.2 #ffc400
30 Zinc 2019-06-22 05:53:17 38.9002 -77.0515 435.7 18.4 53.9 1013.4 #ffc100
30 Zinc 2019-06-22 06:07:48 38.9002 -77.0515 439.7 18.4 54.3 1013.4 #ffb100
30 Zinc 2019-06-22 06:22:19 38.9002 -77.0515 438.8 18.4 54.6 1013.5 #ffb500
30 Zinc 2019-06-22 06:36:50 38.9002 -77.0515 435.8 18.3 54.7 1013.9 #ffc000
30 Zinc 2019-06-22 06:51:22 38.9002 -77.0515 439.7 18.3 55 1013.9 #ffb100
30 Zinc 2019-06-22 07:05:53 38.9002 -77.0515 441.5 18.3 55.2 1013.9 #ffaa00
30 Zinc 2019-06-22 07:20:24 38.9002 -77.0515 441.3 18.3 55.5 1013.9 #ffab00
30 Zinc 2019-06-22 07:34:55 38.9002 -77.0515 440 18.3 55.7 1013.9 #ffb000
30 Zinc 2019-06-22 07:49:26 38.9002 -77.0515 438.8 18.2 56 1014.1 #ffb500
30 Zinc 2019-06-22 08:03:57 38.9002 -77.0515 439.2 18.3 56.1 1014.2 #ffb300
30 Zinc 2019-06-22 08:18:28 38.9002 -77.0515 438 18.3 56 1014.2 #ffb800
30 Zinc 2019-06-22 08:32:59 38.9002 -77.0515 435.5 18.3 56.3 1014.2 #ffc200
30 Zinc 2019-06-22 08:47:31 38.9002 -77.0515 434 18.3 56.9 1014.4 #ffc800
30 Zinc 2019-06-22 09:02:02 38.9002 -77.0515 432 18.3 57.3 1014.3 #ffcf00
30 Zinc 2019-06-22 09:16:33 38.9002 -77.0515 429.2 18.3 58 1014.2 #ffdb00
30 Zinc 2019-06-22 09:31:04 38.9002 -77.0515 431 18.3 58.1 1014.4 #ffd300
30 Zinc 2019-06-22 09:45:35 38.9002 -77.0515 430.5 18.3 58.5 1014.2 #ffd500
30 Zinc 2019-06-22 10:00:06 38.9002 -77.0515 426 18.3 58.7 1014.2 #ffe700
30 Zinc 2019-06-22 10:14:37 38.9002 -77.0515 425.2 18.3 59 1014.3 #ffea00
30 Zinc 2019-06-22 10:29:09 38.9002 -77.0515 427.5 18.3 59.1 1014.4 #ffe100
30 Zinc 2019-06-22 10:43:40 38.9002 -77.0515 426 18.4 58.8 1014.4 #ffe700
30 Zinc 2019-06-22 10:58:11 38.9002 -77.0515 436.8 18.4 58.7 1014.6 #ffbc00
30 Zinc 2019-06-22 11:12:42 38.9002 -77.0515 446.5 18.4 58.4 1014.5 #ff9700
30 Zinc 2019-06-22 11:27:13 38.9002 -77.0515 434.5 18.5 57.9 1014.6 #ffc600
30 Zinc 2019-06-22 11:41:45 38.9002 -77.0515 438.7 18.5 57.5 1014.5 #ffb500
30 Zinc 2019-06-22 11:56:16 38.9002 -77.0515 442 18.5 57.7 1014.6 #ffa800
30 Zinc 2019-06-22 12:10:47 38.9002 -77.0515 449.8 18.5 57.3 1014.5 #ff8900
30 Zinc 2019-06-22 12:25:18 38.9002 -77.0515 431.8 18.6 57.3 1014.4 #ffd000
30 Zinc 2019-06-22 12:39:49 38.9002 -77.0515 442 18.7 55.4 1014.4 #ffa800
30 Zinc 2019-06-22 12:54:20 38.9002 -77.0515 435.2 18.6 55.8 1014.3 #ffc300
30 Zinc 2019-06-22 13:08:51 38.9002 -77.0515 440 18.5 55.3 1014.2 #ffb000
30 Zinc 2019-06-22 13:23:22 38.9002 -77.0515 436 18.6 55.8 1014 #ffc000
30 Zinc 2019-06-22 13:37:53 38.9002 -77.0515 443 18.6 56.1 1014 #ffa400
30 Zinc 2019-06-22 13:52:24 38.9002 -77.0515 438 18.5 56.3 1013.8 #ffb800
30 Zinc 2019-06-22 14:06:55 38.9002 -77.0515 428 18.7 56.2 1013.7 #ffdf00
30 Zinc 2019-06-22 14:21:26 38.9002 -77.0515 427 19 53.6 1013.7 #ffe300
30 Zinc 2019-06-22 14:35:57 38.9002 -77.0515 422.8 19.2 50.9 1013.7 #fff300
30 Zinc 2019-06-22 14:50:28 38.9002 -77.0515 426.7 19.8 48 1013.9 #ffe400
30 Zinc 2019-06-22 15:04:59 38.9002 -77.0515 461.8 21 44.9 1014.1 #ff5a00
30 Zinc 2019-06-22 15:19:30 38.9002 -77.0515 480.8 22.5 41 1013.9 #ff1000
30 Zinc 2019-06-22 15:34:01 38.9002 -77.0515 440 20.9 44.8 1013.6 #ffb000
30 Zinc 2019-06-22 15:48:32 38.9002 -77.0515 438 19.7 48.6 1013.8 #ffb800
30 Zinc 2019-06-22 16:03:03 38.9002 -77.0515 433.5 19.6 49.6 1013.6 #ffca00
30 Zinc 2019-06-22 16:17:34 38.9002 -77.0515 435 19.4 51.1 1013.7 #ffc400
30 Zinc 2019-06-22 16:32:06 38.9002 -77.0515 438.7 19.3 51.6 1013.7 #ffb500
30 Zinc 2019-06-22 16:46:37 38.9002 -77.0515 453.7 19.3 51 1013.8 #ff7a00
30 Zinc 2019-06-22 17:01:08 38.9002 -77.0515 464 19.2 51.1 1013.9 #ff5200
30 Zinc 2019-06-22 17:15:39 38.9002 -77.0515 439 19.2 50.8 1013.7 #ffb400
30 Zinc 2019-06-22 17:30:10 38.9002 -77.0515 465.7 19.2 51.3 1013.7 #ff4b00
30 Zinc 2019-06-22 17:44:41 38.9002 -77.0515 446.8 19.2 50.7 1013.8 #ff9500
30 Zinc 2019-06-22 17:59:12 38.9002 -77.0515 447 19.3 50.3 1013.8 #ff9500
30 Zinc 2019-06-22 18:13:43 38.9002 -77.0515 434.2 19.5 49.7 1013.6 #ffc700
30 Zinc 2019-06-22 18:28:14 38.9002 -77.0515 427.7 19.7 48.4 1013.8 #ffe000
30 Zinc 2019-06-22 18:42:45 38.9002 -77.0515 424.5 22.1 43 1013.9 #ffed00
30 Zinc 2019-06-22 18:57:16 38.9002 -77.0515 420.5 19.8 48.8 1013.8 #fffd00
30 Zinc 2019-06-22 19:11:48 38.9002 -77.0515 427 19.5 50 1013.9 #ffe300
30 Zinc 2019-06-22 19:26:19 38.9002 -77.0515 425.7 19.2 50.9 1013.9 #ffe800
30 Zinc 2019-06-22 19:40:50 38.9002 -77.0515 423 18.9 51.6 1014.1 #fff300
30 Zinc 2019-06-22 19:55:21 38.9002 -77.0515 425 18.8 52.4 1014.2 #ffeb00
30 Zinc 2019-06-22 20:09:52 38.9002 -77.0515 421.2 18.7 53 1014.1 #fffa00
30 Zinc 2019-06-22 20:24:23 38.9002 -77.0515 425.5 19.1 52.8 1014.1 #ffe900
30 Zinc 2019-06-22 20:38:54 38.9002 -77.0515 431.2 19.3 53 1014.3 #ffd300
30 Zinc 2019-06-22 20:53:25 38.9002 -77.0515 431.7 19.4 53.1 1014.4 #ffd100
30 Zinc 2019-06-22 21:07:56 38.9002 -77.0515 433 19.6 52.7 1014.5 #ffcc00
30 Zinc 2019-06-22 21:22:27 38.9002 -77.0515 435.8 19.6 54.1 1014.5 #ffc000
30 Zinc 2019-06-22 21:36:59 38.9002 -77.0515 442.7 19.7 55.3 1014.5 #ffa600
30 Zinc 2019-06-22 21:51:30 38.9002 -77.0515 454.2 19.7 57.9 1014.9 #ff7800
30 Zinc 2019-06-22 22:06:01 38.9002 -77.0515 451 19.8 57.9 1015.1 #ff8500
30 Zinc 2019-06-22 22:20:32 38.9002 -77.0515 455.3 19.8 58.3 1015.2 #ff7400
30 Zinc 2019-06-22 22:35:03 38.9002 -77.0515 461.8 20 58.4 1015.4 #ff5a00
30 Zinc 2019-06-22 22:49:34 38.9002 -77.0515 462 20 60.3 1015.6 #ff5a00
30 Zinc 2019-06-22 23:04:05 38.9002 -77.0515 453.8 19.9 59.5 1015.7 #ff7a00
30 Zinc 2019-06-22 23:18:36 38.9002 -77.0515 467.5 19.9 61.7 1015.8 #ff4400
30 Zinc 2019-06-22 23:33:07 38.9002 -77.0515 457 19.9 60.9 1015.8 #ff6d00
30 Zinc 2019-06-22 23:47:38 38.9002 -77.0515 464.2 19.8 61.9 1016 #ff5100
30 Zinc 2019-06-23 00:02:09 38.9002 -77.0515 466.8 19.8 63.2 1015.8 #ff4700
30 Zinc 2019-06-23 00:16:40 38.9002 -77.0515 466 19.8 62.8 1015.8 #ff4a00
30 Zinc 2019-06-23 00:31:11 38.9002 -77.0515 469.3 19.8 62.4 1015.9 #ff3d00
30 Zinc 2019-06-23 00:45:43 38.9002 -77.0515 468.7 19.8 62.6 1015.7 #ff4000
30 Zinc 2019-06-23 01:00:14 38.9002 -77.0515 474.7 19.8 63.5 1015.9 #ff2800
30 Zinc 2019-06-23 01:14:45 38.9002 -77.0515 480.3 19.8 62.8 1016.1 #ff1200
30 Zinc 2019-06-23 01:29:17 38.9002 -77.0515 481 19.8 63.2 1016 #ff0f00
30 Zinc 2019-06-23 01:43:47 38.9002 -77.0515 480.2 19.8 62.9 1015.9 #ff1200
30 Zinc 2019-06-23 01:58:18 38.9002 -77.0515 482.7 19.8 63.3 1016 #ff0900
30 Zinc 2019-06-23 02:12:50 38.9002 -77.0515 487.7 19.8 64.3 1016.1 #ff0000
30 Zinc 2019-06-23 02:27:21 38.9002 -77.0515 493.8 19.8 65.7 1016.1 #ff0000
30 Zinc 2019-06-23 02:41:52 38.9002 -77.0515 495.5 19.8 66.6 1016.3 #ff0000
30 Zinc 2019-06-23 02:56:23 38.9002 -77.0515 501 19.8 66.4 1016.4 #ff0000
30 Zinc 2019-06-23 03:10:54 38.9002 -77.0515 499.3 19.7 66.7 1016.5 #ff0000
30 Zinc 2019-06-23 03:25:25 38.9002 -77.0515 495 19.7 66.3 1016.8 #ff0000
30 Zinc 2019-06-23 03:39:56 38.9002 -77.0515 489 19.7 64.4 1016.6 #ff0000
30 Zinc 2019-06-23 03:54:28 38.9002 -77.0515 495.8 19.7 65.2 1016.5 #ff0000
30 Zinc 2019-06-23 04:08:59 38.9002 -77.0515 501.3 19.7 66.2 1016.6 #ff0000
30 Zinc 2019-06-23 04:23:30 38.9002 -77.0515 505.3 19.7 67.7 1016.6 #ff0000
30 Zinc 2019-06-23 04:38:01 38.9002 -77.0515 508.8 19.6 67.4 1016.5 #ff0000
30 Zinc 2019-06-23 04:52:32 38.9002 -77.0515 517.7 19.6 67.8 1016.6 #ff0000
30 Zinc 2019-06-23 05:07:03 38.9002 -77.0515 505.7 19.6 66.3 1016.6 #ff0000
30 Zinc 2019-06-23 05:21:34 38.9002 -77.0515 499.8 19.6 65 1016.5 #ff0000
30 Zinc 2019-06-23 05:36:07 38.9002 -77.0515 492.8 19.6 63.5 1016.6 #ff0000
30 Zinc 2019-06-23 05:50:38 38.9002 -77.0515 507 19.6 64.8 1016.8 #ff0000
30 Zinc 2019-06-23 06:05:09 38.9002 -77.0515 514.7 19.6 65.8 1017.1 #ff0000
30 Zinc 2019-06-23 06:19:40 38.9002 -77.0515 516.2 19.7 67.6 1017.3 #ff0000
30 Zinc 2019-06-23 06:34:11 38.9002 -77.0515 522.3 19.6 68.8 1017.3 #ff0000
30 Zinc 2019-06-23 06:48:43 38.9002 -77.0515 522.2 19.6 69 1017.3 #ff0000
30 Zinc 2019-06-23 07:03:14 38.9002 -77.0515 519.3 19.6 68.3 1017.6 #ff0000
30 Zinc 2019-06-23 07:17:45 38.9002 -77.0515 522 19.6 68.9 1017.9 #ff0000
30 Zinc 2019-06-23 07:32:16 38.9002 -77.0515 517.8 19.6 68.9 1017.7 #ff0000
30 Zinc 2019-06-23 07:46:48 38.9002 -77.0515 517.7 19.5 69.1 1017.8 #ff0000
30 Zinc 2019-06-23 08:01:19 38.9002 -77.0515 512.3 19.6 68.8 1017.8 #ff0000
30 Zinc 2019-06-23 08:15:50 38.9002 -77.0515 502.8 19.7 67.2 1017.9 #ff0000
30 Zinc 2019-06-23 08:30:21 38.9002 -77.0515 490 19.7 66.6 1017.8 #ff0000
30 Zinc 2019-06-23 08:44:52 38.9002 -77.0515 465.7 19.7 62.9 1017.8 #ff4b00
30 Zinc 2019-06-23 08:59:23 38.9002 -77.0515 463.8 19.7 63.4 1017.7 #ff5300
30 Zinc 2019-06-23 09:13:55 38.9002 -77.0515 464.7 19.8 62.3 1017.5 #ff4f00
30 Zinc 2019-06-23 09:28:26 38.9002 -77.0515 447 19.8 59.3 1017.3 #ff9500
30 Zinc 2019-06-23 09:42:57 38.9002 -77.0515 440.2 19.8 57.7 1017.3 #ffaf00
30 Zinc 2019-06-23 09:57:28 38.9002 -77.0515 437 19.8 55.7 1017.1 #ffbc00
30 Zinc 2019-06-23 10:11:59 38.9002 -77.0515 434.8 19.8 53.6 1017.1 #ffc400
30 Zinc 2019-06-23 10:26:30 38.9002 -77.0515 431.5 19.8 52.5 1016.8 #ffd100
30 Zinc 2019-06-23 10:41:01 38.9002 -77.0515 428 19.9 51.8 1016.9 #ffdf00
30 Zinc 2019-06-23 10:55:32 38.9002 -77.0515 420 20 51.3 1016.7 #ffff00
30 Zinc 2019-06-23 11:10:03 38.9002 -77.0515 428 20.1 50.4 1016.6 #ffdf00
30 Zinc 2019-06-23 11:24:35 38.9002 -77.0515 429.7 20.4 49.5 1016.4 #ffd900
30 Zinc 2019-06-23 11:39:07 38.9002 -77.0515 426.8 21 48 1016.2 #ffe400
30 Zinc 2019-06-23 11:53:38 38.9002 -77.0515 426.3 21.6 46.7 1016.2 #ffe600
30 Zinc 2019-06-23 12:08:09 38.9002 -77.0515 425 21.5 46.8 1016 #ffeb00
30 Zinc 2019-06-23 12:22:40 38.9002 -77.0515 423.5 21.5 47.2 1015.6 #fff100
30 Zinc 2019-06-23 12:37:11 38.9002 -77.0515 429.5 21.8 46.9 1015.6 #ffd900
30 Zinc 2019-06-23 12:51:42 38.9002 -77.0515 433 22.1 46.3 1015.4 #ffcc00
30 Zinc 2019-06-23 13:06:13 38.9002 -77.0515 427 22 46.2 1015.2 #ffe300
30 Zinc 2019-06-23 13:20:44 38.9002 -77.0515 427.8 22.3 45.8 1015 #ffe000
30 Zinc 2019-06-23 13:35:15 38.9002 -77.0515 429 22.4 45.2 1014.8 #ffdb00
30 Zinc 2019-06-23 13:49:46 38.9002 -77.0515 425 22.6 44.1 1014.7 #ffeb00
30 Zinc 2019-06-23 14:04:17 38.9002 -77.0515 428.7 22.6 44.5 1014.6 #ffdc00
30 Zinc 2019-06-23 14:18:48 38.9002 -77.0515 430 22.5 45.8 1014.4 #ffd700
30 Zinc 2019-06-23 14:33:19 38.9002 -77.0515 426 22.7 45.4 1014.3 #ffe700
30 Zinc 2019-06-23 14:47:50 38.9002 -77.0515 426.7 22.6 46.4 1014.1 #ffe400
30 Zinc 2019-06-23 15:02:21 38.9002 -77.0515 427.3 22.9 46.3 1013.9 #ffe200
30 Zinc 2019-06-23 15:16:53 38.9002 -77.0515 432.8 24.4 42.8 1014 #ffcc00
30 Zinc 2019-06-23 15:31:24 38.9002 -77.0515 424 23.8 44.3 1013.9 #ffef00
30 Zinc 2019-06-23 15:45:55 38.9002 -77.0515 428.8 22.9 46.8 1014 #ffdc00
30 Zinc 2019-06-23 16:00:26 38.9002 -77.0515 425.5 22.8 46.5 1013.8 #ffe900
30 Zinc 2019-06-23 16:14:58 38.9002 -77.0515 425 22.8 46.2 1014 #ffeb00
30 Zinc 2019-06-23 16:29:29 38.9002 -77.0515 424 23 45.6 1014 #ffef00
30 Zinc 2019-06-23 16:44:00 38.9002 -77.0515 424.5 23 45.6 1013.9 #ffed00
30 Zinc 2019-06-23 16:58:32 38.9002 -77.0515 424 23.3 44.5 1013.4 #ffef00
30 Zinc 2019-06-23 17:13:03 38.9002 -77.0515 423.2 23.2 44.8 1013.4 #fff200
30 Zinc 2019-06-23 17:27:34 38.9002 -77.0515 422.2 23.1 44.7 1013.2 #fff600
30 Zinc 2019-06-23 17:42:05 38.9002 -77.0515 421.5 23 45.3 1012.9 #fff900
30 Zinc 2019-06-23 17:56:36 38.9002 -77.0515 421.7 23.1 45.1 1012.9 #fff800
30 Zinc 2019-06-23 18:11:07 38.9002 -77.0515 421 23 45.5 1012.6 #fffb00
30 Zinc 2019-06-23 18:25:38 38.9002 -77.0515 422 23.3 45.1 1012.6 #fff700
30 Zinc 2019-06-23 18:40:09 38.9002 -77.0515 425.2 26.1 38.9 1012.6 #ffea00
30 Zinc 2019-06-23 18:54:40 38.9002 -77.0515 421.8 23.7 43.7 1012.6 #fff700
30 Zinc 2019-06-23 19:09:11 38.9002 -77.0515 422 23.1 44.6 1012.5 #fff700
30 Zinc 2019-06-23 19:23:42 38.9002 -77.0515 419.7 23.2 44.6 1012.3 #fdff00
30 Zinc 2019-06-23 19:38:14 38.9002 -77.0515 422 23.2 44.8 1012.2 #fff700
30 Zinc 2019-06-23 19:52:45 38.9002 -77.0515 422.3 23.4 45 1012.1 #fff500
30 Zinc 2019-06-23 20:07:16 38.9002 -77.0515 424 23.2 46 1012.3 #ffef00
30 Zinc 2019-06-23 20:21:47 38.9002 -77.0515 424.2 23.4 45.8 1012.3 #ffee00
30 Zinc 2019-06-23 20:36:18 38.9002 -77.0515 428 23.3 46.3 1012.3 #ffdf00
30 Zinc 2019-06-23 20:50:49 38.9002 -77.0515 428.2 23.3 46.4 1012.1 #ffde00
30 Zinc 2019-06-23 21:05:20 38.9002 -77.0515 434.3 23.2 46.8 1012.3 #ffc600
30 Zinc 2019-06-23 21:19:51 38.9002 -77.0515 431.5 23.2 46.8 1012.4 #ffd100
30 Zinc 2019-06-23 21:34:22 38.9002 -77.0515 433 23.1 47.2 1012.4 #ffcc00
30 Zinc 2019-06-23 21:48:53 38.9002 -77.0515 434 23 47.5 1012.6 #ffc800
30 Zinc 2019-06-23 22:03:24 38.9002 -77.0515 432 22.7 48.9 1012.7 #ffcf00
30 Zinc 2019-06-23 22:17:56 38.9002 -77.0515 437.8 22.8 48.9 1012.6 #ffb900
30 Zinc 2019-06-23 22:32:27 38.9002 -77.0515 435.5 22.2 50.6 1012.6 #ffc200
30 Zinc 2019-06-23 22:46:58 38.9002 -77.0515 441.3 20.6 55.2 1012.3 #ffab00
30 Zinc 2019-06-23 23:01:29 38.9002 -77.0515 444.2 20.3 56.2 1012.3 #ffa000
30 Zinc 2019-06-23 23:16:00 38.9002 -77.0515 439.3 21.1 53.8 1012.2 #ffb300
30 Zinc 2019-06-23 23:30:32 38.9002 -77.0515 437.2 21.8 52.2 1012.2 #ffbb00
30 Zinc 2019-06-23 23:45:03 38.9002 -77.0515 437.7 22.2 51.2 1012.2 #ffb900
30 Zinc 2019-06-23 23:59:34 38.9002 -77.0515 441.2 22.1 51.6 1012.2 #ffab00
30 Zinc 2019-06-24 00:14:05 38.9002 -77.0515 433 22.4 50.5 1012.1 #ffcc00
30 Zinc 2019-06-24 00:28:37 38.9002 -77.0515 432 22.6 50 1011.7 #ffcf00
30 Zinc 2019-06-24 00:43:08 38.9002 -77.0515 428.7 22.7 49.6 1011.5 #ffdc00
30 Zinc 2019-06-24 00:57:39 38.9002 -77.0515 432.5 22.7 49.7 1011.4 #ffcd00
30 Zinc 2019-06-24 01:12:10 38.9002 -77.0515 431 22.7 49.8 1011.5 #ffd300
30 Zinc 2019-06-24 01:26:41 38.9002 -77.0515 431 22.8 49.7 1011.2 #ffd300
30 Zinc 2019-06-24 01:41:12 38.9002 -77.0515 431.7 22.8 49.6 1010.8 #ffd100
30 Zinc 2019-06-24 01:55:43 38.9002 -77.0515 433.7 22.7 50 1010.6 #ffc900
30 Zinc 2019-06-24 02:10:14 38.9002 -77.0515 434 22.7 50 1010.5 #ffc800
30 Zinc 2019-06-24 02:24:45 38.9002 -77.0515 431 22.8 49.8 1010.6 #ffd300
30 Zinc 2019-06-24 02:39:16 38.9002 -77.0515 431 22.8 49.8 1010.4 #ffd300
30 Zinc 2019-06-24 02:53:47 38.9002 -77.0515 434.3 23 49.5 1010.4 #ffc600
30 Zinc 2019-06-24 03:08:18 38.9002 -77.0515 436.3 23 49.3 1010.2 #ffbe00
30 Zinc 2019-06-24 03:22:49 38.9002 -77.0515 432 23 49.4 1010.1 #ffcf00
30 Zinc 2019-06-24 03:37:20 38.9002 -77.0515 433.3 22.9 49.4 1010.1 #ffca00
30 Zinc 2019-06-24 03:51:51 38.9002 -77.0515 435.2 22.8 49.6 1010 #ffc300
30 Zinc 2019-06-24 04:06:22 38.9002 -77.0515 435 22.5 50.6 1009.9 #ffc400
30 Zinc 2019-06-24 04:20:53 38.9002 -77.0515 436 22.5 50.5 1009.9 #ffc000
30 Zinc 2019-06-24 04:35:25 38.9002 -77.0515 437.3 22.4 50.8 1009.9 #ffbb00
30 Zinc 2019-06-24 04:49:56 38.9002 -77.0515 439.5 22.5 50.8 1010.1 #ffb200
30 Zinc 2019-06-24 05:04:27 38.9002 -77.0515 439 22.4 50.9 1010 #ffb400
30 Zinc 2019-06-24 05:18:58 38.9002 -77.0515 441 22.5 50.5 1010.1 #ffac00
30 Zinc 2019-06-24 05:33:30 38.9002 -77.0515 441 22.6 50.4 1010.1 #ffac00
30 Zinc 2019-06-24 05:48:01 38.9002 -77.0515 440.7 22.5 50.5 1010.2 #ffad00
30 Zinc 2019-06-24 06:02:32 38.9002 -77.0515 443.8 22.8 49.9 1010.5 #ffa100
30 Zinc 2019-06-24 06:17:03 38.9002 -77.0515 445.8 22.4 51 1010.8 #ff9900
30 Zinc 2019-06-24 06:31:34 38.9002 -77.0515 455 22.1 51.7 1010.7 #ff7500
30 Zinc 2019-06-24 06:46:05 38.9002 -77.0515 451.3 22 51.9 1010.8 #ff8400
30 Zinc 2019-06-24 07:00:38 38.9002 -77.0515 456.2 22 52 1010.9 #ff7100
30 Zinc 2019-06-24 07:15:09 38.9002 -77.0515 457 22.1 51.9 1011.2 #ff6d00
30 Zinc 2019-06-24 07:29:41 38.9002 -77.0515 459 22.1 51.8 1011.2 #ff6600
30 Zinc 2019-06-24 07:44:12 38.9002 -77.0515 452.2 22.1 51.8 1011.1 #ff8000
30 Zinc 2019-06-24 07:58:43 38.9002 -77.0515 447.5 22 52.2 1010.8 #ff9300
30 Zinc 2019-06-24 08:13:14 38.9002 -77.0515 446.5 22.1 52.1 1010.7 #ff9700
30 Zinc 2019-06-24 08:27:46 38.9002 -77.0515 447.7 22.1 51.8 1010.5 #ff9200
30 Zinc 2019-06-24 08:42:17 38.9002 -77.0515 446.3 22 52 1010.6 #ff9700
30 Zinc 2019-06-24 08:56:48 38.9002 -77.0515 447.7 22.2 51.7 1010.7 #ff9200
30 Zinc 2019-06-24 09:11:19 38.9002 -77.0515 444 22.1 52 1010.8 #ffa000
30 Zinc 2019-06-24 09:25:50 38.9002 -77.0515 442.2 22.2 51.4 1010.8 #ffa800
30 Zinc 2019-06-24 09:40:22 38.9002 -77.0515 443.2 22.1 51.5 1010.8 #ffa400
30 Zinc 2019-06-24 09:54:53 38.9002 -77.0515 441.5 22.3 51.1 1010.6 #ffaa00
30 Zinc 2019-06-24 10:09:25 38.9002 -77.0515 444.3 22.6 50.5 1010.4 #ff9f00
30 Zinc 2019-06-24 10:23:56 38.9002 -77.0515 439.5 22.5 50.5 1010.7 #ffb200
30 Zinc 2019-06-24 10:38:27 38.9002 -77.0515 439 22.4 50.9 1010.6 #ffb400
30 Zinc 2019-06-24 10:52:59 38.9002 -77.0515 439 22.7 50.2 1010.6 #ffb400
30 Zinc 2019-06-24 11:07:30 38.9002 -77.0515 434.2 23.1 49.3 1010.3 #ffc700
30 Zinc 2019-06-24 11:22:01 38.9002 -77.0515 436.5 23 49.6 1010.1 #ffbe00
30 Zinc 2019-06-24 11:36:32 38.9002 -77.0515 437 22.9 50.2 1010.3 #ffbc00
30 Zinc 2019-06-24 11:51:03 38.9002 -77.0515 439 23.6 48.2 1010.1 #ffb400
30 Zinc 2019-06-24 12:05:34 38.9002 -77.0515 435.3 23.4 48.7 1010.1 #ffc200
30 Zinc 2019-06-24 12:20:05 38.9002 -77.0515 434.8 23.5 48.5 1009.9 #ffc400
30 Zinc 2019-06-24 12:34:37 38.9002 -77.0515 433.5 23.5 48.4 1009.7 #ffca00
30 Zinc 2019-06-24 12:49:08 38.9002 -77.0515 428.2 23.7 47.8 1009.5 #ffde00
30 Zinc 2019-06-24 13:03:38 38.9002 -77.0515 425 23.7 47.8 1009.2 #ffeb00
30 Zinc 2019-06-24 13:18:10 38.9002 -77.0515 422.7 23.7 48.1 1009.2 #fff400
30 Zinc 2019-06-24 13:32:41 38.9002 -77.0515 421.3 23.8 47.7 1009.2 #fff900
30 Zinc 2019-06-24 13:47:12 38.9002 -77.0515 420.2 23.9 47.5 1009.1 #fffe00
30 Zinc 2019-06-24 14:01:43 38.9002 -77.0515 420 24.2 46.9 1008.9 #ffff00
30 Zinc 2019-06-24 14:16:14 38.9002 -77.0515 417.7 24.1 47 1008.9 #f6ff00
30 Zinc 2019-06-24 14:30:45 38.9002 -77.0515 418 24 47.4 1008.8 #f7ff00
30 Zinc 2019-06-24 14:45:16 38.9002 -77.0515 416 23.9 47.8 1008.8 #f0ff00
30 Zinc 2019-06-24 14:59:47 38.9002 -77.0515 416.5 24 47.4 1008.8 #f2ff00
30 Zinc 2019-06-24 15:14:18 38.9002 -77.0515 423 23.7 47.2 1008.8 #fff300
30 Zinc 2019-06-24 15:28:49 38.9002 -77.0515 418 22.5 51.4 1008.7 #f7ff00
30 Zinc 2019-06-24 15:43:21 38.9002 -77.0515 418 22 52.9 1008.6 #f7ff00
30 Zinc 2019-06-24 15:57:52 38.9002 -77.0515 423 21.9 52.7 1008.6 #fff300
30 Zinc 2019-06-24 16:12:23 38.9002 -77.0515 423 22.6 51.4 1008.4 #fff300
30 Zinc 2019-06-24 16:26:54 38.9002 -77.0515 418.3 23.2 49.6 1008.7 #f8ff00
30 Zinc 2019-06-24 16:41:25 38.9002 -77.0515 421.3 23.1 49.5 1008.9 #fff900
30 Zinc 2019-06-24 16:55:56 38.9002 -77.0515 423.7 23 49.1 1008.8 #fff000
30 Zinc 2019-06-24 17:10:27 38.9002 -77.0515 426 23.1 50 1008.6 #ffe700
30 Zinc 2019-06-24 17:24:59 38.9002 -77.0515 424.8 22.9 50.5 1008.5 #ffec00
30 Zinc 2019-06-24 17:39:30 38.9002 -77.0515 430.5 23 50.4 1008 #ffd500
30 Zinc 2019-06-24 17:54:01 38.9002 -77.0515 438 22.8 51 1007.9 #ffb800
30 Zinc 2019-06-24 18:08:32 38.9002 -77.0515 443.2 22.8 50.9 1007.9 #ffa400
30 Zinc 2019-06-24 18:23:04 38.9002 -77.0515 451 22.7 51.1 1007.9 #ff8500
30 Zinc 2019-06-24 18:37:35 38.9002 -77.0515 447 22.4 52.1 1007.6 #ff9500
30 Zinc 2019-06-24 18:52:06 38.9002 -77.0515 438.2 22.3 53 1007.5 #ffb700
30 Zinc 2019-06-24 19:06:37 38.9002 -77.0515 435 22.2 52.6 1007.1 #ffc400
30 Zinc 2019-06-24 19:21:08 38.9002 -77.0515 428.7 21.9 53.2 1007.1 #ffdc00
30 Zinc 2019-06-24 19:35:39 38.9002 -77.0515 431 21.9 53 1007.4 #ffd300
30 Zinc 2019-06-24 19:50:11 38.9002 -77.0515 429.3 22.4 51.3 1007.4 #ffda00
30 Zinc 2019-06-24 20:04:42 38.9002 -77.0515 434.7 22.4 51.8 1007.7 #ffc500
30 Zinc 2019-06-24 20:19:13 38.9002 -77.0515 431.3 22.5 52.1 1007.8 #ffd200
30 Zinc 2019-06-24 20:33:44 38.9002 -77.0515 433.7 22.3 52.5 1007.7 #ffc900
30 Zinc 2019-06-24 20:48:15 38.9002 -77.0515 434.2 22.3 51.8 1007.7 #ffc700
30 Zinc 2019-06-24 21:02:47 38.9002 -77.0515 439.2 22.2 52 1007.9 #ffb300
30 Zinc 2019-06-24 21:17:18 38.9002 -77.0515 436 22.4 51.5 1007.8 #ffc000
30 Zinc 2019-06-24 21:31:49 38.9002 -77.0515 439.2 22.2 52.2 1007.8 #ffb300
30 Zinc 2019-06-24 21:46:21 38.9002 -77.0515 442.3 22.3 52.1 1007.7 #ffa700
30 Zinc 2019-06-24 22:00:52 38.9002 -77.0515 439 22.1 52 1007.8 #ffb400
30 Zinc 2019-06-24 22:15:23 38.9002 -77.0515 437.8 21 54.9 1007.7 #ffb900
30 Zinc 2019-06-24 22:29:55 38.9002 -77.0515 438 20.3 57.5 1007.5 #ffb800
30 Zinc 2019-06-24 22:44:26 38.9002 -77.0515 442 20.4 57.3 1007.4 #ffa800
30 Zinc 2019-06-24 22:58:57 38.9002 -77.0515 443.7 21.2 54.9 1007.6 #ffa200
30 Zinc 2019-06-24 23:13:29 38.9002 -77.0515 445 21.7 53.3 1007.3 #ff9c00
30 Zinc 2019-06-24 23:28:00 38.9002 -77.0515 442.2 21.7 53.8 1007.3 #ffa800
30 Zinc 2019-06-24 23:42:31 38.9002 -77.0515 439 21.8 53.5 1007.1 #ffb400
30 Zinc 2019-06-24 23:57:02 38.9002 -77.0515 441.5 21.7 53.5 1007 #ffaa00
30 Zinc 2019-06-25 00:11:33 38.9002 -77.0515 445 21.5 54.2 1007 #ff9c00
30 Zinc 2019-06-25 00:26:05 38.9002 -77.0515 443.5 21.6 54.2 1007 #ffa200
30 Zinc 2019-06-25 00:40:37 38.9002 -77.0515 440 21.9 53.3 1007 #ffb000
30 Zinc 2019-06-25 00:55:08 38.9002 -77.0515 442 21.8 53.5 1006.8 #ffa800
30 Zinc 2019-06-25 01:09:39 38.9002 -77.0515 443.7 22.1 52.8 1006.7 #ffa200
30 Zinc 2019-06-25 01:24:10 38.9002 -77.0515 446.2 22.1 52.7 1006.4 #ff9800
30 Zinc 2019-06-25 01:38:42 38.9002 -77.0515 443 22.1 52.7 1006.3 #ffa400
30 Zinc 2019-06-25 01:53:13 38.9002 -77.0515 449 21.9 53.2 1006.2 #ff8d00
30 Zinc 2019-06-25 02:07:44 38.9002 -77.0515 452 22 52.8 1007.1 #ff8100
30 Zinc 2019-06-25 02:22:15 38.9002 -77.0515 448.5 22.1 52.4 1007.5 #ff8f00
30 Zinc 2019-06-25 02:36:46 38.9002 -77.0515 446.7 22.1 52.5 1007.1 #ff9600
30 Zinc 2019-06-25 02:51:17 38.9002 -77.0515 444 22 52.7 1007.4 #ffa000
30 Zinc 2019-06-25 03:05:49 38.9002 -77.0515 446 22 52.6 1006.9 #ff9900
30 Zinc 2019-06-25 03:20:20 38.9002 -77.0515 441.3 21.9 53.1 1006.5 #ffab00
30 Zinc 2019-06-25 03:34:51 38.9002 -77.0515 441.3 21.7 53.7 1006.2 #ffab00
30 Zinc 2019-06-25 03:49:23 38.9002 -77.0515 441.3 21.7 53.6 1006.3 #ffab00
30 Zinc 2019-06-25 04:03:54 38.9002 -77.0515 441 21.6 53.9 1006.3 #ffac00
30 Zinc 2019-06-25 04:18:25 38.9002 -77.0515 441.7 21.6 53.8 1006.1 #ffa900
30 Zinc 2019-06-25 04:32:56 38.9002 -77.0515 441.2 21.6 54 1006.2 #ffab00
30 Zinc 2019-06-25 04:47:27 38.9002 -77.0515 445 21.6 53.9 1006.2 #ff9c00
30 Zinc 2019-06-25 05:01:58 38.9002 -77.0515 449.3 21.7 53.8 1006.6 #ff8b00
30 Zinc 2019-06-25 05:16:29 38.9002 -77.0515 452 21.7 53.7 1006.8 #ff8100
30 Zinc 2019-06-25 05:31:00 38.9002 -77.0515 451 21.6 53.8 1007.1 #ff8500
30 Zinc 2019-06-25 05:45:31 38.9002 -77.0515 455.8 21.6 53.8 1007.2 #ff7200
30 Zinc 2019-06-25 06:00:03 38.9002 -77.0515 457.5 22 53.2 1007.3 #ff6b00
30 Zinc 2019-06-25 06:14:34 38.9002 -77.0515 460.7 22.2 52.9 1007.3 #ff5f00
30 Zinc 2019-06-25 06:29:05 38.9002 -77.0515 459 22.2 52.9 1007.5 #ff6600
30 Zinc 2019-06-25 06:43:36 38.9002 -77.0515 461.3 22.2 52.8 1007.6 #ff5c00
30 Zinc 2019-06-25 06:58:07 38.9002 -77.0515 464 22.3 52.7 1007.8 #ff5200
30 Zinc 2019-06-25 07:12:39 38.9002 -77.0515 466.5 22.3 52.6 1008.1 #ff4800
30 Zinc 2019-06-25 07:27:10 38.9002 -77.0515 464.2 22.3 52.3 1008.4 #ff5100
30 Zinc 2019-06-25 07:41:41 38.9002 -77.0515 458.5 22.3 52.1 1008.6 #ff6700
30 Zinc 2019-06-25 07:56:12 38.9002 -77.0515 457.2 22.3 52.1 1008.9 #ff6d00
30 Zinc 2019-06-25 08:10:43 38.9002 -77.0515 456.2 22.3 52.1 1009.1 #ff7100
30 Zinc 2019-06-25 08:25:16 38.9002 -77.0515 456.3 22.3 52.1 1009.3 #ff7000
30 Zinc 2019-06-25 08:39:47 38.9002 -77.0515 449 22.7 50.9 1009.5 #ff8d00
30 Zinc 2019-06-25 08:54:18 38.9002 -77.0515 455.2 22.8 50.5 1009.5 #ff7500
30 Zinc 2019-06-25 09:08:50 38.9002 -77.0515 447 22.9 50.2 1009.8 #ff9500
30 Zinc 2019-06-25 09:23:21 38.9002 -77.0515 450.7 23 50 1009.9 #ff8600
30 Zinc 2019-06-25 09:37:52 38.9002 -77.0515 441.3 23 50 1010 #ffab00
30 Zinc 2019-06-25 09:52:23 38.9002 -77.0515 437.3 23 49.8 1009.9 #ffbb00
30 Zinc 2019-06-25 10:06:55 38.9002 -77.0515 439.2 23.3 49.1 1009.9 #ffb300
30 Zinc 2019-06-25 10:21:26 38.9002 -77.0515 437.3 23.1 49.4 1009.9 #ffbb00
30 Zinc 2019-06-25 10:35:57 38.9002 -77.0515 435.2 23.2 49.4 1010.1 #ffc300
30 Zinc 2019-06-25 10:50:29 38.9002 -77.0515 437 23.3 49.3 1010.3 #ffbc00
30 Zinc 2019-06-25 11:05:01 38.9002 -77.0515 434.3 23.4 48.8 1010.5 #ffc600
30 Zinc 2019-06-25 11:19:32 38.9002 -77.0515 435 23.5 48.5 1010.7 #ffc400
30 Zinc 2019-06-25 11:34:04 38.9002 -77.0515 430 23.5 48.4 1010.6 #ffd700
30 Zinc 2019-06-25 11:48:35 38.9002 -77.0515 434.5 23.6 49.9 1010.7 #ffc600
30 Zinc 2019-06-25 12:03:07 38.9002 -77.0515 445 23.7 50.6 1010.6 #ff9c00
30 Zinc 2019-06-25 12:17:38 38.9002 -77.0515 440.2 23.8 51.1 1010.7 #ffaf00
30 Zinc 2019-06-25 12:32:09 38.9002 -77.0515 435.7 23.9 51.5 1010.7 #ffc100
30 Zinc 2019-06-25 12:46:40 38.9002 -77.0515 438.3 24 51.3 1010.7 #ffb700
30 Zinc 2019-06-25 13:01:11 38.9002 -77.0515 429.7 24.1 51.2 1010.6 #ffd900
30 Zinc 2019-06-25 13:15:43 38.9002 -77.0515 427.7 24.3 50.6 1010.5 #ffe000
30 Zinc 2019-06-25 13:30:14 38.9002 -77.0515 431 24.3 50.7 1010.4 #ffd300
30 Zinc 2019-06-25 13:44:45 38.9002 -77.0515 432 24.2 51 1010.4 #ffcf00
30 Zinc 2019-06-25 13:59:16 38.9002 -77.0515 429.5 24.3 50.5 1010.4 #ffd900
30 Zinc 2019-06-25 14:13:47 38.9002 -77.0515 434 24.5 50.2 1010.2 #ffc800
30 Zinc 2019-06-25 14:28:18 38.9002 -77.0515 433.8 24.5 50.3 1010.2 #ffc800
30 Zinc 2019-06-25 14:42:49 38.9002 -77.0515 434 24.2 50.8 1010.3 #ffc800
30 Zinc 2019-06-25 14:57:20 38.9002 -77.0515 432.3 24.4 50.3 1010.1 #ffce00
30 Zinc 2019-06-25 15:11:51 38.9002 -77.0515 435.7 25.2 48.5 1010.1 #ffc100
30 Zinc 2019-06-25 15:26:22 38.9002 -77.0515 445.5 24.1 50.7 1010.1 #ff9a00
30 Zinc 2019-06-25 15:40:53 38.9002 -77.0515 436.8 23 53.6 1010 #ffbc00
30 Zinc 2019-06-25 15:55:24 38.9002 -77.0515 430.3 22.4 55.3 1009.9 #ffd600
30 Zinc 2019-06-25 16:09:55 38.9002 -77.0515 428.7 22 56.4 1009.9 #ffdc00
30 Zinc 2019-06-25 16:24:27 38.9002 -77.0515 427.7 22.1 55.6 1009.8 #ffe000
30 Zinc 2019-06-25 16:38:58 38.9002 -77.0515 429.3 21.8 56.8 1009.7 #ffda00
30 Zinc 2019-06-25 16:53:29 38.9002 -77.0515 427 21.7 56.9 1009.7 #ffe300
30 Zinc 2019-06-25 17:08:00 38.9002 -77.0515 433.8 21.7 56.6 1009.7 #ffc800
30 Zinc 2019-06-25 17:22:31 38.9002 -77.0515 429 23 52.9 1009.9 #ffdb00
30 Zinc 2019-06-25 17:37:02 38.9002 -77.0515 428.7 23.6 50.8 1009.9 #ffdc00
30 Zinc 2019-06-25 17:51:33 38.9002 -77.0515 428.5 23.8 49.9 1009.9 #ffdd00
30 Zinc 2019-06-25 18:06:05 38.9002 -77.0515 426.7 23.8 49.4 1009.9 #ffe400
30 Zinc 2019-06-25 18:20:36 38.9002 -77.0515 427.5 24 48.4 1010 #ffe100
30 Zinc 2019-06-25 18:35:07 38.9002 -77.0515 424.3 22.7 49.8 1010.2 #ffee00
30 Zinc 2019-06-25 18:49:38 38.9002 -77.0515 427 21.8 50.8 1010.3 #ffe300
30 Zinc 2019-06-25 19:04:09 38.9002 -77.0515 427.7 22.5 49 1010.5 #ffe000
30 Zinc 2019-06-25 19:18:40 38.9002 -77.0515 428 23.1 47.6 1010.7 #ffdf00
30 Zinc 2019-06-25 19:33:11 38.9002 -77.0515 426.2 23.2 47.3 1010.9 #ffe600
30 Zinc 2019-06-25 19:47:43 38.9002 -77.0515 425 23 47.7 1011 #ffeb00
30 Zinc 2019-06-25 20:02:14 38.9002 -77.0515 428.7 22.8 49.7 1011.1 #ffdc00
30 Zinc 2019-06-25 20:16:45 38.9002 -77.0515 428 22.8 50.2 1011.3 #ffdf00
30 Zinc 2019-06-25 20:31:17 38.9002 -77.0515 430 22.9 50.8 1011.4 #ffd700
30 Zinc 2019-06-25 20:45:48 38.9002 -77.0515 428.2 22.9 51 1011.5 #ffde00
30 Zinc 2019-06-25 21:00:19 38.9002 -77.0515 434 22.9 51.5 1011.8 #ffc800
30 Zinc 2019-06-25 21:14:50 38.9002 -77.0515 438 23 51.5 1011.9 #ffb800
30 Zinc 2019-06-25 21:29:21 38.9002 -77.0515 442 21.7 55.5 1012.1 #ffa800
30 Zinc 2019-06-25 21:43:53 38.9002 -77.0515 441.5 21.1 57.6 1012.4 #ffaa00
30 Zinc 2019-06-25 21:58:24 38.9002 -77.0515 441.8 21 57.3 1012.5 #ffa900
30 Zinc 2019-06-25 22:12:55 38.9002 -77.0515 443.2 20.6 58.4 1012.6 #ffa400
30 Zinc 2019-06-25 22:27:27 38.9002 -77.0515 449.2 20.3 59.3 1012.7 #ff8c00
30 Zinc 2019-06-25 22:41:58 38.9002 -77.0515 458.3 20.4 59.5 1012.8 #ff6800
30 Zinc 2019-06-25 22:56:29 38.9002 -77.0515 453.3 21 57.3 1013 #ff7c00
30 Zinc 2019-06-25 23:11:00 38.9002 -77.0515 450.3 21.6 55.3 1013.1 #ff8800
30 Zinc 2019-06-25 23:25:31 38.9002 -77.0515 447.7 21.7 54.8 1013.1 #ff9200
30 Zinc 2019-06-25 23:40:02 38.9002 -77.0515 450.7 21.6 55 1013.3 #ff8600
30 Zinc 2019-06-25 23:54:33 38.9002 -77.0515 456 21.4 55.8 1013.4 #ff7100
30 Zinc 2019-06-26 00:09:04 38.9002 -77.0515 453.8 21.3 55.6 1013.5 #ff7a00
30 Zinc 2019-06-26 00:23:35 38.9002 -77.0515 457.5 21.4 55.5 1013.6 #ff6b00
30 Zinc 2019-06-26 00:38:06 38.9002 -77.0515 461 21.6 54.9 1013.5 #ff5e00
30 Zinc 2019-06-26 00:52:37 38.9002 -77.0515 459 21.8 54.2 1013.7 #ff6600
30 Zinc 2019-06-26 01:07:09 38.9002 -77.0515 454.5 22 53 1013.8 #ff7700
30 Zinc 2019-06-26 01:21:40 38.9002 -77.0515 452.7 21.9 53.3 1013.9 #ff7e00
30 Zinc 2019-06-26 01:36:11 38.9002 -77.0515 457 22 53.1 1013.9 #ff6d00
30 Zinc 2019-06-26 01:50:42 38.9002 -77.0515 452.2 21.9 53.1 1013.9 #ff8000
30 Zinc 2019-06-26 02:05:13 38.9002 -77.0515 449 22 52.5 1014 #ff8d00
30 Zinc 2019-06-26 02:19:44 38.9002 -77.0515 449 21.9 52.6 1014 #ff8d00
30 Zinc 2019-06-26 02:34:15 38.9002 -77.0515 451.8 21.8 52.5 1014.2 #ff8200
30 Zinc 2019-06-26 02:48:46 38.9002 -77.0515 451 21.8 52.5 1014.1 #ff8500
30 Zinc 2019-06-26 03:03:17 38.9002 -77.0515 451.8 21.7 52.8 1014.1 #ff8200
30 Zinc 2019-06-26 03:17:48 38.9002 -77.0515 452.8 21.6 53.4 1014.3 #ff7e00
30 Zinc 2019-06-26 03:32:20 38.9002 -77.0515 460 21.8 53 1014.6 #ff6200
30 Zinc 2019-06-26 03:46:51 38.9002 -77.0515 463.7 21.7 53.2 1014.7 #ff5300
30 Zinc 2019-06-26 04:01:22 38.9002 -77.0515 468.2 21.7 53.3 1014.8 #ff4200
30 Zinc 2019-06-26 04:15:53 38.9002 -77.0515 463.3 21.7 53.2 1014.8 #ff5500
30 Zinc 2019-06-26 04:30:24 38.9002 -77.0515 469.5 21.8 52.6 1015 #ff3c00
30 Zinc 2019-06-26 04:44:55 38.9002 -77.0515 458.8 21.9 52.2 1015.2 #ff6600
30 Zinc 2019-06-26 04:59:26 38.9002 -77.0515 457 22.1 51.7 1015.3 #ff6d00
30 Zinc 2019-06-26 05:13:58 38.9002 -77.0515 458.5 22.2 51.5 1015.3 #ff6700
30 Zinc 2019-06-26 05:28:29 38.9002 -77.0515 459.7 22.2 51.6 1015.5 #ff6300
30 Zinc 2019-06-26 05:43:00 38.9002 -77.0515 461.2 21.9 52.5 1015.8 #ff5d00
30 Zinc 2019-06-26 05:57:31 38.9002 -77.0515 460.7 22.2 51.9 1015.8 #ff5f00
30 Zinc 2019-06-26 06:12:02 38.9002 -77.0515 466.8 22.8 50.3 1016 #ff4700
30 Zinc 2019-06-26 06:26:33 38.9002 -77.0515 467 22 52.6 1016.4 #ff4600
30 Zinc 2019-06-26 06:41:04 38.9002 -77.0515 472.8 22.2 52.1 1016.6 #ff2f00
30 Zinc 2019-06-26 06:55:36 38.9002 -77.0515 472.2 23 49.8 1016.7 #ff3200
30 Zinc 2019-06-26 07:10:07 38.9002 -77.0515 468 22.9 50.4 1016.7 #ff4200
30 Zinc 2019-06-26 07:24:39 38.9002 -77.0515 462.5 22.7 50.8 1016.7 #ff5800
30 Zinc 2019-06-26 07:39:10 38.9002 -77.0515 460.5 22.9 50.5 1016.7 #ff6000
30 Zinc 2019-06-26 07:53:41 38.9002 -77.0515 460 22.8 50.5 1016.8 #ff6200
30 Zinc 2019-06-26 08:08:12 38.9002 -77.0515 451.7 23 50.4 1016.9 #ff8200
30 Zinc 2019-06-26 08:22:43 38.9002 -77.0515 447 22.8 49.1 1017.1 #ff9500
30 Zinc 2019-06-26 08:37:15 38.9002 -77.0515 449.8 22.6 49.2 1017.1 #ff8900
30 Zinc 2019-06-26 08:51:47 38.9002 -77.0515 465.8 22.3 49.9 1017 #ff4b00
30 Zinc 2019-06-26 09:06:18 38.9002 -77.0515 439.8 22.4 49.6 1016.8 #ffb100
30 Zinc 2019-06-26 09:20:49 38.9002 -77.0515 436 22.4 49.8 1016.9 #ffc000
30 Zinc 2019-06-26 09:35:21 38.9002 -77.0515 438 22.6 49.6 1016.9 #ffb800
30 Zinc 2019-06-26 09:49:52 38.9002 -77.0515 434.2 22.7 49.2 1017 #ffc700
30 Zinc 2019-06-26 10:04:23 38.9002 -77.0515 434.8 22.3 50.4 1017 #ffc400
30 Zinc 2019-06-26 10:18:54 38.9002 -77.0515 432.2 22.5 50.1 1017 #ffcf00
30 Zinc 2019-06-26 10:33:25 38.9002 -77.0515 443.8 22.7 50 1017 #ffa100
30 Zinc 2019-06-26 10:47:57 38.9002 -77.0515 438 22.9 49.4 1017 #ffb800
30 Zinc 2019-06-26 11:02:28 38.9002 -77.0515 444.7 23 49.1 1016.8 #ff9e00
30 Zinc 2019-06-26 11:16:59 38.9002 -77.0515 432.2 23.1 48.8 1016.8 #ffcf00
30 Zinc 2019-06-26 11:31:31 38.9002 -77.0515 427.7 23.3 48.1 1016.9 #ffe000
30 Zinc 2019-06-26 11:46:02 38.9002 -77.0515 424.8 23.3 48 1016.7 #ffec00
30 Zinc 2019-06-26 12:00:33 38.9002 -77.0515 424.2 23.4 47.7 1016.7 #ffee00
30 Zinc 2019-06-26 12:15:04 38.9002 -77.0515 425.7 23.5 47.6 1016.5 #ffe800
30 Zinc 2019-06-26 12:29:35 38.9002 -77.0515 430 23.7 47.1 1016.4 #ffd700
30 Zinc 2019-06-26 12:44:06 38.9002 -77.0515 432.8 23.9 46.3 1016.4 #ffcc00
30 Zinc 2019-06-26 12:58:37 38.9002 -77.0515 428.7 23.9 47 1016.3 #ffdc00
30 Zinc 2019-06-26 13:13:08 38.9002 -77.0515 430.8 24.2 47 1016.1 #ffd400
30 Zinc 2019-06-26 13:27:39 38.9002 -77.0515 431 24.3 47.5 1016 #ffd300
30 Zinc 2019-06-26 13:42:11 38.9002 -77.0515 432 24.2 47.3 1015.8 #ffcf00
30 Zinc 2019-06-26 13:56:42 38.9002 -77.0515 432.2 24.2 47.6 1015.7 #ffcf00
30 Zinc 2019-06-26 14:11:13 38.9002 -77.0515 431.3 23.6 48.8 1015.6 #ffd200
30 Zinc 2019-06-26 14:25:44 38.9002 -77.0515 430 23.3 50 1015.7 #ffd700
30 Zinc 2019-06-26 14:40:15 38.9002 -77.0515 431.2 23.1 50.6 1015.7 #ffd300
30 Zinc 2019-06-26 14:54:46 38.9002 -77.0515 438.2 23.6 49.4 1015.7 #ffb700
30 Zinc 2019-06-26 15:09:17 38.9002 -77.0515 435.2 24.3 47.8 1015.8 #ffc300
30 Zinc 2019-06-26 15:23:48 38.9002 -77.0515 429.7 23.4 50.2 1015.7 #ffd900
30 Zinc 2019-06-26 15:38:20 38.9002 -77.0515 436.2 22.8 52.2 1015.8 #ffbf00
30 Zinc 2019-06-26 15:52:51 38.9002 -77.0515 435.8 22.6 52.8 1015.7 #ffc000
30 Zinc 2019-06-26 16:07:22 38.9002 -77.0515 435.7 22.3 53.8 1015.5 #ffc100
30 Zinc 2019-06-26 16:21:53 38.9002 -77.0515 434 21.9 52.2 1015.6 #ffc800
30 Zinc 2019-06-26 16:36:24 38.9002 -77.0515 434 21.8 50.7 1015.2 #ffc800
30 Zinc 2019-06-26 16:50:55 38.9002 -77.0515 440 22.5 49.3 1015.1 #ffb000
30 Zinc 2019-06-26 17:05:26 38.9002 -77.0515 434.7 22.8 48.4 1015.1 #ffc500
30 Zinc 2019-06-26 17:19:58 38.9002 -77.0515 439.8 23.1 49 1015.3 #ffb100
30 Zinc 2019-06-26 17:34:29 38.9002 -77.0515 437.3 23.6 48 1015.4 #ffbb00
30 Zinc 2019-06-26 17:49:00 38.9002 -77.0515 441.7 23.4 46.8 1015.3 #ffa900
30 Zinc 2019-06-26 18:03:31 38.9002 -77.0515 431.3 23.7 50.2 1015.3 #ffd200
30 Zinc 2019-06-26 18:18:02 38.9002 -77.0515 431 24.1 57.6 1015.1 #ffd300
30 Zinc 2019-06-26 18:32:33 38.9002 -77.0515 431.8 24.8 55.9 1014.9 #ffd000
30 Zinc 2019-06-26 18:47:04 38.9002 -77.0515 434.2 26 52.5 1015 #ffc700
30 Zinc 2019-06-26 19:01:36 38.9002 -77.0515 433 25.3 55 1015 #ffcc00
30 Zinc 2019-06-26 19:16:07 38.9002 -77.0515 432 25.3 55.3 1015.2 #ffcf00
30 Zinc 2019-06-26 19:30:38 38.9002 -77.0515 430 25.2 55.4 1015.3 #ffd700
30 Zinc 2019-06-26 19:45:09 38.9002 -77.0515 425.5 23.9 55.3 1015.5 #ffe900
30 Zinc 2019-06-26 19:59:40 38.9002 -77.0515 426 22.8 53.1 1015.7 #ffe700
30 Zinc 2019-06-26 20:14:11 38.9002 -77.0515 433.5 22.2 51.7 1015.6 #ffca00
30 Zinc 2019-06-26 20:28:43 38.9002 -77.0515 427 21.7 55.5 1015.8 #ffe300
30 Zinc 2019-06-26 20:43:14 38.9002 -77.0515 431.5 21.7 56.1 1015.7 #ffd100
30 Zinc 2019-06-26 20:57:45 38.9002 -77.0515 429 21.5 53.7 1015.9 #ffdb00
30 Zinc 2019-06-26 21:12:16 38.9002 -77.0515 428 20.9 53.8 1016 #ffdf00
30 Zinc 2019-06-26 21:26:47 38.9002 -77.0515 429 20.9 54.5 1016 #ffdb00
30 Zinc 2019-06-26 21:41:18 38.9002 -77.0515 429 21.5 54.8 1016.2 #ffdb00
30 Zinc 2019-06-26 21:55:49 38.9002 -77.0515 433.2 21.9 54.4 1016.4 #ffcb00
30 Zinc 2019-06-26 22:10:20 38.9002 -77.0515 433 21 57.4 1016.3 #ffcc00
30 Zinc 2019-06-26 22:24:51 38.9002 -77.0515 435 20.8 58.2 1016.6 #ffc400
30 Zinc 2019-06-26 22:39:22 38.9002 -77.0515 432.5 20.7 58.6 1016.8 #ffcd00
30 Zinc 2019-06-26 22:53:54 38.9002 -77.0515 436.3 20.5 59.2 1017 #ffbe00
30 Zinc 2019-06-26 23:08:25 38.9002 -77.0515 441.3 20.7 59.3 1017 #ffab00
30 Zinc 2019-06-26 23:22:56 38.9002 -77.0515 446.5 21.2 57.9 1017 #ff9700
30 Zinc 2019-06-26 23:37:27 38.9002 -77.0515 448.3 21.8 56 1017 #ff8f00
30 Zinc 2019-06-26 23:51:58 38.9002 -77.0515 439.8 21.7 56.3 1017.3 #ffb100
30 Zinc 2019-06-27 00:06:29 38.9002 -77.0515 441 21.3 57.2 1017.4 #ffac00
30 Zinc 2019-06-27 00:21:00 38.9002 -77.0515 440 21.1 57.8 1017.5 #ffb000
30 Zinc 2019-06-27 00:35:31 38.9002 -77.0515 446.7 21.4 57 1017.5 #ff9600
30 Zinc 2019-06-27 00:50:03 38.9002 -77.0515 442.8 21.7 56.2 1017.5 #ffa500
30 Zinc 2019-06-27 01:04:35 38.9002 -77.0515 443 21.6 56.4 1017.5 #ffa400
30 Zinc 2019-06-27 01:19:06 38.9002 -77.0515 446.2 21.4 57 1017.4 #ff9800
30 Zinc 2019-06-27 01:33:37 38.9002 -77.0515 446 21.3 57.5 1017.4 #ff9900
30 Zinc 2019-06-27 01:48:08 38.9002 -77.0515 464.3 21.4 58.1 1017.4 #ff5100
30 Zinc 2019-06-27 02:02:39 38.9002 -77.0515 471.3 21.3 58.3 1017.6 #ff3500
30 Zinc 2019-06-27 02:17:10 38.9002 -77.0515 474.7 21.3 58.3 1017.6 #ff2800
30 Zinc 2019-06-27 02:31:41 38.9002 -77.0515 474.8 21.2 58.5 1017.5 #ff2700
30 Zinc 2019-06-27 02:46:12 38.9002 -77.0515 466.8 21.2 57.9 1017.5 #ff4700
30 Zinc 2019-06-27 03:00:43 38.9002 -77.0515 463.5 21.3 57 1017.5 #ff5400
30 Zinc 2019-06-27 03:15:15 38.9002 -77.0515 466 21.6 56.5 1017.5 #ff4a00
30 Zinc 2019-06-27 03:29:47 38.9002 -77.0515 467.8 21.6 56.6 1017.7 #ff4300
30 Zinc 2019-06-27 03:44:18 38.9002 -77.0515 470.3 21.7 55.8 1017.8 #ff3900
30 Zinc 2019-06-27 03:58:49 38.9002 -77.0515 471 21.7 56 1018 #ff3600
30 Zinc 2019-06-27 04:13:20 38.9002 -77.0515 474.7 21.6 56.3 1018.2 #ff2800
30 Zinc 2019-06-27 04:27:51 38.9002 -77.0515 473 21.5 56.8 1018.2 #ff2f00
30 Zinc 2019-06-27 04:42:22 38.9002 -77.0515 466 21.3 57 1018.3 #ff4a00
30 Zinc 2019-06-27 04:56:54 38.9002 -77.0515 458.3 21.3 56.7 1018.4 #ff6800
30 Zinc 2019-06-27 05:11:25 38.9002 -77.0515 455.3 21.4 56.3 1018.5 #ff7400
30 Zinc 2019-06-27 05:25:56 38.9002 -77.0515 457.8 21.7 55.7 1018.6 #ff6a00
30 Zinc 2019-06-27 05:40:27 38.9002 -77.0515 467.3 21.7 55.9 1018.7 #ff4500
30 Zinc 2019-06-27 05:54:58 38.9002 -77.0515 473.2 21.9 55.5 1018.7 #ff2e00
30 Zinc 2019-06-27 06:09:29 38.9002 -77.0515 482.2 22.1 55.9 1018.9 #ff0b00
30 Zinc 2019-06-27 06:24:00 38.9002 -77.0515 481 22.4 55.7 1019.1 #ff0f00
30 Zinc 2019-06-27 06:38:32 38.9002 -77.0515 483.8 22.3 56 1019.2 #ff0400
30 Zinc 2019-06-27 06:53:03 38.9002 -77.0515 483.3 22.4 55.8 1019.3 #ff0600
30 Zinc 2019-06-27 07:07:34 38.9002 -77.0515 488 22.4 55.6 1019.5 #ff0000
30 Zinc 2019-06-27 07:22:05 38.9002 -77.0515 482.8 22.5 55.6 1019.7 #ff0800
30 Zinc 2019-06-27 07:36:36 38.9002 -77.0515 483 22.5 55.9 1019.9 #ff0700
30 Zinc 2019-06-27 07:51:07 38.9002 -77.0515 477.3 22.3 54.4 1020 #ff1e00
30 Zinc 2019-06-27 08:05:39 38.9002 -77.0515 469.8 22.1 52.8 1020 #ff3b00
30 Zinc 2019-06-27 08:20:10 38.9002 -77.0515 466.8 22 52.3 1020.1 #ff4700
30 Zinc 2019-06-27 08:34:41 38.9002 -77.0515 472 22 52.5 1020.2 #ff3300
30 Zinc 2019-06-27 08:49:13 38.9002 -77.0515 463.3 22.1 52.3 1020.1 #ff5500
30 Zinc 2019-06-27 09:03:45 38.9002 -77.0515 465.2 22.1 52.2 1020.2 #ff4d00
30 Zinc 2019-06-27 09:18:16 38.9002 -77.0515 466.2 22.1 52.2 1020 #ff4900
30 Zinc 2019-06-27 09:32:47 38.9002 -77.0515 460.2 22.2 52 1019.9 #ff6100
30 Zinc 2019-06-27 09:47:18 38.9002 -77.0515 461.7 22.3 53.9 1019.8 #ff5b00
30 Zinc 2019-06-27 10:01:49 38.9002 -77.0515 460.3 22.6 55.2 1019.9 #ff6000
30 Zinc 2019-06-27 10:16:20 38.9002 -77.0515 459.8 22.8 55.6 1019.9 #ff6200
30 Zinc 2019-06-27 10:30:52 38.9002 -77.0515 455.5 23.1 55.4 1020 #ff7300
30 Zinc 2019-06-27 10:45:23 38.9002 -77.0515 448 23.4 54.6 1020 #ff9100
30 Zinc 2019-06-27 10:59:54 38.9002 -77.0515 452.5 23.2 55.2 1020.1 #ff7f00
30 Zinc 2019-06-27 11:14:25 38.9002 -77.0515 446 22.3 57.3 1020.1 #ff9900
30 Zinc 2019-06-27 11:28:57 38.9002 -77.0515 442.7 22.1 58.1 1020 #ffa600
30 Zinc 2019-06-27 11:43:28 38.9002 -77.0515 444 21.9 58.4 1019.9 #ffa000
30 Zinc 2019-06-27 11:57:59 38.9002 -77.0515 443.3 21.7 58.7 1019.9 #ffa300
30 Zinc 2019-06-27 12:12:30 38.9002 -77.0515 442.3 21.9 58.1 1019.8 #ffa700
30 Zinc 2019-06-27 12:27:01 38.9002 -77.0515 442.2 21.9 57.5 1019.8 #ffa800
30 Zinc 2019-06-27 12:41:32 38.9002 -77.0515 439 21.8 57.2 1019.7 #ffb400
30 Zinc 2019-06-27 12:56:03 38.9002 -77.0515 436.5 21.7 57.6 1019.6 #ffbe00
30 Zinc 2019-06-27 13:10:34 38.9002 -77.0515 438.8 21.7 57.3 1019.3 #ffb500
30 Zinc 2019-06-27 13:25:05 38.9002 -77.0515 433.7 21.8 56.2 1019.1 #ffc900
30 Zinc 2019-06-27 13:39:36 38.9002 -77.0515 437.2 21.8 56.4 1019 #ffbb00
30 Zinc 2019-06-27 13:54:07 38.9002 -77.0515 435 22 55.5 1018.8 #ffc400
30 Zinc 2019-06-27 14:08:38 38.9002 -77.0515 436 22.3 54.9 1018.9 #ffc000
30 Zinc 2019-06-27 14:23:10 38.9002 -77.0515 443.5 22.8 55.7 1018.7 #ffa200
30 Zinc 2019-06-27 14:37:41 38.9002 -77.0515 438.2 22.9 56 1018.7 #ffb700
30 Zinc 2019-06-27 14:52:12 38.9002 -77.0515 439.8 23.3 55.2 1018.4 #ffb100
30 Zinc 2019-06-27 15:06:43 38.9002 -77.0515 444 24.1 51.7 1018.1 #ffa000
30 Zinc 2019-06-27 15:21:14 38.9002 -77.0515 446 24.9 47.3 1017.9 #ff9900
30 Zinc 2019-06-27 15:35:45 38.9002 -77.0515 437 23.2 48 1017.5 #ffbc00
30 Zinc 2019-06-27 15:50:16 38.9002 -77.0515 438 23 47.9 1017.5 #ffb800
30 Zinc 2019-06-27 16:04:47 38.9002 -77.0515 439 22.8 50.1 1017.6 #ffb400
30 Zinc 2019-06-27 16:19:18 38.9002 -77.0515 446.2 23.1 62.2 1017.6 #ff9800
30 Zinc 2019-06-27 16:33:49 38.9002 -77.0515 440 24.3 64.1 1017.7 #ffb000
30 Zinc 2019-06-27 16:48:21 38.9002 -77.0515 440.2 25 59.2 1017.6 #ffaf00
30 Zinc 2019-06-27 17:02:52 38.9002 -77.0515 438 24.3 60.3 1017.4 #ffb800
30 Zinc 2019-06-27 17:17:23 38.9002 -77.0515 439.7 23.7 59.6 1017.3 #ffb100
30 Zinc 2019-06-27 17:31:54 38.9002 -77.0515 445 23 63.6 1017.7 #ff9c00
30 Zinc 2019-06-27 17:46:25 38.9002 -77.0515 434.8 22.8 59.4 1017.5 #ffc400
30 Zinc 2019-06-27 18:00:57 38.9002 -77.0515 441.2 22.3 60.5 1018 #ffab00
30 Zinc 2019-06-27 18:15:28 38.9002 -77.0515 441.7 22.4 58.4 1018.1 #ffa900
30 Zinc 2019-06-27 18:29:59 38.9002 -77.0515 439 22.3 63.5 1018.9 #ffb400
30 Zinc 2019-06-27 18:44:30 38.9002 -77.0515 441.7 22.1 65.1 1019.1 #ffa900
30 Zinc 2019-06-27 18:59:01 38.9002 -77.0515 439.3 22 62.1 1019.1 #ffb300
30 Zinc 2019-06-27 19:13:32 38.9002 -77.0515 445 21.6 63.4 1019 #ff9c00
30 Zinc 2019-06-27 19:28:03 38.9002 -77.0515 443 21.5 60.4 1018.9 #ffa400
30 Zinc 2019-06-27 19:42:34 38.9002 -77.0515 443.5 21.6 59.7 1019 #ffa200
30 Zinc 2019-06-27 19:57:06 38.9002 -77.0515 444 21.4 60.9 1019 #ffa000
30 Zinc 2019-06-27 20:11:37 38.9002 -77.0515 454.3 21.6 59.4 1018.3 #ff7800
30 Zinc 2019-06-27 20:26:08 38.9002 -77.0515 448 21.6 60.5 1018.1 #ff9100
30 Zinc 2019-06-27 20:40:39 38.9002 -77.0515 461 21.6 59.7 1018.3 #ff5e00
30 Zinc 2019-06-27 20:55:10 38.9002 -77.0515 452 21.8 60.2 1018.5 #ff8100
30 Zinc 2019-06-27 21:09:41 38.9002 -77.0515 451.2 21.4 58.9 1018.7 #ff8400
30 Zinc 2019-06-27 21:24:13 38.9002 -77.0515 453 21.6 57 1018.7 #ff7d00
30 Zinc 2019-06-27 21:38:44 38.9002 -77.0515 455 21.4 56.4 1019 #ff7500
30 Zinc 2019-06-27 21:53:15 38.9002 -77.0515 456.3 21.8 57.7 1019.2 #ff7000
30 Zinc 2019-06-27 22:07:46 38.9002 -77.0515 455.2 21.2 57.7 1019 #ff7500
30 Zinc 2019-06-27 22:22:17 38.9002 -77.0515 462.3 20.7 58.7 1018.9 #ff5800
30 Zinc 2019-06-27 22:36:48 38.9002 -77.0515 471.5 20.5 59 1019 #ff3400
30 Zinc 2019-06-27 22:51:20 38.9002 -77.0515 473.3 20.9 57.3 1019.2 #ff2d00
30 Zinc 2019-06-27 23:05:51 38.9002 -77.0515 460.5 21.3 55.3 1019.4 #ff6000
30 Zinc 2019-06-27 23:20:22 38.9002 -77.0515 453.3 21.4 54.2 1019.5 #ff7c00
30 Zinc 2019-06-27 23:34:53 38.9002 -77.0515 452 21.4 53.9 1019.4 #ff8100
30 Zinc 2019-06-27 23:49:25 38.9002 -77.0515 447 21.4 54.1 1019.4 #ff9500
30 Zinc 2019-06-28 00:03:56 38.9002 -77.0515 451.8 21.5 54 1019.5 #ff8200
30 Zinc 2019-06-28 00:18:27 38.9002 -77.0515 451.5 21.5 53.8 1019.4 #ff8300
30 Zinc 2019-06-28 00:32:58 38.9002 -77.0515 451.8 21.6 53.7 1019.7 #ff8200
30 Zinc 2019-06-28 00:47:29 38.9002 -77.0515 453.3 21.7 53.3 1019.6 #ff7c00
30 Zinc 2019-06-28 01:02:00 38.9002 -77.0515 459.2 21.8 53.6 1019.3 #ff6500
30 Zinc 2019-06-28 01:16:31 38.9002 -77.0515 461.2 21.8 53.5 1019.2 #ff5d00
30 Zinc 2019-06-28 01:31:02 38.9002 -77.0515 471.8 21.9 53.5 1019.2 #ff3300
30 Zinc 2019-06-28 01:45:33 38.9002 -77.0515 474 21.9 53.7 1019.3 #ff2b00
30 Zinc 2019-06-28 02:00:04 38.9002 -77.0515 468.2 21.9 53.3 1019.2 #ff4200
30 Zinc 2019-06-28 02:14:36 38.9002 -77.0515 466.8 21.9 53.2 1019.2 #ff4700
30 Zinc 2019-06-28 02:29:07 38.9002 -77.0515 468.3 21.8 53.3 1019.1 #ff4100
30 Zinc 2019-06-28 02:43:38 38.9002 -77.0515 495.5 21.7 53.6 1019.1 #ff0000
30 Zinc 2019-06-28 02:58:09 38.9002 -77.0515 477 21.7 54 1019.1 #ff1f00
30 Zinc 2019-06-28 03:12:40 38.9002 -77.0515 483.3 21.7 54.1 1019.1 #ff0600
30 Zinc 2019-06-28 03:27:11 38.9002 -77.0515 472.3 21.6 54.3 1019 #ff3100
30 Zinc 2019-06-28 03:41:42 38.9002 -77.0515 463 21.5 54 1019.1 #ff5600
30 Zinc 2019-06-28 03:56:13 38.9002 -77.0515 467.5 21.6 53.8 1019 #ff4400
30 Zinc 2019-06-28 04:10:44 38.9002 -77.0515 474.2 21.5 54.5 1018.9 #ff2a00
30 Zinc 2019-06-28 04:25:15 38.9002 -77.0515 470.7 21.4 54.4 1019 #ff3800
30 Zinc 2019-06-28 04:39:47 38.9002 -77.0515 477.3 21.4 54.7 1019 #ff1e00
30 Zinc 2019-06-28 04:54:18 38.9002 -77.0515 471.3 21.4 54.5 1019.1 #ff3500
30 Zinc 2019-06-28 05:08:49 38.9002 -77.0515 495 21.5 54.6 1019.2 #ff0000
30 Zinc 2019-06-28 05:23:20 38.9002 -77.0515 504.8 21.6 54.4 1019.2 #ff0000
30 Zinc 2019-06-28 05:37:51 38.9002 -77.0515 500 21.8 53.8 1019.3 #ff0000
30 Zinc 2019-06-28 05:52:23 38.9002 -77.0515 491 21.7 54.2 1019.4 #ff0000
30 Zinc 2019-06-28 06:06:54 38.9002 -77.0515 496.5 21.8 53.8 1019.3 #ff0000
30 Zinc 2019-06-28 06:21:25 38.9002 -77.0515 498.7 21.9 53.5 1019.5 #ff0000
30 Zinc 2019-06-28 06:35:56 38.9002 -77.0515 508.5 21.7 53.8 1019.4 #ff0000
30 Zinc 2019-06-28 06:50:28 38.9002 -77.0515 493.8 21.7 54 1019.4 #ff0000
30 Zinc 2019-06-28 07:04:59 38.9002 -77.0515 490.3 21.7 53.7 1019.6 #ff0000
30 Zinc 2019-06-28 07:19:30 38.9002 -77.0515 486.5 21.8 53.6 1019.7 #ff0000
30 Zinc 2019-06-28 07:34:01 38.9002 -77.0515 498.3 21.9 53.8 1019.6 #ff0000
30 Zinc 2019-06-28 07:48:32 38.9002 -77.0515 498.3 21.9 53.7 1019.9 #ff0000
30 Zinc 2019-06-28 08:03:04 38.9002 -77.0515 491.5 22 53.3 1020 #ff0000
30 Zinc 2019-06-28 08:17:35 38.9002 -77.0515 475.2 22 53.3 1020.3 #ff2600
30 Zinc 2019-06-28 08:32:07 38.9002 -77.0515 470.3 22 53.2 1020.1 #ff3900
30 Zinc 2019-06-28 08:46:38 38.9002 -77.0515 455.8 22 53.2 1020.2 #ff7200
30 Zinc 2019-06-28 09:01:09 38.9002 -77.0515 449 22.2 52.7 1020.2 #ff8d00
30 Zinc 2019-06-28 09:15:40 38.9002 -77.0515 444.8 22.1 52.8 1020.2 #ff9d00
30 Zinc 2019-06-28 09:30:12 38.9002 -77.0515 443.5 22.1 52.9 1020.2 #ffa200
30 Zinc 2019-06-28 09:44:43 38.9002 -77.0515 446 22.2 52.8 1020.2 #ff9900
30 Zinc 2019-06-28 09:59:14 38.9002 -77.0515 450 22.3 53.2 1020.1 #ff8900
30 Zinc 2019-06-28 10:13:45 38.9002 -77.0515 448.5 22.3 53 1020.1 #ff8f00
30 Zinc 2019-06-28 10:28:17 38.9002 -77.0515 452.7 22.5 52.6 1020.1 #ff7e00
30 Zinc 2019-06-28 10:42:48 38.9002 -77.0515 455.3 22.8 56.1 1020.1 #ff7400
30 Zinc 2019-06-28 10:57:19 38.9002 -77.0515 450.3 23.2 57.2 1020.1 #ff8800
30 Zinc 2019-06-28 11:11:50 38.9002 -77.0515 453 23.5 57.2 1020.1 #ff7d00
30 Zinc 2019-06-28 11:26:21 38.9002 -77.0515 446.7 23.5 57.5 1020 #ff9600
30 Zinc 2019-06-28 11:40:52 38.9002 -77.0515 452.8 23.3 59.2 1019.9 #ff7e00
30 Zinc 2019-06-28 11:55:24 38.9002 -77.0515 451.3 22.5 62.8 1020 #ff8400
30 Zinc 2019-06-28 12:09:55 38.9002 -77.0515 442.3 22.6 62.9 1020 #ffa700
30 Zinc 2019-06-28 12:24:26 38.9002 -77.0515 451.8 22.4 63.2 1019.9 #ff8200
30 Zinc 2019-06-28 12:38:58 38.9002 -77.0515 442.2 22.2 60.1 1019.7 #ffa800
30 Zinc 2019-06-28 12:53:29 38.9002 -77.0515 438.5 21.9 57.8 1019.4 #ffb600
30 Zinc 2019-06-28 13:08:00 38.9002 -77.0515 437.5 21.7 56.1 1019.2 #ffba00
30 Zinc 2019-06-28 13:22:31 38.9002 -77.0515 443.5 21.7 55.8 1018.9 #ffa200
30 Zinc 2019-06-28 13:37:02 38.9002 -77.0515 436 21.5 55.8 1018.7 #ffc000
30 Zinc 2019-06-28 13:51:33 38.9002 -77.0515 431.2 21.7 55.3 1018.7 #ffd300
30 Zinc 2019-06-28 14:06:04 38.9002 -77.0515 433.3 22.1 54 1018.3 #ffca00
30 Zinc 2019-06-28 14:20:35 38.9002 -77.0515 435 22.6 52.9 1018.4 #ffc400
30 Zinc 2019-06-28 14:35:06 38.9002 -77.0515 433.2 23.5 50.7 1018.2 #ffcb00
30 Zinc 2019-06-28 14:49:37 38.9002 -77.0515 434 23.4 51 1018.1 #ffc800
30 Zinc 2019-06-28 15:04:09 38.9002 -77.0515 439.5 24.6 47.8 1017.8 #ffb200
30 Zinc 2019-06-28 15:18:40 38.9002 -77.0515 439.3 25.4 46.1 1017.8 #ffb300
30 Zinc 2019-06-28 15:33:11 38.9002 -77.0515 438.3 24.6 47.6 1017.5 #ffb700
30 Zinc 2019-06-28 15:47:42 38.9002 -77.0515 433.2 23.2 50.9 1017.4 #ffcb00
30 Zinc 2019-06-28 16:02:14 38.9002 -77.0515 436.5 22.4 53.3 1017.1 #ffbe00
30 Zinc 2019-06-28 16:16:45 38.9002 -77.0515 442 22.4 55.9 1016.9 #ffa800
30 Zinc 2019-06-28 16:31:16 38.9002 -77.0515 436 23 57.5 1017 #ffc000
30 Zinc 2019-06-28 16:45:47 38.9002 -77.0515 435.7 22.9 59.6 1017.2 #ffc100
30 Zinc 2019-06-28 17:00:18 38.9002 -77.0515 435.5 22.6 61.5 1017.1 #ffc200
30 Zinc 2019-06-28 17:14:50 38.9002 -77.0515 428.8 22.9 61.8 1017.2 #ffdc00
30 Zinc 2019-06-28 17:29:21 38.9002 -77.0515 435.2 22.7 63.3 1017.1 #ffc300
30 Zinc 2019-06-28 17:43:52 38.9002 -77.0515 432 22.6 63.4 1017.2 #ffcf00
30 Zinc 2019-06-28 17:58:23 38.9002 -77.0515 434.2 22.5 63.1 1017.6 #ffc700
30 Zinc 2019-06-28 18:12:54 38.9002 -77.0515 435 22.3 63.6 1017.8 #ffc400
30 Zinc 2019-06-28 18:27:26 38.9002 -77.0515 442 22.4 63.7 1017.9 #ffa800
30 Zinc 2019-06-28 18:41:57 38.9002 -77.0515 450 22.5 64.2 1017.9 #ff8900
30 Zinc 2019-06-28 18:56:28 38.9002 -77.0515 448.2 22.2 63.9 1017.6 #ff9000
30 Zinc 2019-06-28 19:10:59 38.9002 -77.0515 445.2 22 64.5 1017.6 #ff9c00
30 Zinc 2019-06-28 19:25:30 38.9002 -77.0515 444.2 22.1 64.9 1017.9 #ffa000
30 Zinc 2019-06-28 19:40:01 38.9002 -77.0515 450.2 22.1 64.9 1017.7 #ff8800
30 Zinc 2019-06-28 19:54:32 38.9002 -77.0515 455.3 21.8 66.4 1017.5 #ff7400
30 Zinc 2019-06-28 20:09:04 38.9002 -77.0515 462.7 21.8 67.1 1017.8 #ff5700
30 Zinc 2019-06-28 20:23:35 38.9002 -77.0515 464.2 22 66.4 1017.8 #ff5100
30 Zinc 2019-06-28 20:38:06 38.9002 -77.0515 460.7 21.8 67.1 1017.8 #ff5f00
30 Zinc 2019-06-28 20:52:37 38.9002 -77.0515 463.5 21.7 63.7 1017.9 #ff5400
30 Zinc 2019-06-28 21:07:08 38.9002 -77.0515 461.7 21.6 61.7 1017.9 #ff5b00
30 Zinc 2019-06-28 21:21:39 38.9002 -77.0515 472.2 21.4 61.5 1018.2 #ff3200
30 Zinc 2019-06-28 21:36:10 38.9002 -77.0515 464.8 21.2 60.7 1018.2 #ff4f00
30 Zinc 2019-06-28 21:50:41 38.9002 -77.0515 467 21.1 60.6 1018.2 #ff4600
30 Zinc 2019-06-28 22:05:13 38.9002 -77.0515 467 20.9 60 1018.1 #ff4600
30 Zinc 2019-06-28 22:19:44 38.9002 -77.0515 468 20.7 60.3 1018.2 #ff4200
30 Zinc 2019-06-28 22:34:15 38.9002 -77.0515 465 20.5 60 1018.1 #ff4e00
30 Zinc 2019-06-28 22:48:46 38.9002 -77.0515 461.3 20.4 60 1018 #ff5c00
30 Zinc 2019-06-28 23:03:17 38.9002 -77.0515 458 21 57.8 1018.1 #ff6900
30 Zinc 2019-06-28 23:17:48 38.9002 -77.0515 467.5 21.5 56.6 1018.2 #ff4400
30 Zinc 2019-06-28 23:32:19 38.9002 -77.0515 477.2 21.6 56.4 1018.1 #ff1e00
30 Zinc 2019-06-28 23:46:50 38.9002 -77.0515 471.8 21.6 55.8 1018.1 #ff3300
30 Zinc 2019-06-29 00:01:21 38.9002 -77.0515 471.7 21.5 55.6 1017.9 #ff3400
30 Zinc 2019-06-29 00:15:52 38.9002 -77.0515 468.3 21.4 55.6 1017.9 #ff4100
30 Zinc 2019-06-29 00:30:23 38.9002 -77.0515 470 21.3 55.6 1017.9 #ff3a00
30 Zinc 2019-06-29 00:44:55 38.9002 -77.0515 467 21.2 55.7 1017.7 #ff4600
30 Zinc 2019-06-29 00:59:26 38.9002 -77.0515 463 21.2 55.8 1017.8 #ff5600
30 Zinc 2019-06-29 01:13:57 38.9002 -77.0515 464 21.3 55.5 1017.6 #ff5200
30 Zinc 2019-06-29 01:28:28 38.9002 -77.0515 467 21.4 55.1 1017.6 #ff4600
30 Zinc 2019-06-29 01:42:59 38.9002 -77.0515 465.7 21.4 55 1017.7 #ff4b00
30 Zinc 2019-06-29 01:57:30 38.9002 -77.0515 471.2 21.5 54.9 1017.7 #ff3600
30 Zinc 2019-06-29 02:12:01 38.9002 -77.0515 474.3 21.4 55.2 1017.4 #ff2900
30 Zinc 2019-06-29 02:26:32 38.9002 -77.0515 479.3 21.4 55.5 1017.3 #ff1600
30 Zinc 2019-06-29 02:41:03 38.9002 -77.0515 478.2 21.4 55.6 1017.1 #ff1a00
30 Zinc 2019-06-29 02:55:34 38.9002 -77.0515 478.2 21.4 55.7 1017.1 #ff1a00
30 Zinc 2019-06-29 03:10:05 38.9002 -77.0515 480 21.4 55.4 1016.9 #ff1300
30 Zinc 2019-06-29 03:24:37 38.9002 -77.0515 484 21.4 55.5 1016.8 #ff0300
30 Zinc 2019-06-29 03:39:08 38.9002 -77.0515 484 21.4 55.3 1016.8 #ff0300
30 Zinc 2019-06-29 03:53:39 38.9002 -77.0515 475.2 21.3 54.9 1016.8 #ff2600
30 Zinc 2019-06-29 04:08:10 38.9002 -77.0515 478 21.3 54.8 1016.8 #ff1b00
30 Zinc 2019-06-29 04:22:41 38.9002 -77.0515 472.8 21.3 54.8 1016.9 #ff2f00
30 Zinc 2019-06-29 04:37:13 38.9002 -77.0515 468.7 21.4 54.9 1017.1 #ff4000
30 Zinc 2019-06-29 04:51:44 38.9002 -77.0515 473.2 21.3 55.2 1017.1 #ff2e00
30 Zinc 2019-06-29 05:06:15 38.9002 -77.0515 480.7 21.4 55.1 1017 #ff1000
30 Zinc 2019-06-29 05:20:46 38.9002 -77.0515 483.3 21.6 54.8 1017.1 #ff0600
30 Zinc 2019-06-29 05:35:17 38.9002 -77.0515 483.2 21.7 54.6 1017.2 #ff0700
30 Zinc 2019-06-29 05:49:49 38.9002 -77.0515 494 21.7 54.6 1017.2 #ff0000
30 Zinc 2019-06-29 06:04:20 38.9002 -77.0515 494.3 21.8 53.8 1017.2 #ff0000
30 Zinc 2019-06-29 06:18:51 38.9002 -77.0515 498 21.8 53.9 1017.2 #ff0000
30 Zinc 2019-06-29 06:33:22 38.9002 -77.0515 499.2 21.9 53.7 1017.2 #ff0000
30 Zinc 2019-06-29 06:47:53 38.9002 -77.0515 494.3 22 53.4 1017.1 #ff0000
30 Zinc 2019-06-29 07:02:24 38.9002 -77.0515 494.2 22 53.2 1017.3 #ff0000
30 Zinc 2019-06-29 07:16:55 38.9002 -77.0515 488.8 22.1 52.9 1017.2 #ff0000
30 Zinc 2019-06-29 07:31:27 38.9002 -77.0515 489.7 22 53.1 1017 #ff0000
30 Zinc 2019-06-29 07:45:58 38.9002 -77.0515 484 22.1 52.8 1017.3 #ff0300
30 Zinc 2019-06-29 08:00:29 38.9002 -77.0515 484 22.1 53.1 1017.4 #ff0300
30 Zinc 2019-06-29 08:15:01 38.9002 -77.0515 480.5 22 53.7 1017.3 #ff1100
30 Zinc 2019-06-29 08:29:33 38.9002 -77.0515 487 22.1 53.7 1017.3 #ff0000
30 Zinc 2019-06-29 08:58:37 38.9002 -77.0515 478.7 22.1 53.6 1017.5 #ff1800
30 Zinc 2019-06-29 09:13:08 38.9002 -77.0515 470.8 22.2 53.7 1017.4 #ff3700
30 Zinc 2019-06-29 09:27:39 38.9002 -77.0515 460.7 22.2 53.3 1017.4 #ff5f00
30 Zinc 2019-06-29 09:42:10 38.9002 -77.0515 457.5 22.2 53.3 1017.3 #ff6b00
30 Zinc 2019-06-29 09:56:41 38.9002 -77.0515 448.8 22.3 53.3 1017.1 #ff8d00
30 Zinc 2019-06-29 10:11:12 38.9002 -77.0515 451.5 22.3 53.3 1017 #ff8300
30 Zinc 2019-06-29 10:25:43 38.9002 -77.0515 445 22.4 53.2 1017 #ff9c00
30 Zinc 2019-06-29 10:40:15 38.9002 -77.0515 448.7 22.7 52.6 1017 #ff8e00
30 Zinc 2019-06-29 10:54:46 38.9002 -77.0515 447 23 52.2 1016.8 #ff9500
30 Zinc 2019-06-29 11:09:18 38.9002 -77.0515 444 22.8 53.1 1016.6 #ffa000
30 Zinc 2019-06-29 11:23:49 38.9002 -77.0515 444.8 23.3 51.7 1016.3 #ff9d00
30 Zinc 2019-06-29 11:38:20 38.9002 -77.0515 440.7 23.2 52 1016.5 #ffad00
30 Zinc 2019-06-29 11:52:51 38.9002 -77.0515 435 23.2 52 1016.3 #ffc400
30 Zinc 2019-06-29 12:07:22 38.9002 -77.0515 436 23.3 51.8 1016.2 #ffc000
30 Zinc 2019-06-29 12:21:53 38.9002 -77.0515 441 23.6 51.1 1016.2 #ffac00
30 Zinc 2019-06-29 12:36:24 38.9002 -77.0515 432.7 23.6 51.1 1016 #ffcd00
30 Zinc 2019-06-29 12:50:55 38.9002 -77.0515 437.3 23.6 50.7 1015.8 #ffbb00
30 Zinc 2019-06-29 13:05:26 38.9002 -77.0515 438.7 23.7 50.1 1015.6 #ffb500
30 Zinc 2019-06-29 13:19:58 38.9002 -77.0515 442 23.7 50 1015.4 #ffa800
30 Zinc 2019-06-29 13:34:29 38.9002 -77.0515 446 23.7 50.4 1014.9 #ff9900
30 Zinc 2019-06-29 13:49:00 38.9002 -77.0515 430.7 23 51.8 1014.6 #ffd500
30 Zinc 2019-06-29 14:03:31 38.9002 -77.0515 434.7 22.5 52.8 1014.8 #ffc500
30 Zinc 2019-06-29 14:18:02 38.9002 -77.0515 434.7 22.2 52.4 1014.9 #ffc500
30 Zinc 2019-06-29 14:32:33 38.9002 -77.0515 432.7 22.8 51.1 1014.2 #ffcd00
30 Zinc 2019-06-29 14:47:04 38.9002 -77.0515 433.7 23.3 50.7 1013.5 #ffc900
30 Zinc 2019-06-29 15:01:35 38.9002 -77.0515 445 24.5 48.9 1013.6 #ff9c00
30 Zinc 2019-06-29 15:16:06 38.9002 -77.0515 445.3 26.5 44.6 1013.3 #ff9b00
30 Zinc 2019-06-29 15:30:37 38.9002 -77.0515 444 25.3 47.1 1013.5 #ffa000
30 Zinc 2019-06-29 15:45:09 38.9002 -77.0515 439.3 23.5 51.4 1013.4 #ffb300
30 Zinc 2019-06-29 15:59:41 38.9002 -77.0515 437.7 22.9 52.8 1013.4 #ffb900
30 Zinc 2019-06-29 16:14:12 38.9002 -77.0515 436.5 22.4 53.9 1013.6 #ffbe00
30 Zinc 2019-06-29 16:28:43 38.9002 -77.0515 427.8 22.6 53.2 1013.1 #ffe000
30 Zinc 2019-06-29 16:43:14 38.9002 -77.0515 434.2 22.7 52.4 1013 #ffc700
30 Zinc 2019-06-29 16:57:45 38.9002 -77.0515 429.3 22.8 51.8 1012.7 #ffda00
30 Zinc 2019-06-29 17:12:16 38.9002 -77.0515 428 22.7 52.6 1012.4 #ffdf00
30 Zinc 2019-06-29 17:26:47 38.9002 -77.0515 427 22.3 54 1012.2 #ffe300
30 Zinc 2019-06-29 17:41:18 38.9002 -77.0515 422.2 22.3 54.1 1012.3 #fff600
30 Zinc 2019-06-29 17:55:49 38.9002 -77.0515 424 22.4 53.8 1012.4 #ffef00
30 Zinc 2019-06-29 18:10:20 38.9002 -77.0515 422.3 22.3 54.2 1012.4 #fff500
30 Zinc 2019-06-29 18:24:51 38.9002 -77.0515 422.2 22.5 54.5 1012.6 #fff600
30 Zinc 2019-06-29 18:39:22 38.9002 -77.0515 421.2 23 52.4 1012.7 #fffa00
30 Zinc 2019-06-29 18:53:53 38.9002 -77.0515 421.7 22.5 53.8 1012.6 #fff800
30 Zinc 2019-06-29 19:08:25 38.9002 -77.0515 423 22.3 54 1012.8 #fff300
30 Zinc 2019-06-29 19:22:55 38.9002 -77.0515 428.7 22.2 54.3 1013.1 #ffdc00
30 Zinc 2019-06-29 19:37:27 38.9002 -77.0515 424 22.1 54.4 1013.5 #ffef00
30 Zinc 2019-06-29 19:51:58 38.9002 -77.0515 426.8 22 54.8 1013.5 #ffe400
30 Zinc 2019-06-29 20:06:29 38.9002 -77.0515 429.5 21.9 55.2 1013.3 #ffd900
30 Zinc 2019-06-29 20:21:00 38.9002 -77.0515 429.8 21.9 55.3 1013.3 #ffd800
30 Zinc 2019-06-29 20:35:33 38.9002 -77.0515 435.8 21.8 55.6 1013 #ffc000
30 Zinc 2019-06-29 20:50:04 38.9002 -77.0515 429.3 21.9 55.1 1013.2 #ffda00
30 Zinc 2019-06-29 21:04:35 38.9002 -77.0515 434.2 21.7 55.7 1013 #ffc700
30 Zinc 2019-06-29 21:19:07 38.9002 -77.0515 432 21.7 55.9 1013.2 #ffcf00
30 Zinc 2019-06-29 21:33:38 38.9002 -77.0515 438 21.7 56.4 1013.1 #ffb800
30 Zinc 2019-06-29 21:48:09 38.9002 -77.0515 434.7 21.7 56.2 1012.9 #ffc500
30 Zinc 2019-06-29 22:02:40 38.9002 -77.0515 438 21.2 57.3 1012.9 #ffb800
30 Zinc 2019-06-29 22:17:11 38.9002 -77.0515 441.8 20.7 58.7 1012.9 #ffa900
30 Zinc 2019-06-29 22:31:42 38.9002 -77.0515 442.7 20.5 59.2 1012.9 #ffa600
30 Zinc 2019-06-29 22:46:13 38.9002 -77.0515 441.7 20.4 62.9 1012.9 #ffa900
30 Zinc 2019-06-29 23:00:44 38.9002 -77.0515 446 20.9 60.1 1013.2 #ff9900
30 Zinc 2019-06-29 23:15:15 38.9002 -77.0515 445 21.1 57.2 1013.8 #ff9c00
30 Zinc 2019-06-29 23:29:47 38.9002 -77.0515 440 21.2 56.2 1013.6 #ffb000
30 Zinc 2019-06-29 23:44:18 38.9002 -77.0515 439.5 21.3 55.2 1013.5 #ffb200
30 Zinc 2019-06-29 23:58:49 38.9002 -77.0515 439 21.4 54.6 1013 #ffb400
30 Zinc 2019-06-30 00:13:20 38.9002 -77.0515 436.5 21.3 54.7 1012.9 #ffbe00
30 Zinc 2019-06-30 00:27:51 38.9002 -77.0515 434 21.3 54.1 1012.9 #ffc800
30 Zinc 2019-06-30 00:42:22 38.9002 -77.0515 433.5 21.3 54.2 1012.7 #ffca00
30 Zinc 2019-06-30 00:56:53 38.9002 -77.0515 436 21.2 55 1012.5 #ffc000
30 Zinc 2019-06-30 01:11:24 38.9002 -77.0515 433.3 21.4 55.1 1012.4 #ffca00
30 Zinc 2019-06-30 01:25:55 38.9002 -77.0515 433 21.4 55.2 1012.1 #ffcc00
30 Zinc 2019-06-30 01:40:27 38.9002 -77.0515 432.2 21.4 54.6 1012.1 #ffcf00
30 Zinc 2019-06-30 01:54:58 38.9002 -77.0515 434.7 21.4 54.4 1011.9 #ffc500
30 Zinc 2019-06-30 02:09:29 38.9002 -77.0515 434 21.4 54.9 1011.8 #ffc800
30 Zinc 2019-06-30 02:24:00 38.9002 -77.0515 432.5 21.4 55.1 1011.4 #ffcd00
30 Zinc 2019-06-30 02:38:31 38.9002 -77.0515 438 21.4 55.4 1011.3 #ffb800
30 Zinc 2019-06-30 02:53:02 38.9002 -77.0515 435.7 21.4 54.6 1011.1 #ffc100
30 Zinc 2019-06-30 03:07:33 38.9002 -77.0515 434.7 21.5 54.5 1010.9 #ffc500
30 Zinc 2019-06-30 03:22:04 38.9002 -77.0515 435.8 21.6 54.2 1010.3 #ffc000
30 Zinc 2019-06-30 03:36:36 38.9002 -77.0515 435.7 21.9 53.4 1010.2 #ffc100
30 Zinc 2019-06-30 03:51:07 38.9002 -77.0515 435.5 22 53 1009.9 #ffc200
30 Zinc 2019-06-30 04:05:38 38.9002 -77.0515 437.5 21.9 53.3 1009.4 #ffba00
30 Zinc 2019-06-30 04:20:09 38.9002 -77.0515 447.7 21.9 53.8 1009.8 #ff9200
30 Zinc 2019-06-30 04:34:40 38.9002 -77.0515 445.5 21.8 53.8 1009.8 #ff9a00
30 Zinc 2019-06-30 04:49:12 38.9002 -77.0515 440 21.7 53.9 1009.7 #ffb000
30 Zinc 2019-06-30 05:03:43 38.9002 -77.0515 440.5 21.6 54.2 1009.7 #ffae00
30 Zinc 2019-06-30 05:18:14 38.9002 -77.0515 439.2 21.5 54.7 1009.9 #ffb300
30 Zinc 2019-06-30 05:32:45 38.9002 -77.0515 434.8 20.8 56.6 1010 #ffc400
30 Zinc 2019-06-30 05:47:16 38.9002 -77.0515 441 20.5 57.5 1010 #ffac00
30 Zinc 2019-06-30 06:01:47 38.9002 -77.0515 438 20.9 55.9 1010 #ffb800
30 Zinc 2019-06-30 06:16:18 38.9002 -77.0515 439.5 21.6 54.2 1010.1 #ffb200
30 Zinc 2019-06-30 06:30:49 38.9002 -77.0515 439.3 22 53.1 1010.5 #ffb300
30 Zinc 2019-06-30 06:45:21 38.9002 -77.0515 443.7 22.3 52.3 1010.5 #ffa200
30 Zinc 2019-06-30 06:59:52 38.9002 -77.0515 441 22.4 51.6 1010.6 #ffac00
30 Zinc 2019-06-30 07:14:23 38.9002 -77.0515 440.8 22.2 52.1 1010.3 #ffad00
30 Zinc 2019-06-30 07:28:54 38.9002 -77.0515 443.8 22 53 1010.4 #ffa100
30 Zinc 2019-06-30 07:43:26 38.9002 -77.0515 444.8 22.4 51.7 1010.2 #ff9d00
30 Zinc 2019-06-30 07:57:57 38.9002 -77.0515 446.8 22.8 50.9 1010.4 #ff9500
30 Zinc 2019-06-30 08:12:28 38.9002 -77.0515 445.8 22.7 51.3 1010.5 #ff9900
30 Zinc 2019-06-30 08:26:59 38.9002 -77.0515 442.8 22.3 52.2 1010.4 #ffa500
30 Zinc 2019-06-30 08:41:30 38.9002 -77.0515 438 22.7 51.4 1010.6 #ffb800
30 Zinc 2019-06-30 08:56:02 38.9002 -77.0515 437.8 22.6 51.8 1010.4 #ffb900
30 Zinc 2019-06-30 09:10:33 38.9002 -77.0515 436.7 23 50.8 1010.5 #ffbd00
30 Zinc 2019-06-30 09:25:05 38.9002 -77.0515 431.2 23.1 50.4 1010.3 #ffd300
30 Zinc 2019-06-30 09:39:36 38.9002 -77.0515 431 22.8 51.1 1010.6 #ffd300
30 Zinc 2019-06-30 09:54:07 38.9002 -77.0515 430.3 22.9 50.7 1009.9 #ffd600
30 Zinc 2019-06-30 10:08:39 38.9002 -77.0515 428 23 50.2 1010.1 #ffdf00
30 Zinc 2019-06-30 10:23:10 38.9002 -77.0515 429 23.2 49.2 1010.2 #ffdb00
30 Zinc 2019-06-30 10:37:41 38.9002 -77.0515 427 23.2 49 1009.9 #ffe300
30 Zinc 2019-06-30 10:52:12 38.9002 -77.0515 426.5 23.2 48.2 1009.9 #ffe500
30 Zinc 2019-06-30 11:06:43 38.9002 -77.0515 427 23.2 48 1009.9 #ffe300
30 Zinc 2019-06-30 11:21:14 38.9002 -77.0515 426 23.1 48 1009.6 #ffe700
30 Zinc 2019-06-30 11:35:45 38.9002 -77.0515 426.2 23 48.2 1009.6 #ffe600
30 Zinc 2019-06-30 11:50:16 38.9002 -77.0515 423 23.2 47.5 1009.5 #fff300
30 Zinc 2019-06-30 12:04:48 38.9002 -77.0515 423.7 23.9 45.6 1009.6 #fff000
30 Zinc 2019-06-30 12:19:19 38.9002 -77.0515 422.2 23.7 46 1009.3 #fff600
30 Zinc 2019-06-30 12:33:51 38.9002 -77.0515 422.5 24 45.5 1009 #fff500
30 Zinc 2019-06-30 12:48:22 38.9002 -77.0515 424.8 23.9 45.6 1009.3 #ffec00
30 Zinc 2019-06-30 13:02:54 38.9002 -77.0515 421.2 24.1 45.2 1009.1 #fffa00
30 Zinc 2019-06-30 13:17:25 38.9002 -77.0515 422.7 24.1 45.3 1009 #fff400
30 Zinc 2019-06-30 13:31:56 38.9002 -77.0515 423.8 24.5 44.3 1008.9 #ffef00
30 Zinc 2019-06-30 13:46:27 38.9002 -77.0515 415.5 24.2 44.9 1008.9 #eeff00
30 Zinc 2019-06-30 14:00:58 38.9002 -77.0515 421.3 24.6 43.8 1008.6 #fff900
30 Zinc 2019-06-30 14:15:29 38.9002 -77.0515 421.8 24.8 43.2 1008.5 #fff700
30 Zinc 2019-06-30 14:30:00 38.9002 -77.0515 424 24.5 43.7 1008.2 #ffef00
30 Zinc 2019-06-30 14:44:31 38.9002 -77.0515 422.7 24.9 42.9 1008.1 #fff400
30 Zinc 2019-06-30 14:59:03 38.9002 -77.0515 423 26 40.6 1008.1 #fff300
30 Zinc 2019-06-30 15:13:34 38.9002 -77.0515 427 27.5 37.5 1008.1 #ffe300
30 Zinc 2019-06-30 15:28:05 38.9002 -77.0515 427 28.3 35.9 1007.9 #ffe300
30 Zinc 2019-06-30 15:42:36 38.9002 -77.0515 422.2 26.2 39.6 1007.7 #fff600
30 Zinc 2019-06-30 15:57:07 38.9002 -77.0515 424.2 26 40.1 1007.7 #ffee00
30 Zinc 2019-06-30 16:11:38 38.9002 -77.0515 422.8 25.7 40.7 1007.7 #fff300
30 Zinc 2019-06-30 16:26:09 38.9002 -77.0515 422.7 25.5 41.2 1007.3 #fff400
30 Zinc 2019-06-30 16:40:40 38.9002 -77.0515 423.8 25.2 41.6 1007.4 #ffef00
30 Zinc 2019-06-30 16:55:12 38.9002 -77.0515 421.5 24.9 42.3 1007.4 #fff900
30 Zinc 2019-06-30 17:09:43 38.9002 -77.0515 424 24.7 42.7 1007.2 #ffef00
30 Zinc 2019-06-30 17:24:14 38.9002 -77.0515 421.8 23.8 44.8 1007.2 #fff700
30 Zinc 2019-06-30 17:38:45 38.9002 -77.0515 421.8 23.2 46.5 1007.1 #fff700
30 Zinc 2019-06-30 17:53:16 38.9002 -77.0515 425.3 23.1 47.1 1007.3 #ffea00
30 Zinc 2019-06-30 18:07:47 38.9002 -77.0515 422 22.8 48 1007.3 #fff700
30 Zinc 2019-06-30 18:22:18 38.9002 -77.0515 419.8 23.3 46.2 1007.4 #feff00
30 Zinc 2019-06-30 18:36:49 38.9002 -77.0515 422 24.1 44.6 1007.3 #fff700
30 Zinc 2019-06-30 18:51:21 38.9002 -77.0515 423.5 24.9 42.6 1007.3 #fff100
30 Zinc 2019-06-30 19:05:52 38.9002 -77.0515 421 24.3 44.1 1007.5 #fffb00
30 Zinc 2019-06-30 19:20:23 38.9002 -77.0515 424.2 24.2 44.5 1007.9 #ffee00
30 Zinc 2019-06-30 19:34:54 38.9002 -77.0515 424 24 45 1008 #ffef00
30 Zinc 2019-06-30 19:49:26 38.9002 -77.0515 425.7 23.7 45.4 1008.4 #ffe800
30 Zinc 2019-06-30 20:03:57 38.9002 -77.0515 423 23.7 45.6 1008.5 #fff300
30 Zinc 2019-06-30 20:18:28 38.9002 -77.0515 425.8 23.5 46.2 1008.3 #ffe800
30 Zinc 2019-06-30 20:32:59 38.9002 -77.0515 424.5 23.4 46.6 1008.4 #ffed00
30 Zinc 2019-06-30 20:47:31 38.9002 -77.0515 417.5 23.3 46.7 1008.5 #f5ff00
30 Zinc 2019-06-30 21:02:02 38.9002 -77.0515 424.8 23.2 46.6 1008.8 #ffec00
30 Zinc 2019-06-30 21:16:33 38.9002 -77.0515 428.3 23 47.2 1008.9 #ffde00
30 Zinc 2019-06-30 21:31:04 38.9002 -77.0515 432 22.9 47.7 1009.2 #ffcf00
30 Zinc 2019-06-30 21:45:35 38.9002 -77.0515 432.3 22.9 47.6 1009.3 #ffce00
30 Zinc 2019-06-30 22:00:07 38.9002 -77.0515 437.2 22.3 49.7 1009.8 #ffbb00
30 Zinc 2019-06-30 22:14:39 38.9002 -77.0515 437 21.7 51.6 1010.2 #ffbc00
30 Zinc 2019-06-30 22:29:10 38.9002 -77.0515 441.7 21.6 52.2 1010.3 #ffa900
30 Zinc 2019-06-30 22:43:41 38.9002 -77.0515 440 21.2 53.3 1010.5 #ffb000
30 Zinc 2019-06-30 22:58:12 38.9002 -77.0515 440.8 20.9 54.1 1010.4 #ffad00
30 Zinc 2019-06-30 23:12:43 38.9002 -77.0515 443 20.8 54.3 1010.5 #ffa400
30 Zinc 2019-06-30 23:27:14 38.9002 -77.0515 440.5 20.6 54.9 1010.5 #ffae00
30 Zinc 2019-06-30 23:41:45 38.9002 -77.0515 442 20.5 54.8 1010.8 #ffa800
30 Zinc 2019-06-30 23:56:16 38.9002 -77.0515 438.8 20.9 53.9 1010.9 #ffb500
30 Zinc 2019-07-01 00:10:47 38.9002 -77.0515 439.3 21.3 52.6 1011.1 #ffb300
30 Zinc 2019-07-01 00:25:18 38.9002 -77.0515 441 21.5 52.3 1011.5 #ffac00
30 Zinc 2019-07-01 00:39:50 38.9002 -77.0515 436 21.6 51.6 1011.5 #ffc000
30 Zinc 2019-07-01 00:54:21 38.9002 -77.0515 435.8 21.5 51.7 1011.6 #ffc000
30 Zinc 2019-07-01 01:08:52 38.9002 -77.0515 434 21.6 51.5 1011.7 #ffc800
30 Zinc 2019-07-01 01:23:23 38.9002 -77.0515 434.2 21.6 51.5 1011.9 #ffc700
30 Zinc 2019-07-01 01:37:54 38.9002 -77.0515 432 21.6 51.5 1012.2 #ffcf00
30 Zinc 2019-07-01 01:52:25 38.9002 -77.0515 434.3 21.6 51.4 1012.4 #ffc600
30 Zinc 2019-07-01 02:06:56 38.9002 -77.0515 434 21.6 51.9 1012.3 #ffc800
30 Zinc 2019-07-01 02:21:27 38.9002 -77.0515 436.3 21.3 52.5 1012.2 #ffbe00
30 Zinc 2019-07-01 02:35:58 38.9002 -77.0515 433.8 21.3 52.5 1012.3 #ffc800
30 Zinc 2019-07-01 02:50:30 38.9002 -77.0515 433 21.3 52.1 1012.1 #ffcc00
30 Zinc 2019-07-01 03:05:01 38.9002 -77.0515 434 21.3 52.7 1012.1 #ffc800
30 Zinc 2019-07-01 03:19:32 38.9002 -77.0515 432.7 21.2 52.1 1012.1 #ffcd00
30 Zinc 2019-07-01 03:34:03 38.9002 -77.0515 440.3 21.3 52.9 1012 #ffaf00
30 Zinc 2019-07-01 03:48:34 38.9002 -77.0515 439.7 21.4 52.5 1012.4 #ffb100
30 Zinc 2019-07-01 04:03:05 38.9002 -77.0515 436.5 21.2 52.3 1012.3 #ffbe00
30 Zinc 2019-07-01 04:17:36 38.9002 -77.0515 434 21.2 52.3 1012.3 #ffc800
30 Zinc 2019-07-01 04:32:07 38.9002 -77.0515 434.5 21.4 51.4 1012.6 #ffc600
30 Zinc 2019-07-01 04:46:39 38.9002 -77.0515 436 21.3 52.1 1012.5 #ffc000
30 Zinc 2019-07-01 05:01:10 38.9002 -77.0515 438 21.1 52.6 1012.4 #ffb800
30 Zinc 2019-07-01 05:15:41 38.9002 -77.0515 437.8 21.2 52.3 1012.8 #ffb900
30 Zinc 2019-07-01 05:30:12 38.9002 -77.0515 441 21.2 52.1 1012.8 #ffac00
30 Zinc 2019-07-01 05:44:43 38.9002 -77.0515 451.5 20.3 55.1 1012.9 #ff8300
30 Zinc 2019-07-01 05:59:15 38.9002 -77.0515 446.8 20.8 53.5 1012.9 #ff9500
30 Zinc 2019-07-01 06:13:46 38.9002 -77.0515 469.8 21.6 51.1 1013.1 #ff3b00
30 Zinc 2019-07-01 06:28:17 38.9002 -77.0515 476.7 21.7 51.1 1012.9 #ff2000
30 Zinc 2019-07-01 06:42:48 38.9002 -77.0515 464.2 21.7 51.2 1013.1 #ff5100
30 Zinc 2019-07-01 06:57:19 38.9002 -77.0515 454.3 21.9 51 1013.1 #ff7800
30 Zinc 2019-07-01 07:11:51 38.9002 -77.0515 455.2 22.4 49.7 1013.4 #ff7500
30 Zinc 2019-07-01 07:26:22 38.9002 -77.0515 448 22 50.6 1013.5 #ff9100
30 Zinc 2019-07-01 07:40:53 38.9002 -77.0515 445.2 22.3 49.6 1013.5 #ff9c00
30 Zinc 2019-07-01 07:55:24 38.9002 -77.0515 444 22.4 49.6 1014 #ffa000
30 Zinc 2019-07-01 08:09:56 38.9002 -77.0515 442.3 22.1 50.8 1013.8 #ffa700
30 Zinc 2019-07-01 08:24:27 38.9002 -77.0515 443 22.1 50.3 1014 #ffa400
30 Zinc 2019-07-01 08:38:58 38.9002 -77.0515 436.3 22.6 49.4 1014.1 #ffbe00
30 Zinc 2019-07-01 08:53:29 38.9002 -77.0515 436.8 22.4 48.8 1013.8 #ffbc00
30 Zinc 2019-07-01 09:08:00 38.9002 -77.0515 435 22.4 49 1014 #ffc400
30 Zinc 2019-07-01 09:22:32 38.9002 -77.0515 441.2 22.2 49.7 1014.2 #ffab00
30 Zinc 2019-07-01 09:37:04 38.9002 -77.0515 438 22.3 49.4 1014.3 #ffb800
30 Zinc 2019-07-01 09:51:35 38.9002 -77.0515 434 22.5 48.5 1014.2 #ffc800
30 Zinc 2019-07-01 10:06:07 38.9002 -77.0515 433 22.4 49.2 1014.1 #ffcc00
30 Zinc 2019-07-01 10:20:38 38.9002 -77.0515 430.5 22.4 48.6 1014.1 #ffd500
30 Zinc 2019-07-01 10:35:09 38.9002 -77.0515 433.3 22.7 48.1 1013.9 #ffca00
30 Zinc 2019-07-01 10:49:40 38.9002 -77.0515 429 23.3 46.5 1014.1 #ffdb00
30 Zinc 2019-07-01 11:04:11 38.9002 -77.0515 429 23 47 1014.1 #ffdb00
30 Zinc 2019-07-01 11:18:43 38.9002 -77.0515 431 23 47 1013.9 #ffd300
30 Zinc 2019-07-01 11:33:14 38.9002 -77.0515 436.5 23.5 45.5 1013.8 #ffbe00
30 Zinc 2019-07-01 11:47:45 38.9002 -77.0515 431 23.9 44.7 1013.7 #ffd300
30 Zinc 2019-07-01 12:02:16 38.9002 -77.0515 439.7 24.2 44.2 1013.5 #ffb100
30 Zinc 2019-07-01 12:16:47 38.9002 -77.0515 434 24.2 43.9 1013.4 #ffc800
30 Zinc 2019-07-01 12:31:18 38.9002 -77.0515 433.7 23.5 45.4 1013.5 #ffc900
30 Zinc 2019-07-01 12:45:49 38.9002 -77.0515 434.7 23.8 44.6 1013.5 #ffc500
30 Zinc 2019-07-01 13:00:21 38.9002 -77.0515 441.2 24.1 43.9 1013.3 #ffab00
30 Zinc 2019-07-01 13:14:52 38.9002 -77.0515 438.7 24.1 43.7 1013.3 #ffb500
30 Zinc 2019-07-01 13:29:23 38.9002 -77.0515 427.8 23.6 44.3 1013.1 #ffe000
30 Zinc 2019-07-01 13:43:54 38.9002 -77.0515 440.3 23 46.9 1013.3 #ffaf00
30 Zinc 2019-07-01 13:58:26 38.9002 -77.0515 437.8 22.2 48.1 1013.3 #ffb900
30 Zinc 2019-07-01 14:12:57 38.9002 -77.0515 434 22 50.2 1012.9 #ffc800
30 Zinc 2019-07-01 14:27:28 38.9002 -77.0515 436.5 21.7 50.3 1012.9 #ffbe00
30 Zinc 2019-07-01 14:41:59 38.9002 -77.0515 440 22.2 49.7 1012.8 #ffb000
30 Zinc 2019-07-01 14:56:30 38.9002 -77.0515 435.2 22.5 48.3 1012.5 #ffc300
30 Zinc 2019-07-01 15:11:01 38.9002 -77.0515 442.2 23.9 44.9 1012.6 #ffa800
30 Zinc 2019-07-01 15:25:33 38.9002 -77.0515 441 24.2 44.1 1012.3 #ffac00
30 Zinc 2019-07-01 15:40:04 38.9002 -77.0515 438 22.7 48 1012.2 #ffb800
30 Zinc 2019-07-01 15:54:36 38.9002 -77.0515 436.5 22.1 49.3 1012.2 #ffbe00
30 Zinc 2019-07-01 16:09:07 38.9002 -77.0515 432.2 21.6 50.9 1012.2 #ffcf00
30 Zinc 2019-07-01 16:23:38 38.9002 -77.0515 442.2 21.5 51 1012.2 #ffa800
30 Zinc 2019-07-01 16:38:09 38.9002 -77.0515 432 21.5 51.3 1012 #ffcf00
30 Zinc 2019-07-01 16:52:40 38.9002 -77.0515 437.5 21.5 50.9 1012.1 #ffba00
30 Zinc 2019-07-01 17:07:11 38.9002 -77.0515 439.8 22.4 49.6 1011.8 #ffb100
30 Zinc 2019-07-01 17:21:42 38.9002 -77.0515 433.2 23 47.9 1012 #ffcb00
30 Zinc 2019-07-01 17:36:13 38.9002 -77.0515 430 23.1 47.4 1011.9 #ffd700
30 Zinc 2019-07-01 17:50:44 38.9002 -77.0515 432.3 23.5 46.3 1011.7 #ffce00
30 Zinc 2019-07-01 18:05:16 38.9002 -77.0515 434.7 23.7 45 1011.5 #ffc500
30 Zinc 2019-07-01 18:19:47 38.9002 -77.0515 425.3 24.5 43.7 1011.3 #ffea00
30 Zinc 2019-07-01 18:34:18 38.9002 -77.0515 432 24.8 42.9 1011.2 #ffcf00
30 Zinc 2019-07-01 18:48:49 38.9002 -77.0515 434.3 25.4 40.9 1011.4 #ffc600
30 Zinc 2019-07-01 19:03:20 38.9002 -77.0515 431.5 24.8 41.8 1011.4 #ffd100
30 Zinc 2019-07-01 19:17:51 38.9002 -77.0515 426.8 24.6 41.9 1011.6 #ffe400
30 Zinc 2019-07-01 19:32:22 38.9002 -77.0515 424 24.7 41.9 1011.4 #ffef00
30 Zinc 2019-07-01 19:46:53 38.9002 -77.0515 423 24.8 41.6 1011.6 #fff300
30 Zinc 2019-07-01 20:01:25 38.9002 -77.0515 425 24.5 42.3 1011.4 #ffeb00
30 Zinc 2019-07-01 20:15:56 38.9002 -77.0515 425 24.4 42.9 1011.7 #ffeb00
30 Zinc 2019-07-01 20:30:27 38.9002 -77.0515 425 24.2 43.4 1011.7 #ffeb00
30 Zinc 2019-07-01 20:44:58 38.9002 -77.0515 427 24.2 43.6 1011.5 #ffe300
30 Zinc 2019-07-01 20:59:29 38.9002 -77.0515 426 24 44 1011.9 #ffe700
30 Zinc 2019-07-01 21:14:00 38.9002 -77.0515 427 24 44.6 1011.7 #ffe300
30 Zinc 2019-07-01 21:28:31 38.9002 -77.0515 435 23.7 45.3 1011.9 #ffc400
30 Zinc 2019-07-01 21:43:02 38.9002 -77.0515 441.7 23.9 45.8 1011.9 #ffa900
30 Zinc 2019-07-01 21:57:34 38.9002 -77.0515 440.3 23.4 46.6 1012 #ffaf00
30 Zinc 2019-07-01 22:12:05 38.9002 -77.0515 445.8 22.9 49.2 1011.9 #ff9900
30 Zinc 2019-07-01 22:26:36 38.9002 -77.0515 460.7 22.2 50.9 1012 #ff5f00
30 Zinc 2019-07-01 22:41:07 38.9002 -77.0515 461.5 21.9 51.8 1012 #ff5c00
30 Zinc 2019-07-01 22:55:38 38.9002 -77.0515 467.2 21.6 52.8 1012 #ff4500
30 Zinc 2019-07-01 23:10:09 38.9002 -77.0515 472.5 21.4 53.8 1012.1 #ff3100
30 Zinc 2019-07-01 23:24:40 38.9002 -77.0515 469.8 21.1 54.6 1012.1 #ff3b00
30 Zinc 2019-07-01 23:39:11 38.9002 -77.0515 476.7 20.9 55.1 1012.2 #ff2000
30 Zinc 2019-07-01 23:53:42 38.9002 -77.0515 480.3 20.9 55 1012.3 #ff1200
25 Manganese 2019-06-05 17:12:27 38.9002 -77.0515 427.5 25.3 42.7 1007.5 #ffe100
25 Manganese 2019-06-05 17:26:59 38.9002 -77.0515 418.7 24.8 43.5 1007.4 #faff00
25 Manganese 2019-06-05 17:41:30 38.9002 -77.0515 403 24.9 42.8 1007.3 #c1ff00
10 Neon 2019-06-10 15:46:35 38.9002 -77.0515 608 24.2 48.2 1010.7 #ff0000
7 Zinc 2019-06-04 16:28:42 37.9003 -78.8659 433 23.8 33.4 1016.2 #ffcc00
7 Zinc 2019-06-04 16:30:23 37.9003 -78.8659 435 23.8 33.3 1016.2 #ffc400
7 Zinc 2019-06-04 16:44:54 37.9003 -78.8659 433 23.7 33.7 1016.1 #ffcc00
7 Zinc 2019-06-04 16:59:25 37.9003 -78.8659 437.7 23.4 35 1016.1 #ffb900
7 Zinc 2019-06-04 17:13:56 37.9003 -78.8659 438.7 23.1 35.8 1016 #ffb500
7 Zinc 2019-06-04 17:28:27 37.9003 -78.8659 435.7 22.9 36.7 1016 #ffc100
7 Zinc 2019-06-04 17:42:58 37.9003 -78.8659 430 23.1 36.9 1015.7 #ffd700
7 Zinc 2019-06-04 17:57:29 37.9003 -78.8659 435 22.2 39.7 1015.3 #ffc400
7 Zinc 2019-06-04 18:12:00 37.9003 -78.8659 436 21.5 42 1015.3 #ffc000
7 Zinc 2019-06-04 18:26:31 37.9003 -78.8659 433 22.6 39.6 1015.5 #ffcc00
7 Zinc 2019-06-04 18:41:02 37.9003 -78.8659 435 21.9 41.8 1015.3 #ffc400
7 Zinc 2019-06-04 18:55:33 37.9003 -78.8659 435.2 22.2 41.7 1015.3 #ffc300
7 Zinc 2019-06-04 19:10:04 37.9003 -78.8659 435.8 22.3 42 1015.2 #ffc000
7 Zinc 2019-06-04 19:24:35 37.9003 -78.8659 435 22.7 41.1 1015.4 #ffc400
7 Zinc 2019-06-04 19:39:06 37.9003 -78.8659 434.2 22.7 41.1 1015.3 #ffc700
7 Zinc 2019-06-04 19:53:37 37.9003 -78.8659 437 23.1 40.6 1015.3 #ffbc00
7 Zinc 2019-06-04 20:08:08 37.9003 -78.8659 435 23 41 1015.3 #ffc400
7 Zinc 2019-06-04 20:22:39 37.9003 -78.8659 434.7 23.1 41.1 1015.3 #ffc500
7 Zinc 2019-06-04 20:37:10 37.9003 -78.8659 438 23.2 41.4 1015.2 #ffb800
7 Zinc 2019-06-04 20:51:41 37.9003 -78.8659 439 23.7 40.8 1015 #ffb400
7 Zinc 2019-06-04 21:06:12 37.9003 -78.8659 438.2 23.5 41.8 1014.9 #ffb700
7 Zinc 2019-06-04 21:20:43 37.9003 -78.8659 435.7 23.5 42.2 1014.8 #ffc100
7 Zinc 2019-06-04 21:35:14 37.9003 -78.8659 432 23.9 41.5 1014.8 #ffcf00
7 Zinc 2019-06-04 21:49:45 37.9003 -78.8659 431.8 23.6 42.1 1014.9 #ffd000
7 Zinc 2019-06-04 22:04:16 37.9003 -78.8659 432 23.7 42.2 1014.9 #ffcf00
7 Zinc 2019-06-04 22:18:47 37.9003 -78.8659 432 23.5 42.3 1014.9 #ffcf00
7 Zinc 2019-06-04 22:33:18 37.9003 -78.8659 432.5 22.7 43.9 1015 #ffcd00
7 Zinc 2019-06-04 22:47:50 37.9003 -78.8659 436 21.8 46.6 1015 #ffc000
7 Zinc 2019-06-04 23:02:21 37.9003 -78.8659 439 20.8 49.6 1015.1 #ffb400
7 Zinc 2019-06-04 23:16:52 37.9003 -78.8659 439 20.7 50.4 1015 #ffb400
7 Zinc 2019-06-04 23:31:22 37.9003 -78.8659 440 20.4 51.5 1015.1 #ffb000
7 Zinc 2019-06-04 23:45:53 37.9003 -78.8659 440 20.4 51.8 1015.1 #ffb000
7 Zinc 2019-06-05 00:00:25 37.9003 -78.8659 438.5 20.3 52.3 1014.9 #ffb600
7 Zinc 2019-06-05 00:14:56 37.9003 -78.8659 438.2 20.4 52.9 1014.8 #ffb700
7 Zinc 2019-06-05 00:29:27 37.9003 -78.8659 440 20.6 52.2 1015 #ffb000
7 Zinc 2019-06-05 00:43:58 37.9003 -78.8659 440.2 22 48 1014.9 #ffaf00
7 Zinc 2019-06-05 00:58:29 37.9003 -78.8659 440 22 47.8 1014.8 #ffb000
7 Zinc 2019-06-05 01:13:00 37.9003 -78.8659 438.3 22.6 46.6 1014.8 #ffb700
7 Zinc 2019-06-05 01:27:31 37.9003 -78.8659 441.2 21.6 49 1014.7 #ffab00
7 Zinc 2019-06-05 01:42:02 37.9003 -78.8659 441.2 20.8 51.3 1014.4 #ffab00
7 Zinc 2019-06-05 01:56:33 37.9003 -78.8659 438.5 22.2 47.6 1014.2 #ffb600
7 Zinc 2019-06-05 02:11:04 37.9003 -78.8659 437.7 22.5 46.5 1014 #ffb900
7 Zinc 2019-06-05 02:25:35 37.9003 -78.8659 436 22.2 46.9 1013.9 #ffc000
7 Zinc 2019-06-05 02:40:06 37.9003 -78.8659 438 21.3 49.4 1013.7 #ffb800
7 Zinc 2019-06-05 02:54:37 37.9003 -78.8659 436.7 22.4 46.8 1013.5 #ffbd00
7 Zinc 2019-06-05 03:09:07 37.9003 -78.8659 434.3 22.5 46.8 1013.3 #ffc600
7 Zinc 2019-06-05 03:23:38 37.9003 -78.8659 436.7 22.3 47.5 1013.1 #ffbd00
7 Zinc 2019-06-05 03:38:10 37.9003 -78.8659 437.5 21.5 50.2 1012.9 #ffba00
7 Zinc 2019-06-05 03:52:41 37.9003 -78.8659 437 22.3 48 1012.9 #ffbc00
7 Zinc 2019-06-05 04:07:12 37.9003 -78.8659 438.5 22.5 47.8 1012.9 #ffb600
7 Zinc 2019-06-05 04:21:43 37.9003 -78.8659 441 22.1 48.8 1013 #ffac00
7 Zinc 2019-06-05 04:36:14 37.9003 -78.8659 443.2 21.6 50.3 1012.9 #ffa400
7 Zinc 2019-06-05 04:50:45 37.9003 -78.8659 442.5 22 49.4 1013 #ffa600
7 Zinc 2019-06-05 05:05:16 37.9003 -78.8659 444.2 22.5 48.3 1012.8 #ffa000
7 Zinc 2019-06-05 05:19:47 37.9003 -78.8659 444 22.3 49 1012.8 #ffa000
7 Zinc 2019-06-05 05:34:18 37.9003 -78.8659 445.7 21.9 50.3 1012.8 #ff9a00
7 Zinc 2019-06-05 05:48:49 37.9003 -78.8659 449 21.9 50.3 1012.7 #ff8d00
7 Zinc 2019-06-05 06:03:20 37.9003 -78.8659 450.8 22.6 48.3 1012.5 #ff8600
7 Zinc 2019-06-05 06:17:51 37.9003 -78.8659 453.7 22.7 48.1 1012.5 #ff7a00
7 Zinc 2019-06-05 06:32:22 37.9003 -78.8659 454.8 22.6 48.3 1012.6 #ff7600
7 Zinc 2019-06-05 06:46:53 37.9003 -78.8659 454.8 22.8 48.1 1012.5 #ff7600
7 Zinc 2019-06-05 07:01:24 37.9003 -78.8659 457 22.6 48.5 1012.5 #ff6d00
7 Zinc 2019-06-05 07:15:55 37.9003 -78.8659 459.2 22.7 48.4 1012.5 #ff6500
7 Zinc 2019-06-05 07:30:26 37.9003 -78.8659 462.7 23 47.8 1012.5 #ff5700
7 Zinc 2019-06-05 07:44:57 37.9003 -78.8659 464.8 23 47.9 1012.5 #ff4f00
7 Zinc 2019-06-05 07:59:28 37.9003 -78.8659 466 22.9 48.1 1012.8 #ff4a00
7 Zinc 2019-06-05 08:13:59 37.9003 -78.8659 469.5 23.2 47.6 1012.6 #ff3c00
7 Zinc 2019-06-05 08:28:30 37.9003 -78.8659 465.8 23 48 1012.3 #ff4b00
7 Zinc 2019-06-05 08:43:01 37.9003 -78.8659 462.3 22.5 49.6 1012.3 #ff5800
7 Zinc 2019-06-05 08:57:32 37.9003 -78.8659 459.3 23.2 48 1012.3 #ff6400
7 Zinc 2019-06-05 09:12:03 37.9003 -78.8659 456.3 22.8 49.1 1012.3 #ff7000
7 Zinc 2019-06-05 09:26:34 37.9003 -78.8659 454 22.7 49.4 1012.4 #ff7900
7 Zinc 2019-06-05 09:41:05 37.9003 -78.8659 454.2 22.7 49.4 1012 #ff7800
7 Zinc 2019-06-05 09:55:36 37.9003 -78.8659 455.3 22.7 49.6 1011.7 #ff7400
7 Zinc 2019-06-05 10:10:07 37.9003 -78.8659 453.7 22.9 49.2 1011.6 #ff7a00
7 Zinc 2019-06-05 10:24:38 37.9003 -78.8659 450 22.6 49.2 1011.3 #ff8900
7 Zinc 2019-06-05 10:39:09 37.9003 -78.8659 449.3 22.9 48.7 1011.2 #ff8b00
7 Zinc 2019-06-05 10:53:40 37.9003 -78.8659 446.5 22.8 49.2 1011.1 #ff9700
7 Zinc 2019-06-05 11:08:11 37.9003 -78.8659 445.5 23 48.6 1010.9 #ff9a00
7 Zinc 2019-06-05 11:22:42 37.9003 -78.8659 446 23 48.9 1010.6 #ff9900
7 Zinc 2019-06-05 11:37:13 37.9003 -78.8659 447.5 23.1 49 1011 #ff9300
7 Zinc 2019-06-05 11:51:45 37.9003 -78.8659 446 22.7 50.2 1010.9 #ff9900
7 Zinc 2019-06-05 12:06:15 37.9003 -78.8659 444 22.7 50.1 1010.8 #ffa000
7 Zinc 2019-06-05 12:20:46 37.9003 -78.8659 442.7 22.5 50.9 1010.3 #ffa600
7 Zinc 2019-06-05 12:35:18 37.9003 -78.8659 442 22.6 50.7 1010.2 #ffa800
7 Zinc 2019-06-05 12:49:49 37.9003 -78.8659 441.8 22.8 50.1 1010 #ffa900
7 Zinc 2019-06-05 13:04:19 37.9003 -78.8659 440.3 22.9 49.7 1009.9 #ffaf00
7 Zinc 2019-06-05 13:18:50 37.9003 -78.8659 440 22.8 49.9 1009.8 #ffb000
7 Zinc 2019-06-05 13:33:21 37.9003 -78.8659 439.3 22.8 50.2 1009.7 #ffb300
7 Zinc 2019-06-05 13:47:52 37.9003 -78.8659 438 22.8 50.3 1009.6 #ffb800
7 Zinc 2019-06-05 14:02:23 37.9003 -78.8659 436.8 22.9 49.6 1009.6 #ffbc00
7 Zinc 2019-06-05 14:16:54 37.9003 -78.8659 439 23.1 49.3 1009.3 #ffb400
7 Zinc 2019-06-05 14:31:26 37.9003 -78.8659 438.7 22.7 50.3 1009.3 #ffb500
7 Zinc 2019-06-05 14:45:56 37.9003 -78.8659 435.2 22.9 49.8 1009 #ffc300
7 Zinc 2019-06-05 15:00:28 37.9003 -78.8659 435 23 49.6 1008.8 #ffc400
7 Zinc 2019-06-05 15:14:59 37.9003 -78.8659 435 23 49.7 1008.6 #ffc400
7 Zinc 2019-06-05 15:29:30 37.9003 -78.8659 437 23 49.8 1008.4 #ffbc00
7 Zinc 2019-06-05 15:44:00 37.9003 -78.8659 475.8 23.4 49.2 1008.1 #ff2300
7 Zinc 2019-06-05 15:58:32 37.9003 -78.8659 472.2 24 47.6 1007.9 #ff3200
7 Zinc 2019-06-05 16:13:03 37.9003 -78.8659 460.2 23.3 48.8 1007.9 #ff6100
7 Zinc 2019-06-05 16:27:34 37.9003 -78.8659 465.3 25 44.5 1007.5 #ff4d00
6 Lanthanum 2019-02-23 15:10:55 37.9003 -78.8659 437 5.6 90.9 1001.6 #ffbc00
6 Lanthanum 2019-02-23 15:25:41 37.9003 -78.8659 435.8 5.5 89.5 1001.3 #ffc000
6 Lanthanum 2019-02-23 15:40:18 37.9003 -78.8659 430.3 5.6 89.7 1000.9 #ffd600
6 Lanthanum 2019-02-23 15:54:54 37.9003 -78.8659 435 5.5 89.2 1000.6 #ffc400
6 Lanthanum 2019-02-23 16:09:30 37.9003 -78.8659 435 5.6 89.3 1000.2 #ffc400
6 Lanthanum 2019-02-23 16:24:06 37.9003 -78.8659 434.8 5.5 90.1 999.8 #ffc400
6 Lanthanum 2019-02-23 16:38:42 37.9003 -78.8659 434.7 5.6 91 999.3 #ffc500
6 Lanthanum 2019-02-23 16:53:18 37.9003 -78.8659 438.5 5.3 90.8 999.3 #ffb600
6 Lanthanum 2019-02-23 17:07:54 37.9003 -78.8659 435 5.3 90.4 1000 #ffc400
6 Lanthanum 2019-02-23 17:22:30 37.9003 -78.8659 437.2 5 90.1 1000.4 #ffbb00
6 Lanthanum 2019-02-23 17:37:09 37.9003 -78.8659 436 4.6 91.1 1000.3 #ffc000
6 Lanthanum 2019-02-23 17:51:45 37.9003 -78.8659 433.3 4.3 91.5 999.8 #ffca00
6 Lanthanum 2019-02-23 18:06:21 37.9003 -78.8659 438.3 4.2 91.8 1000.1 #ffb700
6 Lanthanum 2019-02-23 18:20:57 37.9003 -78.8659 437.2 4 92.3 1000 #ffbb00
6 Lanthanum 2019-02-23 18:35:33 37.9003 -78.8659 438.7 4.2 92.9 1000 #ffb500
6 Lanthanum 2019-02-23 18:50:09 37.9003 -78.8659 438 4.2 92.6 999.9 #ffb800
6 Lanthanum 2019-02-23 19:04:45 37.9003 -78.8659 441.8 4.1 93.3 999.2 #ffa900
6 Lanthanum 2019-02-23 19:19:21 37.9003 -78.8659 436 4.2 92.2 998.8 #ffc000
6 Lanthanum 2019-02-23 19:33:57 37.9003 -78.8659 440.8 4.2 92.5 998.9 #ffad00
6 Lanthanum 2019-02-23 19:48:33 37.9003 -78.8659 435 4.2 91.9 999 #ffc400
6 Lanthanum 2019-02-23 20:03:09 37.9003 -78.8659 433 4.2 92.1 999.1 #ffcc00
6 Lanthanum 2019-02-23 20:17:45 37.9003 -78.8659 437 4.1 92.4 999.4 #ffbc00
6 Lanthanum 2019-02-23 20:32:21 37.9003 -78.8659 436 4.1 92.4 999 #ffc000
6 Lanthanum 2019-02-23 20:46:57 37.9003 -78.8659 435.5 3.9 92.6 998.9 #ffc200
6 Lanthanum 2019-02-23 21:01:33 37.9003 -78.8659 436 3.9 93.1 999.1 #ffc000
6 Lanthanum 2019-02-23 21:16:09 37.9003 -78.8659 438.8 3.9 93.3 998.5 #ffb500
6 Lanthanum 2019-02-23 21:30:46 37.9003 -78.8659 435.5 3.9 93.1 998.5 #ffc200
6 Lanthanum 2019-02-23 21:45:21 37.9003 -78.8659 451.5 4 92.8 998.3 #ff8300
6 Lanthanum 2019-02-23 21:59:58 37.9003 -78.8659 438 4 93.6 998 #ffb800
6 Lanthanum 2019-02-23 22:14:34 37.9003 -78.8659 435 4.1 93.5 998 #ffc400
6 Lanthanum 2019-02-23 22:29:10 37.9003 -78.8659 436.5 4 92.7 997.3 #ffbe00
6 Lanthanum 2019-02-23 22:43:46 37.9003 -78.8659 433.5 4 92.6 997.2 #ffca00
6 Lanthanum 2019-02-23 22:58:21 37.9003 -78.8659 436 4 91.8 996.9 #ffc000
6 Lanthanum 2019-02-23 23:12:57 37.9003 -78.8659 435 3.9 92 995.8 #ffc400
6 Lanthanum 2019-02-23 23:27:33 37.9003 -78.8659 435 3.9 92.1 995.6 #ffc400
6 Lanthanum 2019-02-23 23:42:09 37.9003 -78.8659 435.2 4 92.8 995.9 #ffc300
6 Lanthanum 2019-02-23 23:56:46 37.9003 -78.8659 438.2 4.2 93.2 996 #ffb700
6 Lanthanum 2019-02-24 00:11:22 37.9003 -78.8659 435.7 4.2 92.9 995.6 #ffc100
6 Lanthanum 2019-02-24 00:25:58 37.9003 -78.8659 435.5 4.2 92.4 995.7 #ffc200
6 Lanthanum 2019-02-24 00:40:34 37.9003 -78.8659 437 4.1 91.8 995.1 #ffbc00
6 Lanthanum 2019-02-24 00:55:10 37.9003 -78.8659 435.3 3.8 94 994 #ffc200
6 Lanthanum 2019-02-24 01:09:46 37.9003 -78.8659 435 3.9 93.9 993.4 #ffc400
6 Lanthanum 2019-02-24 01:24:22 37.9003 -78.8659 436 3.9 93.8 993.4 #ffc000
6 Lanthanum 2019-02-24 01:38:58 37.9003 -78.8659 436 4 93.5 993.1 #ffc000
6 Lanthanum 2019-02-24 01:53:34 37.9003 -78.8659 435 4 93.3 992.8 #ffc400
6 Lanthanum 2019-02-24 02:08:10 37.9003 -78.8659 438.8 4 93.4 992.7 #ffb500
6 Lanthanum 2019-02-24 02:22:46 37.9003 -78.8659 435 4 93.3 992.1 #ffc400
6 Lanthanum 2019-02-24 02:37:22 37.9003 -78.8659 439 4.1 93.7 991.7 #ffb400
6 Lanthanum 2019-02-24 02:51:58 37.9003 -78.8659 435 4 93.5 991 #ffc400
6 Lanthanum 2019-02-24 03:06:34 37.9003 -78.8659 435 3.9 93.2 991.2 #ffc400
6 Lanthanum 2019-02-24 03:21:10 37.9003 -78.8659 440.8 3.9 93.9 990.6 #ffad00
6 Lanthanum 2019-02-24 03:35:47 37.9003 -78.8659 436 3.8 94.2 990.1 #ffc000
6 Lanthanum 2019-02-24 03:50:23 37.9003 -78.8659 436 3.9 93.9 989.9 #ffc000
6 Lanthanum 2019-02-24 04:04:59 37.9003 -78.8659 437 4 93.5 989.6 #ffbc00
6 Lanthanum 2019-02-24 04:19:35 37.9003 -78.8659 435.5 4.1 93.9 989.5 #ffc200
6 Lanthanum 2019-02-24 04:34:11 37.9003 -78.8659 436.7 3.9 93.7 989.6 #ffbd00
6 Lanthanum 2019-02-24 04:48:47 37.9003 -78.8659 437.7 4.1 94.1 988.8 #ffb900
6 Lanthanum 2019-02-24 05:03:23 37.9003 -78.8659 434 4.1 93.7 988.5 #ffc800
6 Lanthanum 2019-02-24 05:17:59 37.9003 -78.8659 433.7 4 93.1 988.2 #ffc900
6 Lanthanum 2019-02-24 05:32:35 37.9003 -78.8659 435.3 4 93.7 988.1 #ffc200
6 Lanthanum 2019-02-24 05:47:11 37.9003 -78.8659 435.7 4.1 93.3 987.8 #ffc100
6 Lanthanum 2019-02-24 06:01:47 37.9003 -78.8659 434 4 93.5 987.2 #ffc800
6 Lanthanum 2019-02-24 06:16:23 37.9003 -78.8659 432.3 4 93.6 987 #ffce00
6 Lanthanum 2019-02-24 06:30:59 37.9003 -78.8659 440 4.1 93.3 986.1 #ffb000
6 Lanthanum 2019-02-24 06:45:35 37.9003 -78.8659 443.2 4.2 92.9 986 #ffa400
6 Lanthanum 2019-02-24 07:00:11 37.9003 -78.8659 441.5 4.2 93 985.5 #ffaa00
6 Lanthanum 2019-02-24 07:14:47 37.9003 -78.8659 438.2 4.3 93.7 985.5 #ffb700
6 Lanthanum 2019-02-24 07:29:23 37.9003 -78.8659 429.5 4.4 93.3 985.4 #ffd900
6 Lanthanum 2019-02-24 07:43:59 37.9003 -78.8659 436.3 4.7 92.2 985.1 #ffbe00
6 Lanthanum 2019-02-24 07:58:35 37.9003 -78.8659 431 4.8 92.1 985.1 #ffd300
6 Lanthanum 2019-02-24 08:13:11 37.9003 -78.8659 431 5 92.6 984.7 #ffd300
6 Lanthanum 2019-02-24 08:27:47 37.9003 -78.8659 431.8 5.2 92 984.7 #ffd000
6 Lanthanum 2019-02-24 08:42:23 37.9003 -78.8659 432.2 5.4 91.2 983.9 #ffcf00
6 Lanthanum 2019-02-24 08:56:59 37.9003 -78.8659 435.2 5.6 92 983.7 #ffc300
6 Lanthanum 2019-02-24 09:11:35 37.9003 -78.8659 432 5.8 89.4 983.1 #ffcf00
6 Lanthanum 2019-02-24 09:26:11 37.9003 -78.8659 431.2 6.1 90.4 982.8 #ffd300
6 Lanthanum 2019-02-24 09:40:47 37.9003 -78.8659 431.7 6.7 87.3 982.5 #ffd100
6 Lanthanum 2019-02-24 09:55:24 37.9003 -78.8659 435 6.9 87 982.4 #ffc400
6 Lanthanum 2019-02-24 10:10:00 37.9003 -78.8659 428.7 7.6 85.2 981.8 #ffdc00
6 Lanthanum 2019-02-24 10:24:36 37.9003 -78.8659 431 8.4 87.2 981.9 #ffd300
6 Lanthanum 2019-02-24 10:39:12 37.9003 -78.8659 428.2 9.6 80.7 981.3 #ffde00
6 Lanthanum 2019-02-24 10:53:48 37.9003 -78.8659 427 9.6 80.3 980.6 #ffe300
6 Lanthanum 2019-02-24 11:08:24 37.9003 -78.8659 426.8 10 83.7 980.1 #ffe400
6 Lanthanum 2019-02-24 11:23:00 37.9003 -78.8659 427 10.9 79.7 979.8 #ffe300
6 Lanthanum 2019-02-24 11:37:36 37.9003 -78.8659 425 11.3 77.9 979.5 #ffeb00
6 Lanthanum 2019-02-24 11:52:12 37.9003 -78.8659 423.2 11.2 79.2 979.3 #fff200
6 Lanthanum 2019-02-24 12:06:48 37.9003 -78.8659 422 11 79.8 978.8 #fff700
6 Lanthanum 2019-02-24 12:21:24 37.9003 -78.8659 422 11.6 77 978.5 #fff700
6 Lanthanum 2019-02-24 12:36:00 37.9003 -78.8659 424 11.4 77 978.3 #ffef00
6 Lanthanum 2019-02-24 12:50:36 37.9003 -78.8659 422 11.4 76.4 977.8 #fff700
6 Lanthanum 2019-02-24 13:05:12 37.9003 -78.8659 423 11.5 78.7 977.6 #fff300
6 Lanthanum 2019-02-24 13:19:53 37.9003 -78.8659 420.5 11.9 76.4 977.4 #fffd00
6 Lanthanum 2019-02-24 13:34:29 37.9003 -78.8659 421.2 12.2 75.8 977.5 #fffa00
6 Lanthanum 2019-02-24 13:49:05 37.9003 -78.8659 420.5 12.7 74.7 977.3 #fffd00
6 Lanthanum 2019-02-24 14:03:40 37.9003 -78.8659 423 12.2 77.1 977.4 #fff300
6 Lanthanum 2019-02-24 14:18:16 37.9003 -78.8659 421.5 12.7 75.8 977.3 #fff900
6 Lanthanum 2019-02-24 14:32:53 37.9003 -78.8659 424 13.3 74.5 977.3 #ffef00
6 Lanthanum 2019-02-24 14:47:29 37.9003 -78.8659 422 13.8 75 977.3 #fff700
6 Lanthanum 2019-02-24 15:02:05 37.9003 -78.8659 419.2 14.7 74.7 977.4 #fbff00
6 Lanthanum 2019-02-24 15:16:41 37.9003 -78.8659 418 16.3 66.9 977.4 #f7ff00
6 Lanthanum 2019-02-24 15:31:16 37.9003 -78.8659 413.5 17.3 53 977.4 #e7ff00
6 Lanthanum 2019-02-24 15:45:52 37.9003 -78.8659 408.8 18.1 40.4 977.7 #d6ff00
6 Lanthanum 2019-02-24 16:00:28 37.9003 -78.8659 408 18.2 37.3 978.2 #d3ff00
6 Lanthanum 2019-02-24 16:15:04 37.9003 -78.8659 409.8 18 35.5 978.6 #d9ff00
6 Lanthanum 2019-02-24 16:29:41 37.9003 -78.8659 407 17.7 31.4 978.9 #cfff00
6 Lanthanum 2019-02-24 16:44:17 37.9003 -78.8659 408 17.3 30 979.3 #d3ff00
6 Lanthanum 2019-02-24 16:58:53 37.9003 -78.8659 406.8 16.8 30.1 979.8 #cfff00
6 Lanthanum 2019-02-24 17:13:29 37.9003 -78.8659 407.5 16.2 30.3 980.3 #d1ff00
6 Lanthanum 2019-02-24 17:28:05 37.9003 -78.8659 410 15.5 32 981 #daff00
6 Lanthanum 2019-02-24 17:42:42 37.9003 -78.8659 410 14.6 33.5 981.8 #daff00
6 Lanthanum 2019-02-24 17:57:18 37.9003 -78.8659 410.8 13.8 31.1 982.6 #ddff00
6 Lanthanum 2019-02-24 18:11:59 37.9003 -78.8659 411 12.9 31.7 983.4 #deff00
6 Lanthanum 2019-02-24 18:26:35 37.9003 -78.8659 412 12.1 33.2 983.7 #e1ff00
6 Lanthanum 2019-02-24 18:41:11 37.9003 -78.8659 410 11.8 32.8 984.2 #daff00
6 Lanthanum 2019-02-24 18:55:47 37.9003 -78.8659 406.8 11.3 30 984.8 #cfff00
6 Lanthanum 2019-02-24 19:10:23 37.9003 -78.8659 409.7 10.8 31.8 985.2 #d9ff00
6 Lanthanum 2019-02-24 19:24:59 37.9003 -78.8659 410.8 10.4 31.8 985.7 #ddff00
6 Lanthanum 2019-02-24 19:39:35 37.9003 -78.8659 410 10.1 33 985.8 #daff00
6 Lanthanum 2019-02-24 19:54:11 37.9003 -78.8659 408.5 9.9 30.9 986.1 #d5ff00
6 Lanthanum 2019-02-24 20:08:47 37.9003 -78.8659 410 9.4 32.1 986.1 #daff00
6 Lanthanum 2019-02-24 20:23:45 37.9003 -78.8659 410 9 31.3 986.1 #daff00
6 Lanthanum 2019-02-24 20:38:21 37.9003 -78.8659 411 8.8 30.8 986.1 #deff00
6 Lanthanum 2019-02-24 20:52:57 37.9003 -78.8659 410 8.4 32.5 986.2 #daff00
6 Lanthanum 2019-02-24 21:07:33 37.9003 -78.8659 405.5 8.5 28 986.5 #caff00
6 Lanthanum 2019-02-24 21:22:09 37.9003 -78.8659 408 8.4 28 986.5 #d3ff00
6 Lanthanum 2019-02-24 21:36:45 37.9003 -78.8659 408 8.3 28.3 986.6 #d3ff00
6 Lanthanum 2019-02-24 21:51:21 37.9003 -78.8659 408 8.2 27.8 986.7 #d3ff00
6 Lanthanum 2019-02-24 22:05:57 37.9003 -78.8659 408 7.7 27.7 986.5 #d3ff00
6 Lanthanum 2019-02-24 22:20:33 37.9003 -78.8659 408 7.6 27.7 986.9 #d3ff00
6 Lanthanum 2019-02-24 22:35:09 37.9003 -78.8659 406.5 7.7 25.8 986.6 #cdff00
6 Lanthanum 2019-02-24 22:49:50 37.9003 -78.8659 406 7.8 24.8 986.6 #ccff00
6 Lanthanum 2019-02-24 23:04:26 37.9003 -78.8659 401.5 7.8 25.8 986.9 #bbff00
6 Lanthanum 2019-02-24 23:19:02 37.9003 -78.8659 406 7.5 25.9 986.8 #ccff00
6 Lanthanum 2019-02-24 23:33:38 37.9003 -78.8659 407 7.7 25 986.5 #cfff00
6 Lanthanum 2019-02-24 23:48:14 37.9003 -78.8659 410.8 7.6 25.4 987 #ddff00
6 Lanthanum 2019-02-25 00:02:50 37.9003 -78.8659 407 7.4 25.6 987.4 #cfff00
6 Lanthanum 2019-02-25 00:17:26 37.9003 -78.8659 405 7.4 25 987.3 #c8ff00
6 Lanthanum 2019-02-25 00:32:02 37.9003 -78.8659 406 7.1 25.1 987.4 #ccff00
6 Lanthanum 2019-02-25 00:46:38 37.9003 -78.8659 407 7 25.8 987.9 #cfff00
6 Lanthanum 2019-02-25 01:01:14 37.9003 -78.8659 406 6.8 26.6 987.9 #ccff00
6 Lanthanum 2019-02-25 01:15:50 37.9003 -78.8659 405.5 6.8 26.1 988 #caff00
6 Lanthanum 2019-02-25 01:30:26 37.9003 -78.8659 406.7 6.8 25.4 988.3 #ceff00
6 Lanthanum 2019-02-25 01:45:02 37.9003 -78.8659 406.7 6.7 25 988.4 #ceff00
6 Lanthanum 2019-02-25 01:59:38 37.9003 -78.8659 409.2 6.5 24.3 988.8 #d7ff00
6 Lanthanum 2019-02-25 02:14:15 37.9003 -78.8659 406 6 25.1 988.5 #ccff00
6 Lanthanum 2019-02-25 02:28:52 37.9003 -78.8659 407 5.8 24.8 988.3 #cfff00
6 Lanthanum 2019-02-25 02:43:28 37.9003 -78.8659 407.2 5.6 26.3 988.9 #d0ff00
6 Lanthanum 2019-02-25 02:58:04 37.9003 -78.8659 407.3 5.3 27.8 989.2 #d0ff00
6 Lanthanum 2019-02-25 03:12:39 37.9003 -78.8659 407 5.5 27.2 989.2 #cfff00
6 Lanthanum 2019-02-25 03:27:15 37.9003 -78.8659 405.2 5.2 28.8 989.7 #c8ff00
6 Lanthanum 2019-02-25 03:41:56 37.9003 -78.8659 407 5 28.2 989.4 #cfff00
6 Lanthanum 2019-02-25 03:56:32 37.9003 -78.8659 407 5.2 25.9 989.3 #cfff00
6 Lanthanum 2019-02-25 04:11:09 37.9003 -78.8659 408.8 5.3 24.7 989.9 #d6ff00
6 Lanthanum 2019-02-25 04:25:51 37.9003 -78.8659 407 5 25.8 990.1 #cfff00
6 Lanthanum 2019-02-25 04:40:27 37.9003 -78.8659 410.3 4.6 26 990.3 #dbff00
6 Lanthanum 2019-02-25 04:55:03 37.9003 -78.8659 408.7 4.3 26.8 990.6 #d5ff00
6 Lanthanum 2019-02-25 05:09:47 37.9003 -78.8659 406.3 4.4 25.8 990.8 #cdff00
6 Lanthanum 2019-02-25 05:24:23 37.9003 -78.8659 407 4.6 23.7 991.5 #cfff00
6 Lanthanum 2019-02-25 05:38:59 37.9003 -78.8659 404.8 4.7 23.7 991.7 #c7ff00
6 Lanthanum 2019-02-25 05:53:36 37.9003 -78.8659 407 4.7 21.8 992.1 #cfff00
6 Lanthanum 2019-02-25 06:08:12 37.9003 -78.8659 408.2 4.5 23.2 992.2 #d3ff00
6 Lanthanum 2019-02-25 06:22:53 37.9003 -78.8659 406.8 4.5 22.5 992.3 #cfff00
6 Lanthanum 2019-02-25 06:37:29 37.9003 -78.8659 407 4.4 24.1 992.9 #cfff00
6 Lanthanum 2019-02-25 06:52:08 37.9003 -78.8659 408.8 4.1 24.4 993.4 #d6ff00
6 Lanthanum 2019-02-25 07:06:44 37.9003 -78.8659 408.7 4 24.4 993.4 #d5ff00
6 Lanthanum 2019-02-25 07:21:20 37.9003 -78.8659 414.7 4.2 24.7 993.9 #ebff00
6 Lanthanum 2019-02-25 07:35:56 37.9003 -78.8659 407 4.7 23.8 994 #cfff00
6 Lanthanum 2019-02-25 07:50:32 37.9003 -78.8659 408 5 22.8 994.2 #d3ff00
6 Lanthanum 2019-02-25 08:05:08 37.9003 -78.8659 407 5.5 22.5 994.9 #cfff00
6 Lanthanum 2019-02-25 08:19:44 37.9003 -78.8659 407 5.8 20.9 995 #cfff00
6 Lanthanum 2019-02-25 08:34:20 37.9003 -78.8659 407.7 6 21.4 995.6 #d2ff00
6 Lanthanum 2019-02-25 08:48:57 37.9003 -78.8659 406.8 6.3 21.4 996 #cfff00
6 Lanthanum 2019-02-25 09:03:33 37.9003 -78.8659 407.8 6.4 21.2 996.3 #d2ff00
6 Lanthanum 2019-02-25 09:18:09 37.9003 -78.8659 407.8 6.7 20.5 996.5 #d2ff00
6 Lanthanum 2019-02-25 09:32:45 37.9003 -78.8659 411.7 7 20.1 996.9 #e0ff00
6 Lanthanum 2019-02-25 09:47:21 37.9003 -78.8659 406.5 7.4 19.3 997.2 #cdff00
6 Lanthanum 2019-02-25 10:01:57 37.9003 -78.8659 405.7 7.6 19.1 997.5 #caff00
6 Lanthanum 2019-02-25 10:16:33 37.9003 -78.8659 407 8 17.8 997.7 #cfff00
6 Lanthanum 2019-02-25 10:31:10 37.9003 -78.8659 407 8.2 19.4 997.8 #cfff00
6 Lanthanum 2019-02-25 10:45:46 37.9003 -78.8659 406 8.8 17.4 997.8 #ccff00
6 Lanthanum 2019-02-25 11:00:32 37.9003 -78.8659 408 9.1 16.4 997.9 #d3ff00
6 Lanthanum 2019-02-25 11:15:08 37.9003 -78.8659 408.5 9.2 16.8 998.2 #d5ff00
6 Lanthanum 2019-02-25 11:29:44 37.9003 -78.8659 407 9.5 17.6 998.6 #cfff00
6 Lanthanum 2019-02-25 11:44:20 37.9003 -78.8659 407 9.8 15 998.6 #cfff00
6 Lanthanum 2019-02-25 11:58:56 37.9003 -78.8659 406.2 10 16.5 998.8 #ccff00
6 Lanthanum 2019-02-25 12:13:32 37.9003 -78.8659 403.7 10.3 14.8 998.9 #c3ff00
6 Lanthanum 2019-02-25 12:28:08 37.9003 -78.8659 406 10.6 14.7 998.9 #ccff00
6 Lanthanum 2019-02-25 12:42:44 37.9003 -78.8659 404.8 10.7 13.7 998.6 #c7ff00
6 Lanthanum 2019-02-25 12:57:20 37.9003 -78.8659 407.2 11.2 14.1 998.5 #d0ff00
6 Lanthanum 2019-02-25 13:11:56 37.9003 -78.8659 406 11.5 13.6 998.4 #ccff00
6 Lanthanum 2019-02-25 13:26:32 37.9003 -78.8659 405 11.4 12.7 998.4 #c8ff00
6 Lanthanum 2019-02-25 13:41:08 37.9003 -78.8659 400.2 11.8 13.5 998.5 #b6ff00
6 Lanthanum 2019-02-25 13:55:49 37.9003 -78.8659 404 12 13.8 998.4 #c4ff00
6 Lanthanum 2019-02-25 14:10:26 37.9003 -78.8659 406 12.4 14.2 998.2 #ccff00
6 Lanthanum 2019-02-25 14:25:02 37.9003 -78.8659 405.5 12.4 13.9 998.3 #caff00
6 Lanthanum 2019-02-25 14:39:37 37.9003 -78.8659 404 12.4 12.9 998.5 #c4ff00
6 Lanthanum 2019-02-25 14:54:14 37.9003 -78.8659 405 12.4 12.7 998.5 #c8ff00
6 Lanthanum 2019-02-25 15:08:49 37.9003 -78.8659 404.8 12.4 12.8 998.5 #c7ff00
6 Lanthanum 2019-02-25 15:23:25 37.9003 -78.8659 405.5 12.5 12.9 998.9 #caff00
6 Lanthanum 2019-02-25 15:38:02 37.9003 -78.8659 405 12.4 13.9 998.8 #c8ff00
6 Lanthanum 2019-02-25 15:52:38 37.9003 -78.8659 405 12.5 14.6 999 #c8ff00
6 Lanthanum 2019-02-25 16:07:13 37.9003 -78.8659 407 12.5 13.5 999.3 #cfff00
6 Lanthanum 2019-02-25 16:21:49 37.9003 -78.8659 405 12.3 14.1 999.7 #c8ff00
6 Lanthanum 2019-02-25 16:36:25 37.9003 -78.8659 409.8 12 15.1 1000 #d9ff00
6 Lanthanum 2019-02-25 16:51:02 37.9003 -78.8659 407 11.6 16.2 1000.1 #cfff00
6 Lanthanum 2019-02-25 17:05:38 37.9003 -78.8659 407 11.4 16 1000.5 #cfff00
6 Lanthanum 2019-02-25 17:20:14 37.9003 -78.8659 407 10.8 16.8 1000.6 #cfff00
6 Lanthanum 2019-02-25 17:34:50 37.9003 -78.8659 406.3 10.2 18 1000.7 #cdff00
6 Lanthanum 2019-02-25 17:49:25 37.9003 -78.8659 409.8 9.8 18.5 1000.9 #d9ff00
6 Lanthanum 2019-02-25 18:04:01 37.9003 -78.8659 409.8 9.3 20.1 1000.9 #d9ff00
6 Lanthanum 2019-02-25 18:18:38 37.9003 -78.8659 412.3 9.1 19.8 1001.4 #e3ff00
6 Lanthanum 2019-02-25 18:33:13 37.9003 -78.8659 411 8.6 20.5 1001.4 #deff00
6 Lanthanum 2019-02-25 18:47:50 37.9003 -78.8659 412.2 8.3 21.2 1001.5 #e2ff00
6 Lanthanum 2019-02-25 19:17:02 37.9003 -78.8659 411.3 7.7 20.9 1001.7 #dfff00
6 Lanthanum 2019-02-25 19:31:38 37.9003 -78.8659 411 7.4 21.6 1002 #deff00
6 Lanthanum 2019-02-25 19:46:14 37.9003 -78.8659 411 7.5 21.9 1002 #deff00
6 Lanthanum 2019-02-25 20:00:50 37.9003 -78.8659 412 7.4 22.5 1002.2 #e1ff00
6 Lanthanum 2019-02-25 20:15:26 37.9003 -78.8659 413.3 6.9 24.1 1002.3 #e6ff00
6 Lanthanum 2019-02-25 20:30:02 37.9003 -78.8659 415 6.6 25.9 1002.4 #ecff00
6 Lanthanum 2019-02-25 20:44:38 37.9003 -78.8659 413 6.4 25.9 1002.6 #e5ff00
6 Lanthanum 2019-02-25 20:59:14 37.9003 -78.8659 415 6.4 26.1 1002.7 #ecff00
6 Lanthanum 2019-02-25 21:13:50 37.9003 -78.8659 413 6.3 27.1 1002.8 #e5ff00
6 Lanthanum 2019-02-25 21:28:26 37.9003 -78.8659 408 6.1 27.1 1003 #d3ff00
6 Lanthanum 2019-02-25 21:43:02 37.9003 -78.8659 415 5.8 28.8 1003.2 #ecff00
6 Lanthanum 2019-02-25 21:57:38 37.9003 -78.8659 415.2 5.5 29 1003.3 #edff00
6 Lanthanum 2019-02-25 22:12:14 37.9003 -78.8659 418 5.4 29.9 1003.4 #f7ff00
6 Lanthanum 2019-02-25 22:26:50 37.9003 -78.8659 416 5.1 30 1003.5 #f0ff00
6 Lanthanum 2019-02-25 22:41:26 37.9003 -78.8659 416.5 5.1 30.7 1003.8 #f2ff00
6 Lanthanum 2019-02-25 22:56:02 37.9003 -78.8659 417 4.7 31.9 1003.8 #f4ff00
6 Lanthanum 2019-02-25 23:10:38 37.9003 -78.8659 419 4.3 32.6 1003.9 #fbff00
6 Lanthanum 2019-02-25 23:25:14 37.9003 -78.8659 416 4.1 32.2 1004.1 #f0ff00
6 Lanthanum 2019-02-25 23:39:50 37.9003 -78.8659 412.5 4.1 32 1004.1 #e3ff00
6 Lanthanum 2019-02-25 23:54:25 37.9003 -78.8659 416 4.1 31.7 1004.2 #f0ff00
6 Lanthanum 2019-02-26 00:09:01 37.9003 -78.8659 414.8 4.2 31.6 1004.2 #ecff00
6 Lanthanum 2019-02-26 00:23:37 37.9003 -78.8659 415.7 4 31.7 1004.2 #efff00
6 Lanthanum 2019-02-26 00:38:13 37.9003 -78.8659 411.5 4.1 31.1 1004.2 #e0ff00
6 Lanthanum 2019-02-26 00:52:49 37.9003 -78.8659 415.5 3.9 31.9 1004.4 #eeff00
6 Lanthanum 2019-02-26 01:07:25 37.9003 -78.8659 415 3.7 32.3 1004.5 #ecff00
6 Lanthanum 2019-02-26 01:22:01 37.9003 -78.8659 419 3.5 32.7 1004.5 #fbff00
6 Lanthanum 2019-02-26 01:36:37 37.9003 -78.8659 415.8 3.2 33.1 1004.5 #efff00
6 Lanthanum 2019-02-26 01:51:13 37.9003 -78.8659 417.5 2.9 35.6 1004.6 #f5ff00
6 Lanthanum 2019-02-26 02:05:49 37.9003 -78.8659 423 2.2 39.8 1004.6 #fff300
6 Lanthanum 2019-02-26 02:20:25 37.9003 -78.8659 425 1.6 42.4 1004.6 #ffeb00
6 Lanthanum 2019-02-26 02:35:01 37.9003 -78.8659 427 1.2 43.9 1004.6 #ffe300
6 Lanthanum 2019-02-26 02:49:37 37.9003 -78.8659 427 0.8 45 1004.4 #ffe300
6 Lanthanum 2019-02-26 03:04:13 37.9003 -78.8659 429 0.5 47.4 1004.3 #ffdb00
6 Lanthanum 2019-02-26 03:18:49 37.9003 -78.8659 433 0.2 51.5 1004.5 #ffcc00
6 Lanthanum 2019-02-26 03:33:25 37.9003 -78.8659 430.5 -0.1 51.4 1004.3 #ffd500
6 Lanthanum 2019-02-26 03:48:02 37.9003 -78.8659 429 -0.4 53.2 1004.2 #ffdb00
6 Lanthanum 2019-02-26 04:02:37 37.9003 -78.8659 433 -0.5 55.4 1004.4 #ffcc00
6 Lanthanum 2019-02-26 04:17:13 37.9003 -78.8659 433 -0.8 57 1004.5 #ffcc00
6 Lanthanum 2019-02-26 04:31:49 37.9003 -78.8659 431 -1 56.7 1004.6 #ffd300
6 Lanthanum 2019-02-26 04:46:25 37.9003 -78.8659 433 -1.2 58.6 1004.6 #ffcc00
6 Lanthanum 2019-02-26 05:01:01 37.9003 -78.8659 431.3 -1.3 58 1004.8 #ffd200
6 Lanthanum 2019-02-26 05:15:37 37.9003 -78.8659 434 -1.4 58.8 1004.9 #ffc800
6 Lanthanum 2019-02-26 05:30:13 37.9003 -78.8659 435 -1.5 58.4 1005 #ffc400
6 Lanthanum 2019-02-26 05:44:50 37.9003 -78.8659 442 -1.7 62.1 1005.3 #ffa800
6 Lanthanum 2019-02-26 05:59:25 37.9003 -78.8659 441.5 -1.9 63.3 1005.3 #ffaa00
6 Lanthanum 2019-02-26 06:14:02 37.9003 -78.8659 435 -2 61.9 1005.4 #ffc400
6 Lanthanum 2019-02-26 06:28:38 37.9003 -78.8659 432 -1.9 61.6 1005.5 #ffcf00
6 Lanthanum 2019-02-26 06:43:14 37.9003 -78.8659 444.7 -2.1 64.8 1005.5 #ff9e00
6 Lanthanum 2019-02-26 06:57:49 37.9003 -78.8659 442.3 -2.3 66.5 1005.5 #ffa700
6 Lanthanum 2019-02-26 07:12:26 37.9003 -78.8659 451.2 -2.3 67.6 1005.6 #ff8400
6 Lanthanum 2019-02-26 07:27:02 37.9003 -78.8659 445 -2.2 68.4 1005.7 #ff9c00
6 Lanthanum 2019-02-26 07:41:37 37.9003 -78.8659 445.5 -1.7 70.6 1005.8 #ff9a00
6 Lanthanum 2019-02-26 07:56:14 37.9003 -78.8659 454.2 -1.2 70.6 1006 #ff7800
6 Lanthanum 2019-02-26 08:10:50 37.9003 -78.8659 455.5 -1 70 1006 #ff7300
6 Lanthanum 2019-02-26 08:25:26 37.9003 -78.8659 454 -0.5 68.9 1006 #ff7900
6 Lanthanum 2019-02-26 08:40:02 37.9003 -78.8659 448.8 0.7 66.5 1006 #ff8d00
6 Lanthanum 2019-02-26 08:54:38 37.9003 -78.8659 444.2 1.8 61.8 1005.9 #ffa000
6 Lanthanum 2019-02-26 09:09:14 37.9003 -78.8659 430.8 3.3 50.2 1005.8 #ffd400
6 Lanthanum 2019-02-26 09:23:50 37.9003 -78.8659 431.5 5.2 43.7 1005.8 #ffd100
6 Lanthanum 2019-02-26 09:38:26 37.9003 -78.8659 425 6.5 39.2 1005.5 #ffeb00
6 Lanthanum 2019-02-26 09:53:02 37.9003 -78.8659 423.5 7.6 35.1 1005.5 #fff100
6 Lanthanum 2019-02-26 10:07:38 37.9003 -78.8659 421 8.9 32.9 1005.3 #fffb00
6 Lanthanum 2019-02-26 10:22:14 37.9003 -78.8659 419.3 9.9 30.5 1005.1 #fcff00
6 Lanthanum 2019-02-26 10:36:49 37.9003 -78.8659 419 10.5 30 1005 #fbff00
6 Lanthanum 2019-02-26 10:51:25 37.9003 -78.8659 413.8 11.4 28.5 1004.7 #e8ff00
6 Lanthanum 2019-02-26 11:06:01 37.9003 -78.8659 417 12.3 26.1 1004.2 #f4ff00
6 Lanthanum 2019-02-26 11:20:37 37.9003 -78.8659 416 13.1 26.1 1003.9 #f0ff00
6 Lanthanum 2019-02-26 11:35:13 37.9003 -78.8659 416 14 24.7 1003.8 #f0ff00
6 Lanthanum 2019-02-26 11:49:49 37.9003 -78.8659 416 14.8 23.2 1003.5 #f0ff00
6 Lanthanum 2019-02-26 12:04:25 37.9003 -78.8659 417.3 15.4 22.3 1003.4 #f5ff00
6 Lanthanum 2019-02-26 12:19:01 37.9003 -78.8659 415 16.5 21.8 1003.1 #ecff00
6 Lanthanum 2019-02-26 12:33:37 37.9003 -78.8659 414.5 17.3 21.1 1002.8 #eaff00
6 Lanthanum 2019-02-26 12:48:14 37.9003 -78.8659 415 17.5 20.3 1002.5 #ecff00
6 Lanthanum 2019-02-26 13:02:50 37.9003 -78.8659 414 17.6 20.4 1002.2 #e9ff00
6 Lanthanum 2019-02-26 13:17:26 37.9003 -78.8659 414.8 17.7 20.3 1002.1 #ecff00
6 Lanthanum 2019-02-26 13:32:02 37.9003 -78.8659 413 17.6 20.3 1001.7 #e5ff00
6 Lanthanum 2019-02-26 13:46:38 37.9003 -78.8659 414.2 17.4 20.8 1001.4 #e9ff00
6 Lanthanum 2019-02-26 14:01:14 37.9003 -78.8659 411.3 17.6 18.6 1001.2 #dfff00
6 Lanthanum 2019-02-26 14:15:50 37.9003 -78.8659 409.8 17.8 17.7 1000.9 #d9ff00
6 Lanthanum 2019-02-26 14:30:26 37.9003 -78.8659 411 17.9 17.1 1000.7 #deff00
6 Lanthanum 2019-02-26 14:45:02 37.9003 -78.8659 409.8 17.9 16.3 1000.6 #d9ff00
6 Lanthanum 2019-02-26 14:59:38 37.9003 -78.8659 410 18 16.1 1000.4 #daff00
6 Lanthanum 2019-02-26 15:14:19 37.9003 -78.8659 411 18.3 15.8 1000.1 #deff00
6 Lanthanum 2019-02-26 15:28:55 37.9003 -78.8659 412 18.3 15.6 1000.2 #e1ff00
6 Lanthanum 2019-02-26 15:43:31 37.9003 -78.8659 407.5 17.9 15.9 1000.2 #d1ff00
6 Lanthanum 2019-02-26 15:58:08 37.9003 -78.8659 408.3 17.8 16.4 1000.1 #d4ff00
6 Lanthanum 2019-02-26 16:12:44 37.9003 -78.8659 409 17.7 17.1 1000 #d6ff00
6 Lanthanum 2019-02-26 16:27:20 37.9003 -78.8659 415 17.5 15.4 999.9 #ecff00
6 Lanthanum 2019-02-26 16:41:56 37.9003 -78.8659 408 17.5 15 1000 #d3ff00
6 Lanthanum 2019-02-26 16:56:39 37.9003 -78.8659 409 17.1 15.2 999.9 #d6ff00
6 Lanthanum 2019-02-26 17:11:15 37.9003 -78.8659 409 16.6 15.9 1000 #d6ff00
6 Lanthanum 2019-02-26 17:25:52 37.9003 -78.8659 409 16.2 15.6 1000 #d6ff00
6 Lanthanum 2019-02-26 17:40:28 37.9003 -78.8659 409 15.8 16.4 1000.2 #d6ff00
6 Lanthanum 2019-02-26 17:55:04 37.9003 -78.8659 411 15.2 17.1 1000.4 #deff00
6 Lanthanum 2019-02-26 18:09:40 37.9003 -78.8659 413 14.6 17.6 1000.7 #e5ff00
6 Lanthanum 2019-02-26 18:24:16 37.9003 -78.8659 413 13.9 19.2 1001 #e5ff00
6 Lanthanum 2019-02-26 18:38:52 37.9003 -78.8659 417.5 13 20.9 1001.2 #f5ff00
6 Lanthanum 2019-02-26 18:53:28 37.9003 -78.8659 416 12.2 22.6 1001.3 #f0ff00
6 Lanthanum 2019-02-26 19:08:04 37.9003 -78.8659 415.7 11.4 23.8 1001.5 #efff00
6 Lanthanum 2019-02-26 19:22:40 37.9003 -78.8659 420 10.5 26.7 1001.6 #ffff00
6 Lanthanum 2019-02-26 19:37:16 37.9003 -78.8659 421.8 9.6 30 1001.5 #fff700
6 Lanthanum 2019-02-26 19:51:52 37.9003 -78.8659 422 8.8 30.3 1001.6 #fff700
6 Lanthanum 2019-02-26 20:06:28 37.9003 -78.8659 432 7.9 38 1001.7 #ffcf00
6 Lanthanum 2019-02-26 20:21:04 37.9003 -78.8659 427.5 7.3 37.4 1001.8 #ffe100
6 Lanthanum 2019-02-26 20:35:40 37.9003 -78.8659 433 6.8 41.2 1002.1 #ffcc00
6 Lanthanum 2019-02-26 20:50:16 37.9003 -78.8659 448.2 5.9 50.2 1002.4 #ff9000
6 Lanthanum 2019-02-26 21:04:52 37.9003 -78.8659 427 6.1 42.5 1002.6 #ffe300
6 Lanthanum 2019-02-26 21:19:28 37.9003 -78.8659 414.3 8.3 36.8 1002.9 #eaff00
6 Lanthanum 2019-02-26 21:34:04 37.9003 -78.8659 419 9.2 34 1003 #fbff00
6 Lanthanum 2019-02-26 21:48:40 37.9003 -78.8659 419 9.1 33.5 1003.1 #fbff00
6 Lanthanum 2019-02-26 22:03:16 37.9003 -78.8659 419 8.9 32.7 1003.3 #fbff00
6 Lanthanum 2019-02-26 22:17:52 37.9003 -78.8659 420.2 8.4 33 1003.6 #fffe00
6 Lanthanum 2019-02-26 22:32:28 37.9003 -78.8659 420.3 8.1 33 1003.9 #fffd00
6 Lanthanum 2019-02-26 22:47:04 37.9003 -78.8659 418.5 7.7 32.8 1003.9 #f9ff00
6 Lanthanum 2019-02-26 23:01:40 37.9003 -78.8659 421 7.1 33.5 1003.7 #fffb00
6 Lanthanum 2019-02-26 23:16:16 37.9003 -78.8659 422 6.8 33.7 1003.5 #fff700
6 Lanthanum 2019-02-26 23:30:52 37.9003 -78.8659 420.5 6.5 34.7 1003.5 #fffd00
6 Lanthanum 2019-02-26 23:45:28 37.9003 -78.8659 422 6.1 35.8 1003.7 #fff700
6 Lanthanum 2019-02-27 00:00:04 37.9003 -78.8659 420.7 6.1 35.9 1003.8 #fffc00
6 Lanthanum 2019-02-27 00:14:40 37.9003 -78.8659 421.8 5.7 35.5 1003.9 #fff700
6 Lanthanum 2019-02-27 00:29:16 37.9003 -78.8659 421.7 5.4 35.5 1003.9 #fff800
6 Lanthanum 2019-02-27 00:43:52 37.9003 -78.8659 422.2 5.2 35.8 1003.8 #fff600
6 Lanthanum 2019-02-27 00:58:28 37.9003 -78.8659 420 4.7 37.3 1003.7 #ffff00
6 Lanthanum 2019-02-27 01:13:04 37.9003 -78.8659 421 4.4 37.5 1003.6 #fffb00
6 Lanthanum 2019-02-27 01:27:40 37.9003 -78.8659 422.2 4.2 38 1003.9 #fff600
6 Lanthanum 2019-02-27 01:42:16 37.9003 -78.8659 418.5 4 38.3 1003.8 #f9ff00
6 Lanthanum 2019-02-27 01:56:52 37.9003 -78.8659 422 3.8 38.5 1004 #fff700
6 Lanthanum 2019-02-27 02:11:28 37.9003 -78.8659 421 3.9 38.7 1003.9 #fffb00
6 Lanthanum 2019-02-27 02:26:04 37.9003 -78.8659 422.3 3.6 39.6 1003.9 #fff500
6 Lanthanum 2019-02-27 02:40:40 37.9003 -78.8659 420.3 3.3 40.2 1003.8 #fffd00
6 Lanthanum 2019-02-27 02:55:16 37.9003 -78.8659 424.7 3 41.2 1003.8 #ffec00
6 Lanthanum 2019-02-27 03:09:52 37.9003 -78.8659 422 2.8 41.4 1003.5 #fff700
6 Lanthanum 2019-02-27 03:24:28 37.9003 -78.8659 424.5 2.6 42.7 1003.4 #ffed00
6 Lanthanum 2019-02-27 03:39:04 37.9003 -78.8659 423 2.4 43.6 1003.3 #fff300
6 Lanthanum 2019-02-27 03:53:40 37.9003 -78.8659 424.2 2.3 44.8 1003.4 #ffee00
6 Lanthanum 2019-02-27 04:08:16 37.9003 -78.8659 426 2 45.5 1003.5 #ffe700
6 Lanthanum 2019-02-27 04:22:52 37.9003 -78.8659 426 2 45.7 1003.7 #ffe700
6 Lanthanum 2019-02-27 04:37:28 37.9003 -78.8659 426 1.8 46.5 1003.9 #ffe700
6 Lanthanum 2019-02-27 04:52:04 37.9003 -78.8659 425.8 1.7 47 1004 #ffe800
6 Lanthanum 2019-02-27 05:06:40 37.9003 -78.8659 426 1.7 47.4 1004.1 #ffe700
6 Lanthanum 2019-02-27 05:21:16 37.9003 -78.8659 426.3 1.5 48.2 1004.1 #ffe600
6 Lanthanum 2019-02-27 05:35:52 37.9003 -78.8659 427 1.3 48.9 1004.2 #ffe300
6 Lanthanum 2019-02-27 05:50:28 37.9003 -78.8659 425 1.1 49.7 1004.2 #ffeb00
6 Lanthanum 2019-02-27 06:05:04 37.9003 -78.8659 427 1 50 1004.3 #ffe300
6 Lanthanum 2019-02-27 06:19:40 37.9003 -78.8659 428 0.8 51 1004.5 #ffdf00
6 Lanthanum 2019-02-27 06:34:16 37.9003 -78.8659 427 0.6 51.7 1004.7 #ffe300
6 Lanthanum 2019-02-27 06:48:52 37.9003 -78.8659 428.2 0.5 52.6 1004.7 #ffde00
6 Lanthanum 2019-02-27 07:03:28 37.9003 -78.8659 426.8 0.5 53.1 1004.5 #ffe400
6 Lanthanum 2019-02-27 07:18:04 37.9003 -78.8659 428.7 0.6 54.1 1004.1 #ffdc00
6 Lanthanum 2019-02-27 07:32:40 37.9003 -78.8659 428.2 0.8 54 1004.2 #ffde00
6 Lanthanum 2019-02-27 07:47:16 37.9003 -78.8659 427 1.2 53.9 1004.1 #ffe300
6 Lanthanum 2019-02-27 08:01:52 37.9003 -78.8659 427.8 1.8 53.4 1003.9 #ffe000
6 Lanthanum 2019-02-27 08:16:28 37.9003 -78.8659 426.3 2.3 51.4 1004.2 #ffe600
6 Lanthanum 2019-02-27 08:31:04 37.9003 -78.8659 425.8 2.5 51.1 1003.9 #ffe800
6 Lanthanum 2019-02-27 08:45:40 37.9003 -78.8659 425.8 2.9 50.7 1004 #ffe800
6 Lanthanum 2019-02-27 09:00:16 37.9003 -78.8659 425 3.3 49.5 1003.9 #ffeb00
6 Lanthanum 2019-02-27 09:14:52 37.9003 -78.8659 421 3.8 48.5 1003.8 #fffb00
6 Lanthanum 2019-02-27 09:29:28 37.9003 -78.8659 424 4.4 47.3 1003.5 #ffef00
6 Lanthanum 2019-02-27 09:44:04 37.9003 -78.8659 425.2 4.9 45.2 1003.3 #ffea00
6 Lanthanum 2019-02-27 09:58:40 37.9003 -78.8659 423 5.4 43.1 1002.7 #fff300
6 Lanthanum 2019-02-27 10:13:16 37.9003 -78.8659 421 5.9 42.2 1002.1 #fffb00
6 Lanthanum 2019-02-27 10:27:52 37.9003 -78.8659 423 6 42 1002 #fff300
6 Lanthanum 2019-02-27 10:42:28 37.9003 -78.8659 422 6.5 42.3 1002 #fff700
6 Lanthanum 2019-02-27 10:57:04 37.9003 -78.8659 422 6.7 41.9 1001.8 #fff700
6 Lanthanum 2019-02-27 11:11:40 37.9003 -78.8659 423 7 41.2 1001.3 #fff300
6 Lanthanum 2019-02-27 11:26:16 37.9003 -78.8659 419 7.5 40.8 1001.1 #fbff00
6 Lanthanum 2019-02-27 11:40:52 37.9003 -78.8659 420 7.8 40.9 1000.9 #ffff00
6 Lanthanum 2019-02-27 11:55:28 37.9003 -78.8659 421 8.2 41.9 1000.8 #fffb00
6 Lanthanum 2019-02-27 12:10:04 37.9003 -78.8659 420 8.4 42.6 1000.2 #ffff00
6 Lanthanum 2019-02-27 12:24:40 37.9003 -78.8659 419 9 41.3 999.7 #fbff00
6 Lanthanum 2019-02-27 12:39:16 37.9003 -78.8659 421 9.4 40.7 999.4 #fffb00
6 Lanthanum 2019-02-27 12:53:52 37.9003 -78.8659 418 9 42.2 998.9 #f7ff00
6 Lanthanum 2019-02-27 13:08:28 37.9003 -78.8659 418.5 9.4 42.4 998.4 #f9ff00
6 Lanthanum 2019-02-27 13:23:04 37.9003 -78.8659 419.3 9.8 41.5 997.7 #fcff00
6 Lanthanum 2019-02-27 13:37:40 37.9003 -78.8659 419 10.5 40.9 997.3 #fbff00
6 Lanthanum 2019-02-27 13:52:16 37.9003 -78.8659 420 11.4 38.7 997.1 #ffff00
6 Lanthanum 2019-02-27 14:06:52 37.9003 -78.8659 418 11.3 38.6 996.6 #f7ff00
6 Lanthanum 2019-02-27 14:21:28 37.9003 -78.8659 419 10.7 40 996.1 #fbff00
6 Lanthanum 2019-02-27 14:36:04 37.9003 -78.8659 416.8 10.6 40.7 995.7 #f3ff00
6 Lanthanum 2019-02-27 14:50:40 37.9003 -78.8659 417 10.9 40.5 995.5 #f4ff00
6 Lanthanum 2019-02-27 15:05:16 37.9003 -78.8659 415.8 11 41.5 995.4 #efff00
6 Lanthanum 2019-02-27 15:19:52 37.9003 -78.8659 416.2 11.1 41.1 995.1 #f1ff00
6 Lanthanum 2019-02-27 15:34:28 37.9003 -78.8659 416 11.1 41.4 994.6 #f0ff00
6 Lanthanum 2019-02-27 15:49:04 37.9003 -78.8659 419.3 11.5 41.6 994.6 #fcff00
6 Lanthanum 2019-02-27 16:03:40 37.9003 -78.8659 417 11.6 41.6 994.5 #f4ff00
6 Lanthanum 2019-02-27 16:18:16 37.9003 -78.8659 421.3 11.5 42.1 994.3 #fff900
6 Lanthanum 2019-02-27 16:32:52 37.9003 -78.8659 416 11.3 43.3 994.1 #f0ff00
6 Lanthanum 2019-02-27 16:47:28 37.9003 -78.8659 415.5 11.2 44.1 994 #eeff00
6 Lanthanum 2019-02-27 17:02:04 37.9003 -78.8659 416.8 10.9 44.7 993.8 #f3ff00
6 Lanthanum 2019-02-27 17:16:41 37.9003 -78.8659 413.3 10.5 45.9 993.7 #e6ff00
6 Lanthanum 2019-02-27 17:31:18 37.9003 -78.8659 416 10.2 47 993.6 #f0ff00
6 Lanthanum 2019-02-27 17:45:54 37.9003 -78.8659 418 9.8 48.3 993.6 #f7ff00
6 Lanthanum 2019-02-27 18:00:30 37.9003 -78.8659 417 9.4 49.1 993.4 #f4ff00
6 Lanthanum 2019-02-27 18:15:06 37.9003 -78.8659 418 8.9 50.6 993.3 #f7ff00
6 Lanthanum 2019-02-27 18:29:42 37.9003 -78.8659 422.5 8.4 51.6 993.2 #fff500
6 Lanthanum 2019-02-27 18:44:18 37.9003 -78.8659 419 8 52.4 993.3 #fbff00
6 Lanthanum 2019-02-27 18:58:54 37.9003 -78.8659 419.5 7.7 53 993.3 #fdff00
6 Lanthanum 2019-02-27 19:13:30 37.9003 -78.8659 419 7.5 53.8 993.2 #fbff00
6 Lanthanum 2019-02-27 19:28:06 37.9003 -78.8659 419.3 7.3 54.5 993.1 #fcff00
6 Lanthanum 2019-02-27 19:42:42 37.9003 -78.8659 422 7 55.9 993 #fff700
6 Lanthanum 2019-02-27 19:57:18 37.9003 -78.8659 421.2 6.8 56.9 992.9 #fffa00
6 Lanthanum 2019-02-27 20:11:54 37.9003 -78.8659 420.3 6.7 57.8 992.9 #fffd00
6 Lanthanum 2019-02-27 20:26:30 37.9003 -78.8659 420.2 6.5 58.6 992.8 #fffe00
6 Lanthanum 2019-02-27 20:41:06 37.9003 -78.8659 427.5 6.2 59.7 992.9 #ffe100
6 Lanthanum 2019-02-27 20:55:42 37.9003 -78.8659 429 5.8 61.5 993.1 #ffdb00
6 Lanthanum 2019-02-27 21:10:18 37.9003 -78.8659 422.7 5.6 63 993.1 #fff400
6 Lanthanum 2019-02-27 21:24:54 37.9003 -78.8659 426 5.9 62.2 993.2 #ffe700
6 Lanthanum 2019-02-27 21:39:30 37.9003 -78.8659 427 6 62.9 993.2 #ffe300
6 Lanthanum 2019-02-27 21:54:07 37.9003 -78.8659 432 5.9 64.1 993.2 #ffcf00
6 Lanthanum 2019-02-27 22:08:43 37.9003 -78.8659 436.8 5.5 64.6 993 #ffbc00
6 Lanthanum 2019-02-27 22:23:19 37.9003 -78.8659 435 5.3 65.4 992.9 #ffc400
6 Lanthanum 2019-02-27 22:37:55 37.9003 -78.8659 436 5 66.5 992.7 #ffc000
6 Lanthanum 2019-02-27 22:52:31 37.9003 -78.8659 434 4.5 67.7 992.4 #ffc800
6 Lanthanum 2019-02-27 23:07:06 37.9003 -78.8659 436 4 68.9 992.2 #ffc000
6 Lanthanum 2019-02-27 23:21:43 37.9003 -78.8659 432.7 3.6 70.6 992.1 #ffcd00
6 Lanthanum 2019-02-27 23:36:19 37.9003 -78.8659 437 3.3 72 991.8 #ffbc00
6 Lanthanum 2019-02-27 23:50:55 37.9003 -78.8659 435.8 3 73.1 991.5 #ffc000
6 Lanthanum 2019-02-28 00:05:31 37.9003 -78.8659 437.5 2.8 74.1 991.4 #ffba00
6 Lanthanum 2019-02-28 00:20:07 37.9003 -78.8659 437 2.6 75.8 991.3 #ffbc00
6 Lanthanum 2019-02-28 00:34:43 37.9003 -78.8659 441 2.3 76.1 991.1 #ffac00
6 Lanthanum 2019-02-28 00:49:19 37.9003 -78.8659 440.3 2.1 76.3 991.1 #ffaf00
6 Lanthanum 2019-02-28 01:03:55 37.9003 -78.8659 436 2 77.5 990.9 #ffc000
6 Lanthanum 2019-02-28 01:18:31 37.9003 -78.8659 437 2.2 77.2 990.8 #ffbc00
6 Lanthanum 2019-02-28 01:33:07 37.9003 -78.8659 440.3 2 77.5 990.8 #ffaf00
6 Lanthanum 2019-02-28 01:47:43 37.9003 -78.8659 445 2.3 78 990.5 #ff9c00
6 Lanthanum 2019-02-28 02:02:19 37.9003 -78.8659 440.3 2.4 77.8 990.3 #ffaf00
6 Lanthanum 2019-02-28 02:16:55 37.9003 -78.8659 441 2.3 78.1 990.1 #ffac00
6 Lanthanum 2019-02-28 02:31:31 37.9003 -78.8659<